<?xml version='1.0' encoding='UTF-8'?><gpx version="1.1" creator="JPX - https://github.com/jenetics/jpx" xmlns="http://www.topografix.com/GPX/1/1"><trk><trkseg><trkpt lat="44.826004622109274" lon="7.302625862354005"><ele>398.0</ele><time>2026-04-14T15:33:59.001Z</time></trkpt><trkpt lat="44.826018571770284" lon="7.3025166010948075"><ele>398.0</ele><time>2026-04-14T15:34:02.001Z</time></trkpt><trkpt lat="44.825944840060956" lon="7.30250271171188"><ele>398.0</ele><time>2026-04-14T15:34:08.001Z</time></trkpt><trkpt lat="44.825864853117785" lon="7.302541527524824"><ele>398.0</ele><time>2026-04-14T15:34:10.001Z</time></trkpt><trkpt lat="44.82580086569027" lon="7.302675702968731"><ele>398.0</ele><time>2026-04-14T15:34:12.001Z</time></trkpt><trkpt lat="44.825760010184226" lon="7.3028085683159745"><ele>396.79999999999995</ele><time>2026-04-14T15:34:14.001Z</time></trkpt><trkpt lat="44.82574181039089" lon="7.302937931983877"><ele>395.6</ele><time>2026-04-14T15:34:16.001Z</time></trkpt><trkpt lat="44.82573064955702" lon="7.303081732809483"><ele>394.4</ele><time>2026-04-14T15:34:18.001Z</time></trkpt><trkpt lat="44.82571421837188" lon="7.303225965812403"><ele>393.20000000000005</ele><time>2026-04-14T15:34:20.001Z</time></trkpt><trkpt lat="44.825688798707944" lon="7.3033552787400815"><ele>392.0</ele><time>2026-04-14T15:34:22.001Z</time></trkpt><trkpt lat="44.82568050845644" lon="7.303475635523977"><ele>392.0</ele><time>2026-04-14T15:34:24.001Z</time></trkpt><trkpt lat="44.82565306024733" lon="7.303579474491171"><ele>392.0</ele><time>2026-04-14T15:34:26.001Z</time></trkpt><trkpt lat="44.82559878370378" lon="7.3036518097866185"><ele>392.0</ele><time>2026-04-14T15:34:28.001Z</time></trkpt><trkpt lat="44.825490153774744" lon="7.303652692575393"><ele>392.0</ele><time>2026-04-14T15:34:30.001Z</time></trkpt><trkpt lat="44.825392105040194" lon="7.303616475336887"><ele>392.0</ele><time>2026-04-14T15:34:32.001Z</time></trkpt><trkpt lat="44.82529106529361" lon="7.303616242622597"><ele>391.99999999999994</ele><time>2026-04-14T15:34:34.001Z</time></trkpt><trkpt lat="44.82519003108493" lon="7.303604630422143"><ele>392.0</ele><time>2026-04-14T15:34:36.001Z</time></trkpt><trkpt lat="44.82510193631955" lon="7.30358659700183"><ele>392.0</ele><time>2026-04-14T15:34:38.001Z</time></trkpt><trkpt lat="44.82501764953452" lon="7.303574946337402"><ele>392.0</ele><time>2026-04-14T15:34:40.001Z</time></trkpt><trkpt lat="44.82493729278796" lon="7.3035388215523485"><ele>391.99999999999994</ele><time>2026-04-14T15:34:42.001Z</time></trkpt><trkpt lat="44.82486813897891" lon="7.3035221957149385"><ele>392.0</ele><time>2026-04-14T15:34:44.001Z</time></trkpt><trkpt lat="44.82478617956705" lon="7.303500420759769"><ele>391.7142857142857</ele><time>2026-04-14T15:34:47.001Z</time></trkpt><trkpt lat="44.82471605175066" lon="7.303472345902498"><ele>391.42857142857144</ele><time>2026-04-14T15:34:49.001Z</time></trkpt><trkpt lat="44.82464546771025" lon="7.303449259247306"><ele>391.1428571428571</ele><time>2026-04-14T15:34:51.001Z</time></trkpt><trkpt lat="44.824585463999966" lon="7.303410146430106"><ele>390.8571428571429</ele><time>2026-04-14T15:34:53.001Z</time></trkpt><trkpt lat="44.824574588801106" lon="7.303309570973884"><ele>390.57142857142856</ele><time>2026-04-14T15:34:56.001Z</time></trkpt><trkpt lat="44.82456123476464" lon="7.303213673140823"><ele>390.2857142857143</ele><time>2026-04-14T15:34:58.001Z</time></trkpt><trkpt lat="44.824565163871775" lon="7.303098009828024"><ele>390.0</ele><time>2026-04-14T15:35:00.001Z</time></trkpt><trkpt lat="44.824569470152504" lon="7.302976618998436"><ele>390.0</ele><time>2026-04-14T15:35:02.001Z</time></trkpt><trkpt lat="44.82455698364764" lon="7.302849560525824"><ele>390.0</ele><time>2026-04-14T15:35:04.001Z</time></trkpt><trkpt lat="44.82456761383674" lon="7.302736536375956"><ele>390.0</ele><time>2026-04-14T15:35:06.001Z</time></trkpt><trkpt lat="44.82457615097879" lon="7.3026231033261"><ele>390.0</ele><time>2026-04-14T15:35:08.001Z</time></trkpt><trkpt lat="44.82456467275505" lon="7.302517126321824"><ele>390.0</ele><time>2026-04-14T15:35:10.001Z</time></trkpt><trkpt lat="44.82457016941002" lon="7.302421984776782"><ele>390.0</ele><time>2026-04-14T15:35:12.001Z</time></trkpt><trkpt lat="44.82462034558234" lon="7.3023679280401845"><ele>390.0</ele><time>2026-04-14T15:35:15.001Z</time></trkpt><trkpt lat="44.82471013771517" lon="7.302344053911064"><ele>390.0</ele><time>2026-04-14T15:35:35.002Z</time></trkpt><trkpt lat="44.82477335864344" lon="7.302343609988766"><ele>390.0</ele><time>2026-04-14T15:35:38.002Z</time></trkpt><trkpt lat="44.8248396810268" lon="7.3023547765533925"><ele>390.0</ele><time>2026-04-14T15:35:46Z</time></trkpt><trkpt lat="44.82492676640239" lon="7.302340145205863"><ele>390.0</ele><time>2026-04-14T15:35:52Z</time></trkpt><trkpt lat="44.825002568210515" lon="7.302336454024571"><ele>390.0</ele><time>2026-04-14T15:35:55Z</time></trkpt><trkpt lat="44.82507644517106" lon="7.302340636503911"><ele>389.8333333333333</ele><time>2026-04-14T15:35:58Z</time></trkpt><trkpt lat="44.82516090505003" lon="7.302338546810811"><ele>389.66666666666663</ele><time>2026-04-14T15:36:01Z</time></trkpt><trkpt lat="44.82525089193962" lon="7.302329757594444"><ele>389.5</ele><time>2026-04-14T15:36:04Z</time></trkpt><trkpt lat="44.82533241820396" lon="7.302329765483966"><ele>389.3333333333333</ele><time>2026-04-14T15:36:06Z</time></trkpt><trkpt lat="44.825413740951994" lon="7.302323304240049"><ele>389.16666666666663</ele><time>2026-04-14T15:36:08Z</time></trkpt><trkpt lat="44.82550716678713" lon="7.302324577597761"><ele>389.0</ele><time>2026-04-14T15:36:10Z</time></trkpt><trkpt lat="44.825644283048675" lon="7.302318772345192"><ele>388.99999999999994</ele><time>2026-04-14T15:36:13.001Z</time></trkpt><trkpt lat="44.8257198845482" lon="7.302324680461796"><ele>389.0</ele><time>2026-04-14T15:36:16.001Z</time></trkpt><trkpt lat="44.82577912335735" lon="7.302286788725062"><ele>389.0</ele><time>2026-04-14T15:36:20.001Z</time></trkpt><trkpt lat="44.82577697737733" lon="7.302158677635555"><ele>389.0</ele><time>2026-04-14T15:36:22.001Z</time></trkpt><trkpt lat="44.82576618338568" lon="7.3020434214762915"><ele>388.99999999999994</ele><time>2026-04-14T15:36:24.001Z</time></trkpt><trkpt lat="44.82580226130789" lon="7.3019198762754165"><ele>389.0</ele><time>2026-04-14T15:36:26.001Z</time></trkpt><trkpt lat="44.825809682546925" lon="7.301786633780891"><ele>389.4</ele><time>2026-04-14T15:36:28.001Z</time></trkpt><trkpt lat="44.825796649121536" lon="7.301652942260147"><ele>389.79999999999995</ele><time>2026-04-14T15:36:30.001Z</time></trkpt><trkpt lat="44.825794497996704" lon="7.3015213492959345"><ele>390.20000000000005</ele><time>2026-04-14T15:36:32.001Z</time></trkpt><trkpt lat="44.82580210205819" lon="7.301389101023963"><ele>390.6</ele><time>2026-04-14T15:36:34.001Z</time></trkpt><trkpt lat="44.82581146674076" lon="7.3012536306524884"><ele>391.0</ele><time>2026-04-14T15:36:36.001Z</time></trkpt><trkpt lat="44.82582497391422" lon="7.301116540969799"><ele>391.4</ele><time>2026-04-14T15:36:38.001Z</time></trkpt><trkpt lat="44.825834075867355" lon="7.300978621591342"><ele>391.8</ele><time>2026-04-14T15:36:40.001Z</time></trkpt><trkpt lat="44.82584156339919" lon="7.300828608754292"><ele>392.2</ele><time>2026-04-14T15:36:42.001Z</time></trkpt><trkpt lat="44.82583467045776" lon="7.300685743204755"><ele>392.59999999999997</ele><time>2026-04-14T15:36:44.001Z</time></trkpt><trkpt lat="44.825832266475736" lon="7.300543494220944"><ele>393.0</ele><time>2026-04-14T15:36:46.001Z</time></trkpt><trkpt lat="44.825835398163264" lon="7.300419638929597"><ele>393.79999999999995</ele><time>2026-04-14T15:36:48.001Z</time></trkpt><trkpt lat="44.82582993817045" lon="7.300310474934825"><ele>394.6</ele><time>2026-04-14T15:36:50.001Z</time></trkpt><trkpt lat="44.82581210112106" lon="7.300194633573599"><ele>395.4</ele><time>2026-04-14T15:36:52.001Z</time></trkpt><trkpt lat="44.82576684577846" lon="7.2999891429774975"><ele>396.20000000000005</ele><time>2026-04-14T15:36:55.001Z</time></trkpt><trkpt lat="44.825739831948525" lon="7.299842979990006"><ele>397.0</ele><time>2026-04-14T15:36:57.001Z</time></trkpt><trkpt lat="44.82571281463092" lon="7.299692272939034"><ele>397.6</ele><time>2026-04-14T15:36:59.001Z</time></trkpt><trkpt lat="44.82567528203846" lon="7.2995435174889645"><ele>398.20000000000005</ele><time>2026-04-14T15:37:01.001Z</time></trkpt><trkpt lat="44.82564324734944" lon="7.29940950704697"><ele>398.8</ele><time>2026-04-14T15:37:03.001Z</time></trkpt><trkpt lat="44.82561900776149" lon="7.299268897358053"><ele>399.4</ele><time>2026-04-14T15:37:05.001Z</time></trkpt><trkpt lat="44.825591409430935" lon="7.299130391173639"><ele>400.0</ele><time>2026-04-14T15:37:07.001Z</time></trkpt><trkpt lat="44.82556264408065" lon="7.29899728622139"><ele>400.0</ele><time>2026-04-14T15:37:09.001Z</time></trkpt><trkpt lat="44.82553120059723" lon="7.298857574591424"><ele>400.0</ele><time>2026-04-14T15:37:11.001Z</time></trkpt><trkpt lat="44.82549893012114" lon="7.298721333683965"><ele>400.0</ele><time>2026-04-14T15:37:13.001Z</time></trkpt><trkpt lat="44.825473215354464" lon="7.298585457917757"><ele>400.0</ele><time>2026-04-14T15:37:15.001Z</time></trkpt><trkpt lat="44.825435179608284" lon="7.298450811826008"><ele>400.0</ele><time>2026-04-14T15:37:17.001Z</time></trkpt><trkpt lat="44.82539196007971" lon="7.298317814311171"><ele>400.0</ele><time>2026-04-14T15:37:19.001Z</time></trkpt><trkpt lat="44.82534574054283" lon="7.298191347141931"><ele>400.0</ele><time>2026-04-14T15:37:21.001Z</time></trkpt><trkpt lat="44.825301221816204" lon="7.2980650736265655"><ele>400.0</ele><time>2026-04-14T15:37:23.001Z</time></trkpt><trkpt lat="44.82525452298068" lon="7.297946278981997"><ele>400.0</ele><time>2026-04-14T15:37:25.001Z</time></trkpt><trkpt lat="44.825210804316654" lon="7.297825028621838"><ele>400.0</ele><time>2026-04-14T15:37:27.001Z</time></trkpt><trkpt lat="44.82516512272897" lon="7.297706806050446"><ele>400.83333333333337</ele><time>2026-04-14T15:37:29.001Z</time></trkpt><trkpt lat="44.82512659482397" lon="7.297594929385932"><ele>401.6666666666667</ele><time>2026-04-14T15:37:31.001Z</time></trkpt><trkpt lat="44.825083715391784" lon="7.297501345917995"><ele>402.5</ele><time>2026-04-14T15:37:33.001Z</time></trkpt><trkpt lat="44.82503969584382" lon="7.297420581714588"><ele>403.33333333333337</ele><time>2026-04-14T15:37:35.001Z</time></trkpt><trkpt lat="44.82496371237683" lon="7.297350376376728"><ele>404.1666666666667</ele><time>2026-04-14T15:37:38.001Z</time></trkpt><trkpt lat="44.824906245319994" lon="7.297282957161494"><ele>405.0</ele><time>2026-04-14T15:37:41.001Z</time></trkpt><trkpt lat="44.8249711697969" lon="7.297334435050268"><ele>404.99999999999994</ele><time>2026-04-14T15:37:54Z</time></trkpt><trkpt lat="44.82502197660469" lon="7.297280643578266"><ele>405.0</ele><time>2026-04-14T15:37:57Z</time></trkpt><trkpt lat="44.82500335456608" lon="7.2973903095037596"><ele>405.0</ele><time>2026-04-14T15:38:15Z</time></trkpt><trkpt lat="44.82504686571576" lon="7.297462482279944"><ele>405.0</ele><time>2026-04-14T15:38:18Z</time></trkpt><trkpt lat="44.82505558350094" lon="7.297370396879076"><ele>405.0</ele><time>2026-04-14T15:38:23.001Z</time></trkpt><trkpt lat="44.8250284754706" lon="7.297280519804105"><ele>404.99999999999994</ele><time>2026-04-14T15:38:26.001Z</time></trkpt><trkpt lat="44.82502449546549" lon="7.297191463112186"><ele>405.0</ele><time>2026-04-14T15:39:00.001Z</time></trkpt><trkpt lat="44.82501157932784" lon="7.297286313733019"><ele>404.99999999999994</ele><time>2026-04-14T15:39:21.001Z</time></trkpt><trkpt lat="44.82496425127651" lon="7.297348009893759"><ele>405.0</ele><time>2026-04-14T15:39:25.001Z</time></trkpt><trkpt lat="44.82492461531595" lon="7.297264406899428"><ele>405.0</ele><time>2026-04-14T15:39:28.001Z</time></trkpt><trkpt lat="44.82488767044779" lon="7.297169326021792"><ele>405.0</ele><time>2026-04-14T15:39:31.001Z</time></trkpt><trkpt lat="44.82486418969421" lon="7.297064392786135"><ele>405.0</ele><time>2026-04-14T15:39:35.001Z</time></trkpt><trkpt lat="44.82484057516025" lon="7.296955042423731"><ele>404.99999999999994</ele><time>2026-04-14T15:39:39.001Z</time></trkpt><trkpt lat="44.824820387940235" lon="7.296866852197637"><ele>405.0</ele><time>2026-04-14T15:39:42.001Z</time></trkpt><trkpt lat="44.82479512372557" lon="7.2967539437882785"><ele>405.85714285714283</ele><time>2026-04-14T15:39:46.001Z</time></trkpt><trkpt lat="44.82476949001981" lon="7.296658715055985"><ele>406.7142857142857</ele><time>2026-04-14T15:39:49.001Z</time></trkpt><trkpt lat="44.824744347218115" lon="7.296566121566517"><ele>407.57142857142856</ele><time>2026-04-14T15:39:52.002Z</time></trkpt><trkpt lat="44.82475821562688" lon="7.296658279355501"><ele>408.42857142857144</ele><time>2026-04-14T15:40:03Z</time></trkpt><trkpt lat="44.824782732384925" lon="7.296763110648007"><ele>409.2857142857143</ele><time>2026-04-14T15:40:06Z</time></trkpt><trkpt lat="44.824808531887584" lon="7.296852734825601"><ele>410.1428571428571</ele><time>2026-04-14T15:40:09Z</time></trkpt><trkpt lat="44.824829898950746" lon="7.296955183692829"><ele>411.0</ele><time>2026-04-14T15:40:12Z</time></trkpt><trkpt lat="44.82485639382674" lon="7.297064373998811"><ele>411.0</ele><time>2026-04-14T15:40:16Z</time></trkpt><trkpt lat="44.82487419621016" lon="7.297164366246726"><ele>411.0</ele><time>2026-04-14T15:40:20Z</time></trkpt><trkpt lat="44.8249133722072" lon="7.297244180724812"><ele>411.0</ele><time>2026-04-14T15:40:25Z</time></trkpt><trkpt lat="44.82485742019492" lon="7.2972903241544484"><ele>411.0</ele><time>2026-04-14T15:40:30.001Z</time></trkpt><trkpt lat="44.82479414463297" lon="7.297219005679599"><ele>411.0</ele><time>2026-04-14T15:40:33.001Z</time></trkpt><trkpt lat="44.82471722382767" lon="7.297153187760154"><ele>411.0</ele><time>2026-04-14T15:40:36.001Z</time></trkpt><trkpt lat="44.82464046783951" lon="7.297087699917402"><ele>411.0</ele><time>2026-04-14T15:40:39.001Z</time></trkpt><trkpt lat="44.824564465555426" lon="7.297028780391873"><ele>411.0</ele><time>2026-04-14T15:40:42.001Z</time></trkpt><trkpt lat="44.824492432625966" lon="7.296963317685306"><ele>411.0</ele><time>2026-04-14T15:40:45.001Z</time></trkpt><trkpt lat="44.8244247434015" lon="7.296903760069797"><ele>411.0</ele><time>2026-04-14T15:40:48.001Z</time></trkpt><trkpt lat="44.824357957981995" lon="7.296847858909707"><ele>411.0</ele><time>2026-04-14T15:40:51.001Z</time></trkpt><trkpt lat="44.824404318531855" lon="7.29691326995544"><ele>411.0</ele><time>2026-04-14T15:40:58.001Z</time></trkpt><trkpt lat="44.82446663108856" lon="7.296961110865236"><ele>411.0</ele><time>2026-04-14T15:41:00.001Z</time></trkpt><trkpt lat="44.8245283664755" lon="7.297014594882305"><ele>411.0</ele><time>2026-04-14T15:41:02.001Z</time></trkpt><trkpt lat="44.824592888404695" lon="7.297075396701317"><ele>411.0</ele><time>2026-04-14T15:41:04.001Z</time></trkpt><trkpt lat="44.82469527429328" lon="7.297165582181251"><ele>411.0</ele><time>2026-04-14T15:41:07.001Z</time></trkpt><trkpt lat="44.824771544786934" lon="7.29722505936456"><ele>411.0</ele><time>2026-04-14T15:41:09.001Z</time></trkpt><trkpt lat="44.824847784663895" lon="7.297282372525017"><ele>411.0</ele><time>2026-04-14T15:41:11.001Z</time></trkpt><trkpt lat="44.82491754798888" lon="7.297332509250215"><ele>411.0</ele><time>2026-04-14T15:41:13.001Z</time></trkpt><trkpt lat="44.824987092098056" lon="7.2973964187812115"><ele>411.0</ele><time>2026-04-14T15:41:16.001Z</time></trkpt><trkpt lat="44.8250572756469" lon="7.297437298151674"><ele>411.0</ele><time>2026-04-14T15:41:20.001Z</time></trkpt><trkpt lat="44.82499603553109" lon="7.297368013423158"><ele>411.0</ele><time>2026-04-14T15:41:25.001Z</time></trkpt><trkpt lat="44.82493715318882" lon="7.297327585498676"><ele>411.0</ele><time>2026-04-14T15:41:27.001Z</time></trkpt><trkpt lat="44.82487577013368" lon="7.297271075876733"><ele>411.0</ele><time>2026-04-14T15:41:29.001Z</time></trkpt><trkpt lat="44.824807586073575" lon="7.297211212768922"><ele>411.0</ele><time>2026-04-14T15:41:31.001Z</time></trkpt><trkpt lat="44.824740534627566" lon="7.297153068162659"><ele>411.0</ele><time>2026-04-14T15:41:33.001Z</time></trkpt><trkpt lat="44.824675413032196" lon="7.297097924338499"><ele>411.0</ele><time>2026-04-14T15:41:35.001Z</time></trkpt><trkpt lat="44.824611290178126" lon="7.297044361920161"><ele>411.0</ele><time>2026-04-14T15:41:37.001Z</time></trkpt><trkpt lat="44.824546413127116" lon="7.296989045052942"><ele>411.0</ele><time>2026-04-14T15:41:39.001Z</time></trkpt><trkpt lat="44.824483433838346" lon="7.2969382971446"><ele>411.0</ele><time>2026-04-14T15:41:41.001Z</time></trkpt><trkpt lat="44.82442207387338" lon="7.296884845463975"><ele>411.0</ele><time>2026-04-14T15:41:43.001Z</time></trkpt><trkpt lat="44.82435877562079" lon="7.29683112984046"><ele>411.0</ele><time>2026-04-14T15:41:45.001Z</time></trkpt><trkpt lat="44.82429734023558" lon="7.2967893401281465"><ele>411.0</ele><time>2026-04-14T15:41:47.001Z</time></trkpt><trkpt lat="44.8242400603722" lon="7.296741837615603"><ele>411.0</ele><time>2026-04-14T15:41:49.001Z</time></trkpt><trkpt lat="44.82418755689424" lon="7.296686979696206"><ele>411.0</ele><time>2026-04-14T15:41:51.002Z</time></trkpt><trkpt lat="44.824132232741164" lon="7.296638125054184"><ele>411.0</ele><time>2026-04-14T15:41:53.002Z</time></trkpt><trkpt lat="44.824073656331514" lon="7.296591832195555"><ele>411.0</ele><time>2026-04-14T15:41:55.002Z</time></trkpt><trkpt lat="44.82402213600243" lon="7.296535368683247"><ele>411.3333333333333</ele><time>2026-04-14T15:41:57.002Z</time></trkpt><trkpt lat="44.82392591566318" lon="7.2964358657974895"><ele>411.66666666666663</ele><time>2026-04-14T15:42:01.002Z</time></trkpt><trkpt lat="44.8238618421994" lon="7.296363075655359"><ele>412.0</ele><time>2026-04-14T15:42:04Z</time></trkpt><trkpt lat="44.823803444053105" lon="7.296286388668001"><ele>412.3333333333333</ele><time>2026-04-14T15:42:07Z</time></trkpt><trkpt lat="44.823751151305764" lon="7.296202205494401"><ele>412.66666666666663</ele><time>2026-04-14T15:42:10Z</time></trkpt><trkpt lat="44.823698092115045" lon="7.296122332620404"><ele>413.0</ele><time>2026-04-14T15:42:13Z</time></trkpt><trkpt lat="44.82365007193703" lon="7.296041251890925"><ele>413.2857142857143</ele><time>2026-04-14T15:42:16Z</time></trkpt><trkpt lat="44.82359396458452" lon="7.295982355414622"><ele>413.57142857142856</ele><time>2026-04-14T15:42:20Z</time></trkpt><trkpt lat="44.823536454451755" lon="7.295919016075962"><ele>413.8571428571429</ele><time>2026-04-14T15:42:24Z</time></trkpt><trkpt lat="44.823486819285016" lon="7.2958364562030615"><ele>414.1428571428571</ele><time>2026-04-14T15:42:28Z</time></trkpt><trkpt lat="44.82343864572376" lon="7.295759730483222"><ele>414.42857142857144</ele><time>2026-04-14T15:42:32Z</time></trkpt><trkpt lat="44.82339945582264" lon="7.2956793354410925"><ele>414.7142857142857</ele><time>2026-04-14T15:42:36.001Z</time></trkpt><trkpt lat="44.82335924818685" lon="7.29560102650604"><ele>415.0</ele><time>2026-04-14T15:42:40.001Z</time></trkpt><trkpt lat="44.823313675828906" lon="7.295528911313478"><ele>415.33333333333337</ele><time>2026-04-14T15:42:44.001Z</time></trkpt><trkpt lat="44.82326901266405" lon="7.295427737848678"><ele>415.6666666666667</ele><time>2026-04-14T15:42:48.001Z</time></trkpt><trkpt lat="44.823231116346115" lon="7.295328613057432"><ele>416.0</ele><time>2026-04-14T15:42:51.001Z</time></trkpt><trkpt lat="44.823194330465476" lon="7.295221471445866"><ele>416.33333333333337</ele><time>2026-04-14T15:42:54.001Z</time></trkpt><trkpt lat="44.8231614956485" lon="7.2951160866643106"><ele>416.6666666666667</ele><time>2026-04-14T15:42:57.001Z</time></trkpt><trkpt lat="44.82312275955306" lon="7.295024205902804"><ele>417.0</ele><time>2026-04-14T15:43:00.001Z</time></trkpt><trkpt lat="44.823072829087586" lon="7.2949312707794185"><ele>417.0</ele><time>2026-04-14T15:43:04.001Z</time></trkpt><trkpt lat="44.82302980491651" lon="7.294862889712672"><ele>417.0</ele><time>2026-04-14T15:43:07.001Z</time></trkpt><trkpt lat="44.82297985096412" lon="7.294803703034005"><ele>417.0</ele><time>2026-04-14T15:43:10.001Z</time></trkpt><trkpt lat="44.82292472572483" lon="7.294747818177911"><ele>417.0</ele><time>2026-04-14T15:43:13.001Z</time></trkpt><trkpt lat="44.82287061812811" lon="7.2946920484897015"><ele>417.0</ele><time>2026-04-14T15:43:16.001Z</time></trkpt><trkpt lat="44.8228107176583" lon="7.294633999842143"><ele>417.0</ele><time>2026-04-14T15:43:21.001Z</time></trkpt><trkpt lat="44.822755849302084" lon="7.294581445630862"><ele>417.0</ele><time>2026-04-14T15:43:26.001Z</time></trkpt><trkpt lat="44.82268853840889" lon="7.294520293064925"><ele>417.5</ele><time>2026-04-14T15:43:34.001Z</time></trkpt><trkpt lat="44.822624767148994" lon="7.294457112245783"><ele>418.0</ele><time>2026-04-14T15:43:38.001Z</time></trkpt><trkpt lat="44.82255507775753" lon="7.294396596721239"><ele>418.5</ele><time>2026-04-14T15:43:42.001Z</time></trkpt><trkpt lat="44.82250330066258" lon="7.294346080231904"><ele>419.0</ele><time>2026-04-14T15:43:45.001Z</time></trkpt><trkpt lat="44.822438634187364" lon="7.294274845607905"><ele>419.5</ele><time>2026-04-14T15:43:49.001Z</time></trkpt><trkpt lat="44.82238041528366" lon="7.294191305117755"><ele>420.0</ele><time>2026-04-14T15:43:53.001Z</time></trkpt><trkpt lat="44.82233648627397" lon="7.294121158583886"><ele>420.0</ele><time>2026-04-14T15:43:56.002Z</time></trkpt><trkpt lat="44.82229201952216" lon="7.294053339596653"><ele>420.0</ele><time>2026-04-14T15:43:59.002Z</time></trkpt><trkpt lat="44.82224779722606" lon="7.293984495190585"><ele>420.0</ele><time>2026-04-14T15:44:02.002Z</time></trkpt><trkpt lat="44.82218286573496" lon="7.293937535157139"><ele>420.0</ele><time>2026-04-14T15:44:06.002Z</time></trkpt><trkpt lat="44.82214130292926" lon="7.293842654160976"><ele>420.0</ele><time>2026-04-14T15:44:19Z</time></trkpt><trkpt lat="44.82214775089782" lon="7.293733867171232"><ele>420.0</ele><time>2026-04-14T15:44:22Z</time></trkpt><trkpt lat="44.82214050152762" lon="7.293632101195712"><ele>420.0</ele><time>2026-04-14T15:44:25Z</time></trkpt><trkpt lat="44.822126656371104" lon="7.2935298659280985"><ele>420.2857142857143</ele><time>2026-04-14T15:44:28Z</time></trkpt><trkpt lat="44.82211142905303" lon="7.29341662983086"><ele>420.57142857142856</ele><time>2026-04-14T15:44:31Z</time></trkpt><trkpt lat="44.82209536857208" lon="7.29331916441688"><ele>420.8571428571429</ele><time>2026-04-14T15:44:34Z</time></trkpt><trkpt lat="44.822082369919166" lon="7.293224909609106"><ele>421.1428571428571</ele><time>2026-04-14T15:44:37.001Z</time></trkpt><trkpt lat="44.82206750514656" lon="7.2931335623834785"><ele>421.42857142857144</ele><time>2026-04-14T15:44:40.001Z</time></trkpt><trkpt lat="44.82205615020242" lon="7.293035512507702"><ele>421.7142857142857</ele><time>2026-04-14T15:44:43.001Z</time></trkpt><trkpt lat="44.822042370113365" lon="7.2929382557364235"><ele>422.0</ele><time>2026-04-14T15:44:46.001Z</time></trkpt><trkpt lat="44.82202981262268" lon="7.292842013000522"><ele>422.8571428571429</ele><time>2026-04-14T15:44:49.001Z</time></trkpt><trkpt lat="44.82201872064823" lon="7.292741904511336"><ele>423.7142857142857</ele><time>2026-04-14T15:44:52.001Z</time></trkpt><trkpt lat="44.822009003257186" lon="7.292640318899113"><ele>424.57142857142856</ele><time>2026-04-14T15:44:55.001Z</time></trkpt><trkpt lat="44.82200422383732" lon="7.292541330072409"><ele>425.42857142857144</ele><time>2026-04-14T15:44:58.001Z</time></trkpt><trkpt lat="44.822005994231006" lon="7.292449534708372"><ele>426.2857142857143</ele><time>2026-04-14T15:45:01.001Z</time></trkpt><trkpt lat="44.82200682984724" lon="7.2923504695071095"><ele>427.14285714285717</ele><time>2026-04-14T15:45:04.001Z</time></trkpt><trkpt lat="44.822010672886066" lon="7.292254759538366"><ele>428.0</ele><time>2026-04-14T15:45:07.001Z</time></trkpt><trkpt lat="44.82201495074095" lon="7.292163018866155"><ele>429.28571428571433</ele><time>2026-04-14T15:45:10.001Z</time></trkpt><trkpt lat="44.82201806343913" lon="7.292072052733887"><ele>430.57142857142856</ele><time>2026-04-14T15:45:13.001Z</time></trkpt><trkpt lat="44.8220217988797" lon="7.291957630347564"><ele>431.8571428571429</ele><time>2026-04-14T15:45:17.001Z</time></trkpt><trkpt lat="44.8220214395915" lon="7.291846508452727"><ele>433.14285714285717</ele><time>2026-04-14T15:45:21.001Z</time></trkpt><trkpt lat="44.822018164033025" lon="7.291747819233367"><ele>434.42857142857144</ele><time>2026-04-14T15:45:25.001Z</time></trkpt><trkpt lat="44.822019519390146" lon="7.291648617895256"><ele>435.7142857142857</ele><time>2026-04-14T15:45:30.001Z</time></trkpt><trkpt lat="44.82201374039959" lon="7.291553224585054"><ele>437.0</ele><time>2026-04-14T15:45:35.001Z</time></trkpt><trkpt lat="44.82199096216235" lon="7.291394619775889"><ele>437.8333333333333</ele><time>2026-04-14T15:47:53.001Z</time></trkpt><trkpt lat="44.82199270905332" lon="7.291279077286501"><ele>438.66666666666663</ele><time>2026-04-14T15:47:57.002Z</time></trkpt><trkpt lat="44.82198631161806" lon="7.291180953335015"><ele>439.5</ele><time>2026-04-14T15:48:00.002Z</time></trkpt><trkpt lat="44.82197557018619" lon="7.291071014460336"><ele>440.33333333333337</ele><time>2026-04-14T15:48:03.002Z</time></trkpt><trkpt lat="44.82195780814199" lon="7.290959252381937"><ele>441.1666666666667</ele><time>2026-04-14T15:48:06.002Z</time></trkpt><trkpt lat="44.82194093186679" lon="7.290847468993705"><ele>442.0</ele><time>2026-04-14T15:48:09.002Z</time></trkpt><trkpt lat="44.82192509128788" lon="7.290750172962208"><ele>442.00000000000006</ele><time>2026-04-14T15:48:12.002Z</time></trkpt><trkpt lat="44.82189733622099" lon="7.290647592025631"><ele>442.0</ele><time>2026-04-14T15:48:15.002Z</time></trkpt><trkpt lat="44.82187824269358" lon="7.290542195368646"><ele>442.0</ele><time>2026-04-14T15:48:18.002Z</time></trkpt><trkpt lat="44.82186550972878" lon="7.290430075759257"><ele>442.0</ele><time>2026-04-14T15:48:21Z</time></trkpt><trkpt lat="44.821862503863755" lon="7.290313725122708"><ele>442.00000000000006</ele><time>2026-04-14T15:48:24Z</time></trkpt><trkpt lat="44.821856986719986" lon="7.290209148360148"><ele>442.0</ele><time>2026-04-14T15:48:27Z</time></trkpt><trkpt lat="44.821852937482916" lon="7.290116044218177"><ele>442.42857142857144</ele><time>2026-04-14T15:48:30Z</time></trkpt><trkpt lat="44.82184007636346" lon="7.290004335572808"><ele>442.8571428571429</ele><time>2026-04-14T15:48:34Z</time></trkpt><trkpt lat="44.82183504814404" lon="7.28990613310324"><ele>443.28571428571433</ele><time>2026-04-14T15:48:37Z</time></trkpt><trkpt lat="44.821830181074034" lon="7.289800341823351"><ele>443.7142857142857</ele><time>2026-04-14T15:48:40Z</time></trkpt><trkpt lat="44.82182337947233" lon="7.289710905805642"><ele>444.1428571428571</ele><time>2026-04-14T15:48:43.001Z</time></trkpt><trkpt lat="44.82181675897055" lon="7.289618618082347"><ele>444.5714285714286</ele><time>2026-04-14T15:48:46.001Z</time></trkpt><trkpt lat="44.82181276530076" lon="7.289524349313114"><ele>445.0</ele><time>2026-04-14T15:48:49.001Z</time></trkpt><trkpt lat="44.8218129305551" lon="7.28942901949053"><ele>446.0</ele><time>2026-04-14T15:48:52.001Z</time></trkpt><trkpt lat="44.82180826382394" lon="7.289336774870015"><ele>447.0</ele><time>2026-04-14T15:48:55.001Z</time></trkpt><trkpt lat="44.82180499061695" lon="7.289240893722078"><ele>448.0</ele><time>2026-04-14T15:48:58.001Z</time></trkpt><trkpt lat="44.821804528427776" lon="7.289147225790792"><ele>449.0</ele><time>2026-04-14T15:49:01.001Z</time></trkpt><trkpt lat="44.82180288972456" lon="7.2890531512678"><ele>450.0</ele><time>2026-04-14T15:49:04.001Z</time></trkpt><trkpt lat="44.821805419727845" lon="7.288957126064428"><ele>451.0</ele><time>2026-04-14T15:49:07.001Z</time></trkpt><trkpt lat="44.8218025606654" lon="7.288860390447715"><ele>452.0</ele><time>2026-04-14T15:49:10.001Z</time></trkpt><trkpt lat="44.8217949950829" lon="7.288753001356353"><ele>451.99999999999994</ele><time>2026-04-14T15:49:14.001Z</time></trkpt><trkpt lat="44.82177956014687" lon="7.288891140666162"><ele>452.0</ele><time>2026-04-14T15:49:20.001Z</time></trkpt><trkpt lat="44.82176710841994" lon="7.289030941484689"><ele>452.0</ele><time>2026-04-14T15:49:22.001Z</time></trkpt><trkpt lat="44.82180518181533" lon="7.289173106719894"><ele>452.0</ele><time>2026-04-14T15:49:24.001Z</time></trkpt><trkpt lat="44.82181177570764" lon="7.289268066871053"><ele>451.99999999999994</ele><time>2026-04-14T15:49:25.001Z</time></trkpt><trkpt lat="44.82181898306246" lon="7.289372337429336"><ele>452.0</ele><time>2026-04-14T15:49:26.001Z</time></trkpt><trkpt lat="44.82182253212653" lon="7.289483970695777"><ele>451.49999999999994</ele><time>2026-04-14T15:49:27.001Z</time></trkpt><trkpt lat="44.821824932949674" lon="7.289579036988509"><ele>451.0</ele><time>2026-04-14T15:49:28.001Z</time></trkpt><trkpt lat="44.82183231627401" lon="7.2897644369902865"><ele>450.5</ele><time>2026-04-14T15:49:30.001Z</time></trkpt><trkpt lat="44.82183370902603" lon="7.289864256450182"><ele>450.0</ele><time>2026-04-14T15:49:31.001Z</time></trkpt><trkpt lat="44.8218437299353" lon="7.289969318329524"><ele>449.49999999999994</ele><time>2026-04-14T15:49:32.001Z</time></trkpt><trkpt lat="44.821854701832414" lon="7.290080377441222"><ele>449.0</ele><time>2026-04-14T15:49:33.001Z</time></trkpt><trkpt lat="44.821851858847715" lon="7.290189577001108"><ele>448.3333333333333</ele><time>2026-04-14T15:49:34.001Z</time></trkpt><trkpt lat="44.82186360000031" lon="7.290307579386762"><ele>447.66666666666663</ele><time>2026-04-14T15:49:35.001Z</time></trkpt><trkpt lat="44.821867848810285" lon="7.290429522621806"><ele>447.0</ele><time>2026-04-14T15:49:36.001Z</time></trkpt><trkpt lat="44.821871015830716" lon="7.29054644244271"><ele>446.33333333333337</ele><time>2026-04-14T15:49:37.001Z</time></trkpt><trkpt lat="44.82188691369209" lon="7.290652857085246"><ele>445.6666666666667</ele><time>2026-04-14T15:49:38.001Z</time></trkpt><trkpt lat="44.82190484595783" lon="7.290745703666764"><ele>445.0</ele><time>2026-04-14T15:49:39.001Z</time></trkpt><trkpt lat="44.82193059573002" lon="7.2908464143049345"><ele>444.5714285714286</ele><time>2026-04-14T15:49:40.001Z</time></trkpt><trkpt lat="44.82194875568049" lon="7.290951999427007"><ele>444.1428571428571</ele><time>2026-04-14T15:49:41.001Z</time></trkpt><trkpt lat="44.821965715951826" lon="7.291055806160854"><ele>443.7142857142857</ele><time>2026-04-14T15:49:42.001Z</time></trkpt><trkpt lat="44.82197766824572" lon="7.29116377023194"><ele>443.28571428571433</ele><time>2026-04-14T15:49:43.001Z</time></trkpt><trkpt lat="44.82198548917745" lon="7.291269811325781"><ele>442.8571428571429</ele><time>2026-04-14T15:49:44.001Z</time></trkpt><trkpt lat="44.82198791074137" lon="7.291372872986907"><ele>442.42857142857144</ele><time>2026-04-14T15:49:45.001Z</time></trkpt><trkpt lat="44.821992197763265" lon="7.291470128883098"><ele>442.0</ele><time>2026-04-14T15:49:46.001Z</time></trkpt><trkpt lat="44.821995901588465" lon="7.291572386912273"><ele>441.0</ele><time>2026-04-14T15:49:47.001Z</time></trkpt><trkpt lat="44.821999068399755" lon="7.291677282314393"><ele>440.00000000000006</ele><time>2026-04-14T15:49:48.001Z</time></trkpt><trkpt lat="44.82199877323943" lon="7.291778567398684"><ele>439.00000000000006</ele><time>2026-04-14T15:49:49.001Z</time></trkpt><trkpt lat="44.8219986149454" lon="7.291932206200089"><ele>438.0</ele><time>2026-04-14T15:49:51.001Z</time></trkpt><trkpt lat="44.82198641714466" lon="7.29208923396633"><ele>437.0</ele><time>2026-04-14T15:49:53.001Z</time></trkpt><trkpt lat="44.821986456306384" lon="7.292208802118868"><ele>435.49999999999994</ele><time>2026-04-14T15:49:54.001Z</time></trkpt><trkpt lat="44.8219950291205" lon="7.292316968251911"><ele>434.0</ele><time>2026-04-14T15:49:55.001Z</time></trkpt><trkpt lat="44.82197694144949" lon="7.292439152809949"><ele>432.5</ele><time>2026-04-14T15:49:57.002Z</time></trkpt><trkpt lat="44.82198071754969" lon="7.292534307186025"><ele>431.0</ele><time>2026-04-14T15:49:58.002Z</time></trkpt><trkpt lat="44.82198424453166" lon="7.2926422798404404"><ele>429.49999999999994</ele><time>2026-04-14T15:49:59.002Z</time></trkpt><trkpt lat="44.82200104463654" lon="7.29272969163329"><ele>428.0</ele><time>2026-04-14T15:50:00.002Z</time></trkpt><trkpt lat="44.82201577904678" lon="7.292838260035283"><ele>427.99999999999994</ele><time>2026-04-14T15:50:01.002Z</time></trkpt><trkpt lat="44.822027300051325" lon="7.292949009702621"><ele>428.0</ele><time>2026-04-14T15:50:02.002Z</time></trkpt><trkpt lat="44.822047165732684" lon="7.293059003804596"><ele>428.0</ele><time>2026-04-14T15:50:03.002Z</time></trkpt><trkpt lat="44.82206353497453" lon="7.293145867019388"><ele>428.0</ele><time>2026-04-14T15:50:04.002Z</time></trkpt><trkpt lat="44.822079498383125" lon="7.293297454233863"><ele>427.99999999999994</ele><time>2026-04-14T15:50:06.002Z</time></trkpt><trkpt lat="44.82210580715278" lon="7.293430957988394"><ele>428.0</ele><time>2026-04-14T15:50:08.002Z</time></trkpt><trkpt lat="44.822129459490746" lon="7.2935540448303415"><ele>426.99999999999994</ele><time>2026-04-14T15:50:10.002Z</time></trkpt><trkpt lat="44.82213952096299" lon="7.293674162903889"><ele>426.0</ele><time>2026-04-14T15:50:12.002Z</time></trkpt><trkpt lat="44.82215119288754" lon="7.293785393926544"><ele>425.0</ele><time>2026-04-14T15:50:14.002Z</time></trkpt><trkpt lat="44.822167630356695" lon="7.293899228247509"><ele>424.0</ele><time>2026-04-14T15:50:16.002Z</time></trkpt><trkpt lat="44.82221329011647" lon="7.2939875406194705"><ele>422.99999999999994</ele><time>2026-04-14T15:50:18.002Z</time></trkpt><trkpt lat="44.82227329208701" lon="7.2940739301109225"><ele>422.0</ele><time>2026-04-14T15:50:20.002Z</time></trkpt><trkpt lat="44.82234345813571" lon="7.29417244410623"><ele>421.66666666666663</ele><time>2026-04-14T15:50:22.002Z</time></trkpt><trkpt lat="44.82241941400191" lon="7.29428368988605"><ele>421.3333333333333</ele><time>2026-04-14T15:50:24.002Z</time></trkpt><trkpt lat="44.82251231317359" lon="7.294395051936282"><ele>421.0</ele><time>2026-04-14T15:50:26Z</time></trkpt><trkpt lat="44.82256524020757" lon="7.294444328323978"><ele>420.66666666666663</ele><time>2026-04-14T15:50:27Z</time></trkpt><trkpt lat="44.82262342266165" lon="7.294491777192992"><ele>420.3333333333333</ele><time>2026-04-14T15:50:28Z</time></trkpt><trkpt lat="44.82268397598692" lon="7.294542750797592"><ele>420.0</ele><time>2026-04-14T15:50:29Z</time></trkpt><trkpt lat="44.822785889700924" lon="7.294632095916331"><ele>419.6</ele><time>2026-04-14T15:50:31Z</time></trkpt><trkpt lat="44.82287136367274" lon="7.294702259996632"><ele>419.2</ele><time>2026-04-14T15:50:33Z</time></trkpt><trkpt lat="44.82295926908734" lon="7.294780421735055"><ele>418.79999999999995</ele><time>2026-04-14T15:50:35Z</time></trkpt><trkpt lat="44.823053267765076" lon="7.29490406820706"><ele>418.4</ele><time>2026-04-14T15:50:37Z</time></trkpt><trkpt lat="44.823099459589564" lon="7.2949832220819495"><ele>418.0</ele><time>2026-04-14T15:50:38Z</time></trkpt><trkpt lat="44.82313842607885" lon="7.295076976752089"><ele>417.83333333333337</ele><time>2026-04-14T15:50:39Z</time></trkpt><trkpt lat="44.82317589624123" lon="7.295176507813027"><ele>417.6666666666667</ele><time>2026-04-14T15:50:40Z</time></trkpt><trkpt lat="44.82320466298347" lon="7.295281988018876"><ele>417.5</ele><time>2026-04-14T15:50:41Z</time></trkpt><trkpt lat="44.82323788039609" lon="7.295384368903304"><ele>417.33333333333337</ele><time>2026-04-14T15:50:42Z</time></trkpt><trkpt lat="44.82327675242023" lon="7.2954728654774295"><ele>417.1666666666667</ele><time>2026-04-14T15:50:43Z</time></trkpt><trkpt lat="44.823318982846736" lon="7.295548669754162"><ele>417.0</ele><time>2026-04-14T15:50:44Z</time></trkpt><trkpt lat="44.823363647869925" lon="7.295623069700062"><ele>416.8333333333333</ele><time>2026-04-14T15:50:45Z</time></trkpt><trkpt lat="44.82340746482061" lon="7.295698777965712"><ele>416.66666666666663</ele><time>2026-04-14T15:50:46Z</time></trkpt><trkpt lat="44.823454366146436" lon="7.295777081309673"><ele>416.5</ele><time>2026-04-14T15:50:47.001Z</time></trkpt><trkpt lat="44.82350018651795" lon="7.295853984571896"><ele>416.3333333333333</ele><time>2026-04-14T15:50:48.001Z</time></trkpt><trkpt lat="44.82354450338669" lon="7.295928464244674"><ele>416.16666666666663</ele><time>2026-04-14T15:50:49.001Z</time></trkpt><trkpt lat="44.82361678853942" lon="7.296029051792684"><ele>416.0</ele><time>2026-04-14T15:50:51.001Z</time></trkpt><trkpt lat="44.8236894099071" lon="7.296099844074765"><ele>415.8</ele><time>2026-04-14T15:50:53.001Z</time></trkpt><trkpt lat="44.82376862530161" lon="7.29625206681914"><ele>415.6</ele><time>2026-04-14T15:50:55.001Z</time></trkpt><trkpt lat="44.82381841085841" lon="7.296339285917897"><ele>415.4</ele><time>2026-04-14T15:50:56.001Z</time></trkpt><trkpt lat="44.82387819596614" lon="7.296418281194787"><ele>415.2</ele><time>2026-04-14T15:50:57.001Z</time></trkpt><trkpt lat="44.82394486947178" lon="7.296495055746954"><ele>415.0</ele><time>2026-04-14T15:50:58.001Z</time></trkpt><trkpt lat="44.82401683541078" lon="7.29656985299201"><ele>414.6</ele><time>2026-04-14T15:50:59.001Z</time></trkpt><trkpt lat="44.8240955480492" lon="7.296639189451413"><ele>414.2</ele><time>2026-04-14T15:51:00.001Z</time></trkpt><trkpt lat="44.824176349342984" lon="7.296707846651149"><ele>413.79999999999995</ele><time>2026-04-14T15:51:01.001Z</time></trkpt><trkpt lat="44.82425993932173" lon="7.296781558560438"><ele>413.4</ele><time>2026-04-14T15:51:02.001Z</time></trkpt><trkpt lat="44.82434767725845" lon="7.296859040137471"><ele>413.0</ele><time>2026-04-14T15:51:03.001Z</time></trkpt><trkpt lat="44.824427871112164" lon="7.296931025022476"><ele>412.66666666666663</ele><time>2026-04-14T15:51:04.001Z</time></trkpt><trkpt lat="44.82450524809625" lon="7.297001079560699"><ele>412.3333333333333</ele><time>2026-04-14T15:51:05.001Z</time></trkpt><trkpt lat="44.82457197367002" lon="7.297057115652248"><ele>412.0</ele><time>2026-04-14T15:51:06.001Z</time></trkpt><trkpt lat="44.82462911717035" lon="7.297104473365993"><ele>411.66666666666663</ele><time>2026-04-14T15:51:07.001Z</time></trkpt><trkpt lat="44.824734854283804" lon="7.297193708493886"><ele>411.3333333333333</ele><time>2026-04-14T15:51:09.001Z</time></trkpt><trkpt lat="44.82479340920688" lon="7.297235171149459"><ele>411.0</ele><time>2026-04-14T15:51:10.001Z</time></trkpt><trkpt lat="44.824947651398375" lon="7.297355303749171"><ele>410.42857142857144</ele><time>2026-04-14T15:51:13.001Z</time></trkpt><trkpt lat="44.82499930381338" lon="7.297406654335201"><ele>409.85714285714283</ele><time>2026-04-14T15:51:14.001Z</time></trkpt><trkpt lat="44.82505281096795" lon="7.297459800440479"><ele>409.28571428571433</ele><time>2026-04-14T15:51:15.001Z</time></trkpt><trkpt lat="44.82509518320719" lon="7.2975272863918805"><ele>408.7142857142857</ele><time>2026-04-14T15:51:16.001Z</time></trkpt><trkpt lat="44.825126511985964" lon="7.297611551815736"><ele>408.14285714285717</ele><time>2026-04-14T15:51:17.001Z</time></trkpt><trkpt lat="44.825149887747365" lon="7.29769575584909"><ele>407.5714285714286</ele><time>2026-04-14T15:51:18.001Z</time></trkpt><trkpt lat="44.82517806354514" lon="7.297779397382793"><ele>407.0</ele><time>2026-04-14T15:51:19.001Z</time></trkpt><trkpt lat="44.82523760589755" lon="7.297931476252453"><ele>407.0</ele><time>2026-04-14T15:51:21.001Z</time></trkpt><trkpt lat="44.82529587838025" lon="7.29807708718746"><ele>407.0</ele><time>2026-04-14T15:51:23.001Z</time></trkpt><trkpt lat="44.82535160563678" lon="7.298217571900244"><ele>407.0</ele><time>2026-04-14T15:51:25.001Z</time></trkpt><trkpt lat="44.8254011522216" lon="7.298356490236953"><ele>407.0</ele><time>2026-04-14T15:51:27.001Z</time></trkpt><trkpt lat="44.825450109096295" lon="7.298488761903935"><ele>407.0</ele><time>2026-04-14T15:51:29.001Z</time></trkpt><trkpt lat="44.82547906787536" lon="7.298625809179042"><ele>405.6</ele><time>2026-04-14T15:51:31.001Z</time></trkpt><trkpt lat="44.825510006543745" lon="7.2987524873414635"><ele>404.20000000000005</ele><time>2026-04-14T15:51:33.001Z</time></trkpt><trkpt lat="44.825536482950284" lon="7.298875853171191"><ele>402.8</ele><time>2026-04-14T15:51:35.001Z</time></trkpt><trkpt lat="44.82556194130567" lon="7.299002295715683"><ele>401.4</ele><time>2026-04-14T15:51:37.001Z</time></trkpt><trkpt lat="44.82558105570172" lon="7.299129671641151"><ele>400.0</ele><time>2026-04-14T15:51:39.001Z</time></trkpt><trkpt lat="44.825613784210915" lon="7.299252741813102"><ele>400.00000000000006</ele><time>2026-04-14T15:51:41.001Z</time></trkpt><trkpt lat="44.82563969285561" lon="7.299369904938486"><ele>400.0</ele><time>2026-04-14T15:51:43.001Z</time></trkpt><trkpt lat="44.82566984168056" lon="7.2994795054346175"><ele>400.0</ele><time>2026-04-14T15:51:45.001Z</time></trkpt><trkpt lat="44.825690629296766" lon="7.299574067578607"><ele>400.0</ele><time>2026-04-14T15:51:47.001Z</time></trkpt><trkpt lat="44.825713377807105" lon="7.299667085903404"><ele>400.00000000000006</ele><time>2026-04-14T15:51:49.001Z</time></trkpt><trkpt lat="44.82573274292368" lon="7.299763995495962"><ele>400.0</ele><time>2026-04-14T15:51:51.001Z</time></trkpt><trkpt lat="44.82575043676063" lon="7.299862560774408"><ele>399.5714285714286</ele><time>2026-04-14T15:51:53.001Z</time></trkpt><trkpt lat="44.82576873656625" lon="7.299959632508022"><ele>399.14285714285717</ele><time>2026-04-14T15:51:55.001Z</time></trkpt><trkpt lat="44.825788601543984" lon="7.300064068562167"><ele>398.7142857142857</ele><time>2026-04-14T15:51:58.001Z</time></trkpt><trkpt lat="44.82580770780223" lon="7.30015633333771"><ele>398.28571428571433</ele><time>2026-04-14T15:52:01.002Z</time></trkpt><trkpt lat="44.82582384036181" lon="7.300245111147389"><ele>397.85714285714283</ele><time>2026-04-14T15:52:04.002Z</time></trkpt><trkpt lat="44.825841665511426" lon="7.300347432231549"><ele>397.42857142857144</ele><time>2026-04-14T15:52:08.002Z</time></trkpt><trkpt lat="44.82585164367343" lon="7.300454021707036"><ele>397.0</ele><time>2026-04-14T15:52:11.002Z</time></trkpt><trkpt lat="44.8258565369272" lon="7.300553391140929"><ele>396.20000000000005</ele><time>2026-04-14T15:52:13.002Z</time></trkpt><trkpt lat="44.825859329956515" lon="7.300672765200771"><ele>395.4</ele><time>2026-04-14T15:52:15.002Z</time></trkpt><trkpt lat="44.825860048458814" lon="7.300800833231626"><ele>394.6</ele><time>2026-04-14T15:52:17.002Z</time></trkpt><trkpt lat="44.82586625391245" lon="7.300937794174912"><ele>393.79999999999995</ele><time>2026-04-14T15:52:19.002Z</time></trkpt><trkpt lat="44.82585987064132" lon="7.30106909929199"><ele>393.0</ele><time>2026-04-14T15:52:21.002Z</time></trkpt><trkpt lat="44.82585422004332" lon="7.301201670720951"><ele>393.0</ele><time>2026-04-14T15:52:23.002Z</time></trkpt><trkpt lat="44.82583940627929" lon="7.3013339449907555"><ele>393.0</ele><time>2026-04-14T15:52:25.002Z</time></trkpt><trkpt lat="44.825832917907206" lon="7.3014787918285915"><ele>393.0</ele><time>2026-04-14T15:52:27.002Z</time></trkpt><trkpt lat="44.825829451611625" lon="7.30162900184869"><ele>393.0</ele><time>2026-04-14T15:52:29.002Z</time></trkpt><trkpt lat="44.825834061322446" lon="7.301746074776777"><ele>393.0</ele><time>2026-04-14T15:52:31.002Z</time></trkpt><trkpt lat="44.82584081163244" lon="7.301850774686195"><ele>392.7142857142857</ele><time>2026-04-14T15:52:33Z</time></trkpt><trkpt lat="44.825842192857166" lon="7.30193962419992"><ele>392.42857142857144</ele><time>2026-04-14T15:52:35Z</time></trkpt><trkpt lat="44.82582290573638" lon="7.302029754848085"><ele>392.1428571428571</ele><time>2026-04-14T15:52:38Z</time></trkpt><trkpt lat="44.825761558076685" lon="7.302055695913909"><ele>391.8571428571429</ele><time>2026-04-14T15:52:42Z</time></trkpt><trkpt lat="44.825827739596" lon="7.301978721218441"><ele>391.57142857142856</ele><time>2026-04-14T15:52:49Z</time></trkpt><trkpt lat="44.825834612596886" lon="7.301857881081543"><ele>391.2857142857143</ele><time>2026-04-14T15:52:52Z</time></trkpt><trkpt lat="44.825828047265055" lon="7.301762614277577"><ele>391.0</ele><time>2026-04-14T15:52:54Z</time></trkpt><trkpt lat="44.82582796157381" lon="7.30165954930918"><ele>390.99999999999994</ele><time>2026-04-14T15:52:56Z</time></trkpt><trkpt lat="44.82582434300956" lon="7.301556131048727"><ele>391.0</ele><time>2026-04-14T15:52:58Z</time></trkpt><trkpt lat="44.825822514622914" lon="7.301451146890006"><ele>391.0</ele><time>2026-04-14T15:53:00Z</time></trkpt><trkpt lat="44.82582469647464" lon="7.301348305693255"><ele>391.0</ele><time>2026-04-14T15:53:02.001Z</time></trkpt><trkpt lat="44.82583106387977" lon="7.301247928437961"><ele>391.0</ele><time>2026-04-14T15:53:04.001Z</time></trkpt><trkpt lat="44.825838791699766" lon="7.301154616584528"><ele>390.99999999999994</ele><time>2026-04-14T15:53:06.001Z</time></trkpt><trkpt lat="44.82585418731356" lon="7.301037296130058"><ele>391.0</ele><time>2026-04-14T15:53:09.001Z</time></trkpt><trkpt lat="44.825824801444135" lon="7.300958630452974"><ele>391.33333333333337</ele><time>2026-04-14T15:53:13.001Z</time></trkpt><trkpt lat="44.82574457683455" lon="7.300951844256788"><ele>391.6666666666667</ele><time>2026-04-14T15:53:16.001Z</time></trkpt><trkpt lat="44.82566239017715" lon="7.300969692280916"><ele>392.0</ele><time>2026-04-14T15:53:18.001Z</time></trkpt><trkpt lat="44.825576163458585" lon="7.30099848111501"><ele>392.33333333333337</ele><time>2026-04-14T15:53:20.001Z</time></trkpt><trkpt lat="44.82548660155113" lon="7.301023604641511"><ele>392.6666666666667</ele><time>2026-04-14T15:53:22.001Z</time></trkpt><trkpt lat="44.82540462688261" lon="7.301041920436809"><ele>393.0</ele><time>2026-04-14T15:53:24.001Z</time></trkpt><trkpt lat="44.825327171599795" lon="7.301075235126068"><ele>393.00000000000006</ele><time>2026-04-14T15:53:26.001Z</time></trkpt><trkpt lat="44.825251508766286" lon="7.301099545649326"><ele>393.0</ele><time>2026-04-14T15:53:28.001Z</time></trkpt><trkpt lat="44.82517626339816" lon="7.301115268572781"><ele>393.0</ele><time>2026-04-14T15:53:30.001Z</time></trkpt><trkpt lat="44.825099607003715" lon="7.301143569721997"><ele>393.0</ele><time>2026-04-14T15:53:32.001Z</time></trkpt><trkpt lat="44.8250271232967" lon="7.301167687160577"><ele>393.0</ele><time>2026-04-14T15:53:34.001Z</time></trkpt><trkpt lat="44.82496361688184" lon="7.301184528914345"><ele>393.00000000000006</ele><time>2026-04-14T15:53:36.001Z</time></trkpt><trkpt lat="44.82489821431524" lon="7.301192846563008"><ele>393.0</ele><time>2026-04-14T15:53:38.001Z</time></trkpt><trkpt lat="44.824835383953626" lon="7.3012012814840075"><ele>393.14285714285717</ele><time>2026-04-14T15:53:40.001Z</time></trkpt><trkpt lat="44.82476591347149" lon="7.3012151188366206"><ele>393.2857142857143</ele><time>2026-04-14T15:53:42.001Z</time></trkpt><trkpt lat="44.824700863457906" lon="7.301237697815338"><ele>393.42857142857144</ele><time>2026-04-14T15:53:44.001Z</time></trkpt><trkpt lat="44.824634477953005" lon="7.301258996897162"><ele>393.57142857142856</ele><time>2026-04-14T15:53:46.001Z</time></trkpt><trkpt lat="44.824550327627016" lon="7.3013248643077855"><ele>393.7142857142857</ele><time>2026-04-14T15:53:49.001Z</time></trkpt><trkpt lat="44.824512506945425" lon="7.301397440300297"><ele>393.8571428571429</ele><time>2026-04-14T15:53:51.001Z</time></trkpt><trkpt lat="44.82448086111345" lon="7.301484172222366"><ele>394.0</ele><time>2026-04-14T15:53:55.001Z</time></trkpt><trkpt lat="44.82442110291292" lon="7.301438760408624"><ele>394.0</ele><time>2026-04-14T15:54:03.001Z</time></trkpt><trkpt lat="44.82434688243981" lon="7.301371503320859"><ele>394.0</ele><time>2026-04-14T15:54:06.001Z</time></trkpt><trkpt lat="44.824294733538785" lon="7.301315695550626"><ele>394.0</ele><time>2026-04-14T15:54:08.001Z</time></trkpt><trkpt lat="44.82424076896268" lon="7.3012563499458984"><ele>394.0</ele><time>2026-04-14T15:54:10.002Z</time></trkpt><trkpt lat="44.82418769629134" lon="7.301197868228711"><ele>394.0</ele><time>2026-04-14T15:54:12.002Z</time></trkpt><trkpt lat="44.824134057764404" lon="7.301141618487359"><ele>394.0</ele><time>2026-04-14T15:54:14.002Z</time></trkpt><trkpt lat="44.82408682502251" lon="7.3010787196743205"><ele>394.0</ele><time>2026-04-14T15:54:16.002Z</time></trkpt><trkpt lat="44.82402189033002" lon="7.300995695895968"><ele>393.83333333333337</ele><time>2026-04-14T15:54:19.002Z</time></trkpt><trkpt lat="44.823965593377935" lon="7.300919445549894"><ele>393.6666666666667</ele><time>2026-04-14T15:54:22.002Z</time></trkpt><trkpt lat="44.82392446947304" lon="7.300818080299937"><ele>393.5</ele><time>2026-04-14T15:54:28.002Z</time></trkpt><trkpt lat="44.82387480492638" lon="7.3007337809639195"><ele>393.33333333333337</ele><time>2026-04-14T15:54:31.002Z</time></trkpt><trkpt lat="44.823826239202006" lon="7.300644300030364"><ele>393.1666666666667</ele><time>2026-04-14T15:54:34.002Z</time></trkpt><trkpt lat="44.823767199982846" lon="7.3005445976881695"><ele>393.0</ele><time>2026-04-14T15:54:37.002Z</time></trkpt><trkpt lat="44.823714285020095" lon="7.300467784263178"><ele>392.8333333333333</ele><time>2026-04-14T15:54:39Z</time></trkpt><trkpt lat="44.8236450918038" lon="7.300361575228811"><ele>392.66666666666663</ele><time>2026-04-14T15:54:41Z</time></trkpt><trkpt lat="44.823585957378846" lon="7.3002954199446215"><ele>392.5</ele><time>2026-04-14T15:54:43Z</time></trkpt><trkpt lat="44.82352480958973" lon="7.300234315037469"><ele>392.3333333333333</ele><time>2026-04-14T15:54:45Z</time></trkpt><trkpt lat="44.823462583071645" lon="7.3001830881047205"><ele>392.16666666666663</ele><time>2026-04-14T15:54:47Z</time></trkpt><trkpt lat="44.82339001607183" lon="7.300126491292869"><ele>392.0</ele><time>2026-04-14T15:54:50Z</time></trkpt><trkpt lat="44.82333321634741" lon="7.300075152705649"><ele>391.99999999999994</ele><time>2026-04-14T15:54:54Z</time></trkpt><trkpt lat="44.82325927290475" lon="7.300017314510949"><ele>392.0</ele><time>2026-04-14T15:54:58Z</time></trkpt><trkpt lat="44.82317316334613" lon="7.299983059910455"><ele>392.0</ele><time>2026-04-14T15:55:01Z</time></trkpt><trkpt lat="44.82310420245571" lon="7.299961796690391"><ele>392.0</ele><time>2026-04-14T15:55:03Z</time></trkpt><trkpt lat="44.82303563539148" lon="7.299934510000611"><ele>391.99999999999994</ele><time>2026-04-14T15:55:05Z</time></trkpt><trkpt lat="44.82297038767898" lon="7.2998759817855134"><ele>392.0</ele><time>2026-04-14T15:55:07Z</time></trkpt><trkpt lat="44.822902975793525" lon="7.2998151011757715"><ele>391.99999999999994</ele><time>2026-04-14T15:55:09Z</time></trkpt><trkpt lat="44.82283337186964" lon="7.299756484707545"><ele>392.0</ele><time>2026-04-14T15:55:11.001Z</time></trkpt><trkpt lat="44.82276446954699" lon="7.299698968882919"><ele>392.0</ele><time>2026-04-14T15:55:13.001Z</time></trkpt><trkpt lat="44.82269589829259" lon="7.299641853137199"><ele>392.0</ele><time>2026-04-14T15:55:15.001Z</time></trkpt><trkpt lat="44.822628955950805" lon="7.299581437430393"><ele>391.99999999999994</ele><time>2026-04-14T15:55:17.001Z</time></trkpt><trkpt lat="44.822562265878005" lon="7.299524770222004"><ele>392.0</ele><time>2026-04-14T15:55:19.001Z</time></trkpt><trkpt lat="44.82249735342147" lon="7.299463612863693"><ele>392.16666666666663</ele><time>2026-04-14T15:55:21.001Z</time></trkpt><trkpt lat="44.82243699682946" lon="7.299389105996834"><ele>392.3333333333333</ele><time>2026-04-14T15:55:23.001Z</time></trkpt><trkpt lat="44.82237869194109" lon="7.29931182135285"><ele>392.5</ele><time>2026-04-14T15:55:25.001Z</time></trkpt><trkpt lat="44.82231924400592" lon="7.29923629334468"><ele>392.66666666666663</ele><time>2026-04-14T15:55:27.001Z</time></trkpt><trkpt lat="44.822260783719116" lon="7.299156853342619"><ele>392.8333333333333</ele><time>2026-04-14T15:55:29.001Z</time></trkpt><trkpt lat="44.822207895121124" lon="7.2990677657386245"><ele>393.0</ele><time>2026-04-14T15:55:31.001Z</time></trkpt><trkpt lat="44.82216097697372" lon="7.298974725445262"><ele>394.0</ele><time>2026-04-14T15:55:33.001Z</time></trkpt><trkpt lat="44.822117165747976" lon="7.298886061575145"><ele>395.0</ele><time>2026-04-14T15:55:35.001Z</time></trkpt><trkpt lat="44.8220729625842" lon="7.298796569360507"><ele>396.0</ele><time>2026-04-14T15:55:37.001Z</time></trkpt><trkpt lat="44.82201075013464" lon="7.298755590799573"><ele>397.0</ele><time>2026-04-14T15:55:39.001Z</time></trkpt><trkpt lat="44.82196158689611" lon="7.298674427385432"><ele>398.0</ele><time>2026-04-14T15:55:41.001Z</time></trkpt><trkpt lat="44.82192065747545" lon="7.298574624394225"><ele>399.0</ele><time>2026-04-14T15:55:43.001Z</time></trkpt><trkpt lat="44.82186919021815" lon="7.29848001411237"><ele>399.0</ele><time>2026-04-14T15:55:45.001Z</time></trkpt><trkpt lat="44.821818068731105" lon="7.298390385060081"><ele>399.0</ele><time>2026-04-14T15:55:47.001Z</time></trkpt><trkpt lat="44.82176569359039" lon="7.29831204850248"><ele>399.0</ele><time>2026-04-14T15:55:49.001Z</time></trkpt><trkpt lat="44.82172345476344" lon="7.298244370205801"><ele>399.0</ele><time>2026-04-14T15:55:51.001Z</time></trkpt><trkpt lat="44.821670592189825" lon="7.2981849104214"><ele>399.0</ele><time>2026-04-14T15:55:53.001Z</time></trkpt><trkpt lat="44.82161860968364" lon="7.298104726520834"><ele>399.0</ele><time>2026-04-14T15:55:55.001Z</time></trkpt><trkpt lat="44.8215659185071" lon="7.298016240284499"><ele>399.0</ele><time>2026-04-14T15:55:57.001Z</time></trkpt><trkpt lat="44.82151682144636" lon="7.297919093554889"><ele>398.85714285714283</ele><time>2026-04-14T15:55:59.001Z</time></trkpt><trkpt lat="44.821474199868184" lon="7.297830769107357"><ele>398.7142857142857</ele><time>2026-04-14T15:56:01.001Z</time></trkpt><trkpt lat="44.82143036580848" lon="7.297734752615326"><ele>398.57142857142856</ele><time>2026-04-14T15:56:03.001Z</time></trkpt><trkpt lat="44.82138707828777" lon="7.297644054423657"><ele>398.42857142857144</ele><time>2026-04-14T15:56:05.001Z</time></trkpt><trkpt lat="44.82134539786697" lon="7.2975600476981946"><ele>398.2857142857143</ele><time>2026-04-14T15:56:07.001Z</time></trkpt><trkpt lat="44.82130678647028" lon="7.297486889187505"><ele>398.1428571428571</ele><time>2026-04-14T15:56:09.001Z</time></trkpt><trkpt lat="44.82126067105519" lon="7.2974144321213466"><ele>398.0</ele><time>2026-04-14T15:56:11.001Z</time></trkpt><trkpt lat="44.82121968552985" lon="7.297286890671901"><ele>398.3333333333333</ele><time>2026-04-14T15:56:14.002Z</time></trkpt><trkpt lat="44.82117515948488" lon="7.297191938429175"><ele>398.66666666666663</ele><time>2026-04-14T15:56:16.002Z</time></trkpt><trkpt lat="44.8211129881422" lon="7.297108447298211"><ele>399.0</ele><time>2026-04-14T15:56:18.002Z</time></trkpt><trkpt lat="44.82105415899839" lon="7.297039890212147"><ele>399.33333333333337</ele><time>2026-04-14T15:56:20.002Z</time></trkpt><trkpt lat="44.82100273888635" lon="7.296973289578841"><ele>399.6666666666667</ele><time>2026-04-14T15:56:22.002Z</time></trkpt><trkpt lat="44.82095042350017" lon="7.296902771135544"><ele>400.0</ele><time>2026-04-14T15:56:24.002Z</time></trkpt><trkpt lat="44.820897200952025" lon="7.296826001998004"><ele>400.00000000000006</ele><time>2026-04-14T15:56:26.002Z</time></trkpt><trkpt lat="44.82084450012168" lon="7.296741321322115"><ele>400.0</ele><time>2026-04-14T15:56:28.002Z</time></trkpt><trkpt lat="44.820787954028646" lon="7.296667095423517"><ele>400.0</ele><time>2026-04-14T15:56:30.002Z</time></trkpt><trkpt lat="44.82073500871745" lon="7.29659205637387"><ele>400.0</ele><time>2026-04-14T15:56:32.002Z</time></trkpt><trkpt lat="44.82067992010146" lon="7.296508141148144"><ele>400.00000000000006</ele><time>2026-04-14T15:56:34.002Z</time></trkpt><trkpt lat="44.82062666072427" lon="7.29643641697117"><ele>400.0</ele><time>2026-04-14T15:56:36.002Z</time></trkpt><trkpt lat="44.82057614718987" lon="7.296375010057768"><ele>400.83333333333337</ele><time>2026-04-14T15:56:38.002Z</time></trkpt><trkpt lat="44.8205126022522" lon="7.296315438900776"><ele>401.6666666666667</ele><time>2026-04-14T15:56:41.002Z</time></trkpt><trkpt lat="44.82045035758374" lon="7.2962434788277974"><ele>402.5</ele><time>2026-04-14T15:56:44Z</time></trkpt><trkpt lat="44.82040389121688" lon="7.296151181977396"><ele>403.33333333333337</ele><time>2026-04-14T15:56:46Z</time></trkpt><trkpt lat="44.82035213475795" lon="7.296063242185831"><ele>404.1666666666667</ele><time>2026-04-14T15:56:48Z</time></trkpt><trkpt lat="44.82029806422548" lon="7.295974914644815"><ele>405.0</ele><time>2026-04-14T15:56:50Z</time></trkpt><trkpt lat="44.82025154336422" lon="7.295881058216468"><ele>404.99999999999994</ele><time>2026-04-14T15:56:52Z</time></trkpt><trkpt lat="44.82021374865652" lon="7.295775051879611"><ele>405.0</ele><time>2026-04-14T15:56:54Z</time></trkpt><trkpt lat="44.82018151818916" lon="7.295674182755739"><ele>405.0</ele><time>2026-04-14T15:56:56Z</time></trkpt><trkpt lat="44.82013507400092" lon="7.295589464116913"><ele>405.0</ele><time>2026-04-14T15:56:58Z</time></trkpt><trkpt lat="44.82008870188967" lon="7.295508980053517"><ele>405.0</ele><time>2026-04-14T15:57:00Z</time></trkpt><trkpt lat="44.82004724900936" lon="7.295428707919022"><ele>404.99999999999994</ele><time>2026-04-14T15:57:02Z</time></trkpt><trkpt lat="44.82000726328061" lon="7.295354024415423"><ele>405.0</ele><time>2026-04-14T15:57:04Z</time></trkpt><trkpt lat="44.81997160965665" lon="7.2952806080071895"><ele>405.6666666666667</ele><time>2026-04-14T15:57:06Z</time></trkpt><trkpt lat="44.81991255267931" lon="7.295187348846533"><ele>406.33333333333337</ele><time>2026-04-14T15:57:09Z</time></trkpt><trkpt lat="44.8198582043791" lon="7.2950890523444905"><ele>407.0</ele><time>2026-04-14T15:57:12Z</time></trkpt><trkpt lat="44.81980175402704" lon="7.295003358525644"><ele>407.6666666666667</ele><time>2026-04-14T15:57:15.001Z</time></trkpt><trkpt lat="44.81974268886963" lon="7.2949051118162"><ele>408.33333333333337</ele><time>2026-04-14T15:57:18.001Z</time></trkpt><trkpt lat="44.81967035056566" lon="7.294820881586907"><ele>409.0</ele><time>2026-04-14T15:57:21.001Z</time></trkpt><trkpt lat="44.81961967319567" lon="7.294765424448598"><ele>409.2857142857143</ele><time>2026-04-14T15:57:23.001Z</time></trkpt><trkpt lat="44.81956802186072" lon="7.294710074031756"><ele>409.5714285714286</ele><time>2026-04-14T15:57:25.001Z</time></trkpt><trkpt lat="44.819514119738116" lon="7.294659811222372"><ele>409.8571428571429</ele><time>2026-04-14T15:57:27.001Z</time></trkpt><trkpt lat="44.819433710784175" lon="7.294593983298753"><ele>410.1428571428571</ele><time>2026-04-14T15:57:30.001Z</time></trkpt><trkpt lat="44.81937428559636" lon="7.294555532693698"><ele>410.42857142857144</ele><time>2026-04-14T15:57:32.001Z</time></trkpt><trkpt lat="44.81931366475843" lon="7.294523809771879"><ele>410.7142857142857</ele><time>2026-04-14T15:57:34.001Z</time></trkpt><trkpt lat="44.81922585518934" lon="7.2944851327999185"><ele>411.0</ele><time>2026-04-14T15:57:37.001Z</time></trkpt><trkpt lat="44.81913306366748" lon="7.294477863034344"><ele>411.0</ele><time>2026-04-14T15:57:40.001Z</time></trkpt><trkpt lat="44.81904298432481" lon="7.294470055290427"><ele>411.0</ele><time>2026-04-14T15:57:43.001Z</time></trkpt><trkpt lat="44.818951682454276" lon="7.294474736785037"><ele>411.0</ele><time>2026-04-14T15:57:46.001Z</time></trkpt><trkpt lat="44.81886324695787" lon="7.294480509483902"><ele>411.0</ele><time>2026-04-14T15:57:49.001Z</time></trkpt><trkpt lat="44.81877386444368" lon="7.294497791428576"><ele>411.0</ele><time>2026-04-14T15:57:52.001Z</time></trkpt><trkpt lat="44.818681372358384" lon="7.294513139368304"><ele>411.0</ele><time>2026-04-14T15:57:55.001Z</time></trkpt><trkpt lat="44.81861591628099" lon="7.2945218691849325"><ele>411.0</ele><time>2026-04-14T15:57:57.001Z</time></trkpt><trkpt lat="44.8185482450089" lon="7.294534256514789"><ele>411.0</ele><time>2026-04-14T15:57:59.001Z</time></trkpt><trkpt lat="44.81847890710082" lon="7.294546391849233"><ele>411.0</ele><time>2026-04-14T15:58:01.001Z</time></trkpt><trkpt lat="44.81840875448975" lon="7.294563292957422"><ele>411.0</ele><time>2026-04-14T15:58:03.001Z</time></trkpt><trkpt lat="44.818337208035466" lon="7.294588788874363"><ele>411.0</ele><time>2026-04-14T15:58:05.001Z</time></trkpt><trkpt lat="44.81826146969155" lon="7.294616938879631"><ele>411.0</ele><time>2026-04-14T15:58:07.001Z</time></trkpt><trkpt lat="44.81818491899302" lon="7.294640425824562"><ele>410.8333333333333</ele><time>2026-04-14T15:58:09.001Z</time></trkpt><trkpt lat="44.81810848572196" lon="7.294673172977888"><ele>410.66666666666663</ele><time>2026-04-14T15:58:11.001Z</time></trkpt><trkpt lat="44.81803328549549" lon="7.294701868586717"><ele>410.5</ele><time>2026-04-14T15:58:13.001Z</time></trkpt><trkpt lat="44.817954867007295" lon="7.294729568771556"><ele>410.3333333333333</ele><time>2026-04-14T15:58:15.001Z</time></trkpt><trkpt lat="44.81787634640145" lon="7.294759344972412"><ele>410.16666666666663</ele><time>2026-04-14T15:58:17.002Z</time></trkpt><trkpt lat="44.81779910531471" lon="7.29479205606208"><ele>410.0</ele><time>2026-04-14T15:58:19.002Z</time></trkpt><trkpt lat="44.8177264673299" lon="7.294834977539846"><ele>409.8571428571429</ele><time>2026-04-14T15:58:21.002Z</time></trkpt><trkpt lat="44.81765604628581" lon="7.294873832286026"><ele>409.71428571428567</ele><time>2026-04-14T15:58:23.002Z</time></trkpt><trkpt lat="44.817588553200764" lon="7.294908355211713"><ele>409.57142857142856</ele><time>2026-04-14T15:58:25.002Z</time></trkpt><trkpt lat="44.8175256036474" lon="7.294940522778075"><ele>409.42857142857144</ele><time>2026-04-14T15:58:27.002Z</time></trkpt><trkpt lat="44.817449525928524" lon="7.294945808331401"><ele>409.28571428571433</ele><time>2026-04-14T15:58:30.002Z</time></trkpt><trkpt lat="44.817413622366914" lon="7.294863074227419"><ele>409.1428571428571</ele><time>2026-04-14T15:58:32.002Z</time></trkpt><trkpt lat="44.8173980812541" lon="7.294774144573584"><ele>409.0</ele><time>2026-04-14T15:58:34.002Z</time></trkpt><trkpt lat="44.81737670285121" lon="7.294680509347136"><ele>409.0</ele><time>2026-04-14T15:58:36.002Z</time></trkpt><trkpt lat="44.81735276807056" lon="7.294584477433177"><ele>409.0</ele><time>2026-04-14T15:58:38.002Z</time></trkpt><trkpt lat="44.81732285989533" lon="7.294489300109165"><ele>409.0</ele><time>2026-04-14T15:58:40.002Z</time></trkpt><trkpt lat="44.817288462146315" lon="7.294395359092812"><ele>409.0</ele><time>2026-04-14T15:58:42.002Z</time></trkpt><trkpt lat="44.8172507794371" lon="7.294307943422742"><ele>409.0</ele><time>2026-04-14T15:58:44.002Z</time></trkpt><trkpt lat="44.817207926568315" lon="7.294224761571811"><ele>409.0</ele><time>2026-04-14T15:58:46.002Z</time></trkpt><trkpt lat="44.81716361717233" lon="7.294145547710031"><ele>409.0</ele><time>2026-04-14T15:58:48.002Z</time></trkpt><trkpt lat="44.81711406423905" lon="7.294068093073216"><ele>409.0</ele><time>2026-04-14T15:58:50Z</time></trkpt><trkpt lat="44.81706506319492" lon="7.293986260362343"><ele>409.0</ele><time>2026-04-14T15:58:52Z</time></trkpt><trkpt lat="44.817014281100235" lon="7.2939090300965645"><ele>409.0</ele><time>2026-04-14T15:58:54Z</time></trkpt><trkpt lat="44.81696256609731" lon="7.293837735831076"><ele>409.0</ele><time>2026-04-14T15:58:56Z</time></trkpt><trkpt lat="44.81690738723082" lon="7.293770938908432"><ele>409.0</ele><time>2026-04-14T15:58:58Z</time></trkpt><trkpt lat="44.81685739235148" lon="7.293697541981055"><ele>409.0</ele><time>2026-04-14T15:59:00Z</time></trkpt><trkpt lat="44.81680916567512" lon="7.2936267320534265"><ele>409.0</ele><time>2026-04-14T15:59:02Z</time></trkpt><trkpt lat="44.816757138099874" lon="7.293561223106639"><ele>409.7142857142857</ele><time>2026-04-14T15:59:04Z</time></trkpt><trkpt lat="44.81670688552484" lon="7.293495956711085"><ele>410.42857142857144</ele><time>2026-04-14T15:59:06Z</time></trkpt><trkpt lat="44.81665811090027" lon="7.293432236768169"><ele>411.14285714285717</ele><time>2026-04-14T15:59:08Z</time></trkpt><trkpt lat="44.81659334978689" lon="7.293339250187084"><ele>411.8571428571429</ele><time>2026-04-14T15:59:11Z</time></trkpt><trkpt lat="44.81654354986526" lon="7.29327300439829"><ele>412.57142857142856</ele><time>2026-04-14T15:59:13Z</time></trkpt><trkpt lat="44.816482999431315" lon="7.293190344195765"><ele>413.28571428571433</ele><time>2026-04-14T15:59:16.001Z</time></trkpt><trkpt lat="44.816434152748656" lon="7.293125339535981"><ele>414.0</ele><time>2026-04-14T15:59:35.001Z</time></trkpt><trkpt lat="44.81638078856031" lon="7.293052949662366"><ele>414.6666666666667</ele><time>2026-04-14T15:59:39.001Z</time></trkpt><trkpt lat="44.81633214535116" lon="7.292982473647868"><ele>415.33333333333337</ele><time>2026-04-14T15:59:42.001Z</time></trkpt><trkpt lat="44.816279232296026" lon="7.292901658020958"><ele>416.0</ele><time>2026-04-14T15:59:45.001Z</time></trkpt><trkpt lat="44.81622264281778" lon="7.292823166311225"><ele>416.6666666666667</ele><time>2026-04-14T15:59:48.001Z</time></trkpt><trkpt lat="44.81616704419031" lon="7.292748105844333"><ele>417.33333333333337</ele><time>2026-04-14T15:59:51.001Z</time></trkpt><trkpt lat="44.816113455423014" lon="7.2926734947270075"><ele>418.0</ele><time>2026-04-14T15:59:54.001Z</time></trkpt><trkpt lat="44.81606445040603" lon="7.292593930680809"><ele>418.00000000000006</ele><time>2026-04-14T15:59:57.001Z</time></trkpt><trkpt lat="44.81606583898004" lon="7.29247994024252"><ele>418.0</ele><time>2026-04-14T16:00:00.001Z</time></trkpt><trkpt lat="44.81613207278442" lon="7.292397412648085"><ele>418.0</ele><time>2026-04-14T16:00:03.001Z</time></trkpt><trkpt lat="44.81619609475621" lon="7.2923262788986944"><ele>418.0</ele><time>2026-04-14T16:00:06.001Z</time></trkpt><trkpt lat="44.816253136382834" lon="7.292253718291006"><ele>418.00000000000006</ele><time>2026-04-14T16:00:09.001Z</time></trkpt><trkpt lat="44.81630727380949" lon="7.292175175504792"><ele>418.0</ele><time>2026-04-14T16:00:12.001Z</time></trkpt><trkpt lat="44.81636553534929" lon="7.292100613236861"><ele>419.33333333333337</ele><time>2026-04-14T16:00:15.001Z</time></trkpt><trkpt lat="44.81641980440028" lon="7.292025958757085"><ele>420.6666666666667</ele><time>2026-04-14T16:00:18.002Z</time></trkpt><trkpt lat="44.8164639617472" lon="7.291941317929244"><ele>422.0</ele><time>2026-04-14T16:00:21.002Z</time></trkpt><trkpt lat="44.81645590903143" lon="7.291821974493163"><ele>423.33333333333337</ele><time>2026-04-14T16:00:24.002Z</time></trkpt><trkpt lat="44.81639808575684" lon="7.291735888409568"><ele>424.6666666666667</ele><time>2026-04-14T16:00:27.002Z</time></trkpt><trkpt lat="44.81633825241597" lon="7.291663298312449"><ele>426.0</ele><time>2026-04-14T16:00:30.002Z</time></trkpt><trkpt lat="44.816284423170856" lon="7.291587767824493"><ele>426.0</ele><time>2026-04-14T16:00:33.002Z</time></trkpt><trkpt lat="44.8162240477316" lon="7.291511937013789"><ele>426.0</ele><time>2026-04-14T16:00:36.002Z</time></trkpt><trkpt lat="44.816163044818744" lon="7.291446339775882"><ele>426.0</ele><time>2026-04-14T16:00:39.002Z</time></trkpt><trkpt lat="44.81610189815576" lon="7.291388621024473"><ele>426.0</ele><time>2026-04-14T16:00:42.002Z</time></trkpt><trkpt lat="44.816035291256036" lon="7.291333159543368"><ele>426.0</ele><time>2026-04-14T16:00:45.002Z</time></trkpt><trkpt lat="44.81596763381887" lon="7.291266653422922"><ele>426.0</ele><time>2026-04-14T16:00:48.002Z</time></trkpt><trkpt lat="44.81590437876909" lon="7.291202029184384"><ele>427.3333333333333</ele><time>2026-04-14T16:00:51.002Z</time></trkpt><trkpt lat="44.815841144040874" lon="7.2911424689941216"><ele>428.66666666666663</ele><time>2026-04-14T16:00:54.002Z</time></trkpt><trkpt lat="44.815780170346734" lon="7.291072339443482"><ele>430.0</ele><time>2026-04-14T16:00:57Z</time></trkpt><trkpt lat="44.815718504189654" lon="7.290999885995152"><ele>431.3333333333333</ele><time>2026-04-14T16:01:00Z</time></trkpt><trkpt lat="44.8156571317919" lon="7.290932798155214"><ele>432.66666666666663</ele><time>2026-04-14T16:01:03Z</time></trkpt><trkpt lat="44.81558557615624" lon="7.290885688403222"><ele>434.0</ele><time>2026-04-14T16:01:06Z</time></trkpt><trkpt lat="44.81551516620969" lon="7.290841736780961"><ele>433.99999999999994</ele><time>2026-04-14T16:01:09Z</time></trkpt><trkpt lat="44.81544171117266" lon="7.290811125308691"><ele>434.0</ele><time>2026-04-14T16:01:12.001Z</time></trkpt><trkpt lat="44.81536837838326" lon="7.290780350351185"><ele>434.0</ele><time>2026-04-14T16:01:15.001Z</time></trkpt><trkpt lat="44.81529335834095" lon="7.29075991806891"><ele>434.0</ele><time>2026-04-14T16:01:18.001Z</time></trkpt><trkpt lat="44.81521674986055" lon="7.290735125973542"><ele>433.99999999999994</ele><time>2026-04-14T16:01:21.001Z</time></trkpt><trkpt lat="44.81514120576584" lon="7.290709826096228"><ele>434.0</ele><time>2026-04-14T16:01:24.001Z</time></trkpt><trkpt lat="44.815063685105194" lon="7.290687685311567"><ele>432.8333333333333</ele><time>2026-04-14T16:01:27.001Z</time></trkpt><trkpt lat="44.81498725241049" lon="7.290672002450656"><ele>431.66666666666663</ele><time>2026-04-14T16:01:30.001Z</time></trkpt><trkpt lat="44.81490959628859" lon="7.2906464590733595"><ele>430.5</ele><time>2026-04-14T16:01:33.001Z</time></trkpt><trkpt lat="44.814829229315094" lon="7.290608829670521"><ele>429.33333333333337</ele><time>2026-04-14T16:01:36.001Z</time></trkpt><trkpt lat="44.81475210271781" lon="7.290563510533172"><ele>428.1666666666667</ele><time>2026-04-14T16:01:39.001Z</time></trkpt><trkpt lat="44.81467331577232" lon="7.290518607673282"><ele>427.0</ele><time>2026-04-14T16:01:42.001Z</time></trkpt><trkpt lat="44.81459660948483" lon="7.2904768767488655"><ele>429.00000000000006</ele><time>2026-04-14T16:01:45.001Z</time></trkpt><trkpt lat="44.81451915980708" lon="7.290437107027735"><ele>431.0</ele><time>2026-04-14T16:01:48.001Z</time></trkpt><trkpt lat="44.814444366021505" lon="7.290397891167777"><ele>433.0</ele><time>2026-04-14T16:01:51.001Z</time></trkpt><trkpt lat="44.814369883157575" lon="7.290360398843991"><ele>435.0</ele><time>2026-04-14T16:01:54.001Z</time></trkpt><trkpt lat="44.81429919378915" lon="7.290315283099611"><ele>437.00000000000006</ele><time>2026-04-14T16:01:57.001Z</time></trkpt><trkpt lat="44.814229547173795" lon="7.290275842809243"><ele>439.0</ele><time>2026-04-14T16:02:00.001Z</time></trkpt><trkpt lat="44.814159608151954" lon="7.290240505879739"><ele>439.0</ele><time>2026-04-14T16:02:03.001Z</time></trkpt><trkpt lat="44.8140932732685" lon="7.290197048766261"><ele>439.0</ele><time>2026-04-14T16:02:06.001Z</time></trkpt><trkpt lat="44.81402275819623" lon="7.29017334587416"><ele>439.0</ele><time>2026-04-14T16:02:09.002Z</time></trkpt><trkpt lat="44.813958741940176" lon="7.2901221814685355"><ele>439.0</ele><time>2026-04-14T16:02:12.002Z</time></trkpt><trkpt lat="44.81389879850664" lon="7.290077365212306"><ele>439.0</ele><time>2026-04-14T16:02:15.002Z</time></trkpt><trkpt lat="44.81383376205846" lon="7.290037282595793"><ele>439.0</ele><time>2026-04-14T16:02:18.002Z</time></trkpt><trkpt lat="44.813776090908554" lon="7.289996272418775"><ele>439.0</ele><time>2026-04-14T16:02:21.002Z</time></trkpt><trkpt lat="44.813700045924364" lon="7.289949488975463"><ele>439.0</ele><time>2026-04-14T16:02:24.002Z</time></trkpt><trkpt lat="44.81364287475724" lon="7.2899109522569105"><ele>439.0</ele><time>2026-04-14T16:02:26.002Z</time></trkpt><trkpt lat="44.81358502862151" lon="7.289864635144362"><ele>439.0</ele><time>2026-04-14T16:02:28.002Z</time></trkpt><trkpt lat="44.81352754305117" lon="7.289824293169095"><ele>439.0</ele><time>2026-04-14T16:02:30.002Z</time></trkpt><trkpt lat="44.81346548623307" lon="7.289781490033655"><ele>439.0</ele><time>2026-04-14T16:02:32.002Z</time></trkpt><trkpt lat="44.813390650323484" lon="7.289778016166223"><ele>439.0</ele><time>2026-04-14T16:02:34.002Z</time></trkpt><trkpt lat="44.813321814006954" lon="7.289812033841441"><ele>439.0</ele><time>2026-04-14T16:02:36.002Z</time></trkpt><trkpt lat="44.81326048818381" lon="7.2898538802480015"><ele>438.6666666666667</ele><time>2026-04-14T16:02:38.002Z</time></trkpt><trkpt lat="44.8131920230727" lon="7.289880975867004"><ele>438.33333333333337</ele><time>2026-04-14T16:02:40.002Z</time></trkpt><trkpt lat="44.81311457772156" lon="7.289896468990601"><ele>438.0</ele><time>2026-04-14T16:02:42.002Z</time></trkpt><trkpt lat="44.813027629490975" lon="7.289914496388299"><ele>437.66666666666663</ele><time>2026-04-14T16:02:44.002Z</time></trkpt><trkpt lat="44.81293506289337" lon="7.28993674983046"><ele>437.3333333333333</ele><time>2026-04-14T16:02:46.002Z</time></trkpt><trkpt lat="44.81282967455964" lon="7.2899418791417885"><ele>437.0</ele><time>2026-04-14T16:02:48.002Z</time></trkpt><trkpt lat="44.8127143067695" lon="7.289931427963106"><ele>436.0</ele><time>2026-04-14T16:02:50.002Z</time></trkpt><trkpt lat="44.81261782227027" lon="7.289922242291866"><ele>435.00000000000006</ele><time>2026-04-14T16:02:52.002Z</time></trkpt><trkpt lat="44.8125184455604" lon="7.28988808958351"><ele>434.00000000000006</ele><time>2026-04-14T16:02:54.002Z</time></trkpt><trkpt lat="44.81241793480672" lon="7.289819736587818"><ele>433.0</ele><time>2026-04-14T16:02:56.002Z</time></trkpt><trkpt lat="44.8123102316327" lon="7.289765757607914"><ele>432.0</ele><time>2026-04-14T16:02:58.002Z</time></trkpt><trkpt lat="44.812200627600376" lon="7.2897124060051395"><ele>432.25</ele><time>2026-04-14T16:03:00.002Z</time></trkpt><trkpt lat="44.81209203013507" lon="7.28966074312128"><ele>432.5</ele><time>2026-04-14T16:03:02.001Z</time></trkpt><trkpt lat="44.81198800657327" lon="7.289599028630356"><ele>432.75</ele><time>2026-04-14T16:03:04.001Z</time></trkpt><trkpt lat="44.811888250095684" lon="7.289514559562496"><ele>433.0</ele><time>2026-04-14T16:03:06.001Z</time></trkpt><trkpt lat="44.81179630990642" lon="7.289404404347611"><ele>433.00000000000006</ele><time>2026-04-14T16:03:08.001Z</time></trkpt><trkpt lat="44.81172232240111" lon="7.289298894434496"><ele>433.0</ele><time>2026-04-14T16:03:10.001Z</time></trkpt><trkpt lat="44.81166006465712" lon="7.28919110977183"><ele>433.0</ele><time>2026-04-14T16:03:12.001Z</time></trkpt><trkpt lat="44.81160178533239" lon="7.28908674230736"><ele>433.0</ele><time>2026-04-14T16:03:14.001Z</time></trkpt><trkpt lat="44.81155721848329" lon="7.289006010754203"><ele>433.00000000000006</ele><time>2026-04-14T16:03:16.001Z</time></trkpt><trkpt lat="44.811511748901104" lon="7.288940195713579"><ele>433.0</ele><time>2026-04-14T16:03:19.001Z</time></trkpt><trkpt lat="44.811461184815286" lon="7.288847901827794"><ele>434.57142857142856</ele><time>2026-04-14T16:03:23.001Z</time></trkpt><trkpt lat="44.81143282299559" lon="7.288751543512443"><ele>436.1428571428571</ele><time>2026-04-14T16:03:26.001Z</time></trkpt><trkpt lat="44.81142292400398" lon="7.288663894626792"><ele>437.71428571428567</ele><time>2026-04-14T16:03:28.001Z</time></trkpt><trkpt lat="44.81143200908439" lon="7.288547390987012"><ele>439.2857142857143</ele><time>2026-04-14T16:03:31.001Z</time></trkpt><trkpt lat="44.8114431552939" lon="7.288442248068705"><ele>440.8571428571429</ele><time>2026-04-14T16:03:34.001Z</time></trkpt><trkpt lat="44.811450635539856" lon="7.288338814817988"><ele>442.4285714285714</ele><time>2026-04-14T16:03:37.001Z</time></trkpt><trkpt lat="44.811457249111804" lon="7.2882388703274295"><ele>444.0</ele><time>2026-04-14T16:03:40.001Z</time></trkpt><trkpt lat="44.81145548660646" lon="7.288147582007665"><ele>443.8333333333333</ele><time>2026-04-14T16:03:43.001Z</time></trkpt><trkpt lat="44.81145435816819" lon="7.288043681052934"><ele>443.66666666666663</ele><time>2026-04-14T16:03:46.001Z</time></trkpt><trkpt lat="44.811455221885055" lon="7.287933299994987"><ele>443.5</ele><time>2026-04-14T16:03:49.001Z</time></trkpt><trkpt lat="44.81145900559518" lon="7.2878230116414455"><ele>443.3333333333333</ele><time>2026-04-14T16:03:52.001Z</time></trkpt><trkpt lat="44.811458948853016" lon="7.287712746709107"><ele>443.16666666666663</ele><time>2026-04-14T16:03:55.001Z</time></trkpt><trkpt lat="44.81145866388466" lon="7.2876088083875805"><ele>443.0</ele><time>2026-04-14T16:03:58.001Z</time></trkpt><trkpt lat="44.81147086753521" lon="7.287494963585941"><ele>442.99999999999994</ele><time>2026-04-14T16:04:01.001Z</time></trkpt><trkpt lat="44.811505910940795" lon="7.287384855489133"><ele>443.0</ele><time>2026-04-14T16:04:04.001Z</time></trkpt><trkpt lat="44.811536821710575" lon="7.287279573283535"><ele>443.0</ele><time>2026-04-14T16:04:07.001Z</time></trkpt><trkpt lat="44.811570711525526" lon="7.287160151600483"><ele>443.0</ele><time>2026-04-14T16:04:10.001Z</time></trkpt><trkpt lat="44.81160147805551" lon="7.287040099766332"><ele>442.99999999999994</ele><time>2026-04-14T16:04:13.001Z</time></trkpt><trkpt lat="44.81162120383939" lon="7.286955281736347"><ele>443.0</ele><time>2026-04-14T16:04:15.001Z</time></trkpt><trkpt lat="44.81163567634641" lon="7.2868676900339855"><ele>442.0</ele><time>2026-04-14T16:04:17.002Z</time></trkpt><trkpt lat="44.81163835815816" lon="7.286771211616783"><ele>441.0</ele><time>2026-04-14T16:04:19.002Z</time></trkpt><trkpt lat="44.81164516435034" lon="7.286673031762703"><ele>440.0</ele><time>2026-04-14T16:04:21.002Z</time></trkpt><trkpt lat="44.811654838460676" lon="7.286576171845591"><ele>439.0</ele><time>2026-04-14T16:04:23.002Z</time></trkpt><trkpt lat="44.81165810911494" lon="7.286476414208937"><ele>438.0</ele><time>2026-04-14T16:04:25.002Z</time></trkpt><trkpt lat="44.81166237116546" lon="7.286379807787159"><ele>437.0</ele><time>2026-04-14T16:04:27.002Z</time></trkpt><trkpt lat="44.811666207314666" lon="7.286287804666932"><ele>436.0</ele><time>2026-04-14T16:04:29.002Z</time></trkpt><trkpt lat="44.811669532967926" lon="7.286193815684757"><ele>435.8571428571429</ele><time>2026-04-14T16:04:31.002Z</time></trkpt><trkpt lat="44.81167827322439" lon="7.2861008982917195"><ele>435.7142857142857</ele><time>2026-04-14T16:04:33.002Z</time></trkpt><trkpt lat="44.811685782901655" lon="7.286001661867512"><ele>435.57142857142856</ele><time>2026-04-14T16:04:35.002Z</time></trkpt><trkpt lat="44.81169277277977" lon="7.28590549565122"><ele>435.42857142857144</ele><time>2026-04-14T16:04:37.002Z</time></trkpt><trkpt lat="44.811702384386166" lon="7.285811322758317"><ele>435.2857142857143</ele><time>2026-04-14T16:04:39.002Z</time></trkpt><trkpt lat="44.81171424388563" lon="7.285716558732538"><ele>435.14285714285717</ele><time>2026-04-14T16:04:41.002Z</time></trkpt><trkpt lat="44.81172503908369" lon="7.285622063898819"><ele>435.0</ele><time>2026-04-14T16:04:43.002Z</time></trkpt><trkpt lat="44.81173776305071" lon="7.285530762370912"><ele>435.28571428571433</ele><time>2026-04-14T16:04:45.002Z</time></trkpt><trkpt lat="44.811756270951754" lon="7.285439351475108"><ele>435.57142857142856</ele><time>2026-04-14T16:04:47.002Z</time></trkpt><trkpt lat="44.81177158414486" lon="7.285308476720469"><ele>435.8571428571429</ele><time>2026-04-14T16:04:50.002Z</time></trkpt><trkpt lat="44.8118099296789" lon="7.28523205664027"><ele>436.14285714285717</ele><time>2026-04-14T16:04:52.002Z</time></trkpt><trkpt lat="44.81186627518242" lon="7.285182282002457"><ele>436.42857142857144</ele><time>2026-04-14T16:04:54.002Z</time></trkpt><trkpt lat="44.81192965844461" lon="7.285158303648867"><ele>436.7142857142857</ele><time>2026-04-14T16:04:56.002Z</time></trkpt><trkpt lat="44.812007824155366" lon="7.2851099709404"><ele>437.0</ele><time>2026-04-14T16:04:59.002Z</time></trkpt><trkpt lat="44.812077033752544" lon="7.2850290280394505"><ele>439.0</ele><time>2026-04-14T16:05:02.002Z</time></trkpt><trkpt lat="44.81210625208768" lon="7.284944748014936"><ele>441.0</ele><time>2026-04-14T16:05:04.002Z</time></trkpt><trkpt lat="44.81212942245093" lon="7.284860436873805"><ele>443.0</ele><time>2026-04-14T16:05:06.002Z</time></trkpt><trkpt lat="44.812159068577984" lon="7.284741153710002"><ele>445.0</ele><time>2026-04-14T16:05:09.001Z</time></trkpt><trkpt lat="44.81219003435704" lon="7.284619791048873"><ele>447.0</ele><time>2026-04-14T16:05:12.001Z</time></trkpt><trkpt lat="44.81220968878936" lon="7.284530888319863"><ele>449.0</ele><time>2026-04-14T16:05:14.001Z</time></trkpt><trkpt lat="44.81223048783014" lon="7.284441733345447"><ele>451.0</ele><time>2026-04-14T16:05:16.001Z</time></trkpt><trkpt lat="44.812251651532165" lon="7.284353971467252"><ele>451.0</ele><time>2026-04-14T16:05:18.001Z</time></trkpt><trkpt lat="44.81227809736965" lon="7.28422599787877"><ele>451.0</ele><time>2026-04-14T16:05:21.001Z</time></trkpt><trkpt lat="44.81228600479309" lon="7.28413143786558"><ele>451.0</ele><time>2026-04-14T16:05:23.001Z</time></trkpt><trkpt lat="44.8123105324279" lon="7.2840451433695925"><ele>451.0</ele><time>2026-04-14T16:05:25.001Z</time></trkpt><trkpt lat="44.81234283021671" lon="7.283960010213774"><ele>451.0</ele><time>2026-04-14T16:05:27.001Z</time></trkpt><trkpt lat="44.81237452142926" lon="7.28388185614897"><ele>451.0</ele><time>2026-04-14T16:05:29.001Z</time></trkpt><trkpt lat="44.81240475108354" lon="7.2837958471569495"><ele>451.0</ele><time>2026-04-14T16:05:31.001Z</time></trkpt><trkpt lat="44.81243053093871" lon="7.283701918206618"><ele>450.1428571428571</ele><time>2026-04-14T16:05:33.001Z</time></trkpt><trkpt lat="44.812459564468526" lon="7.283608187548117"><ele>449.28571428571433</ele><time>2026-04-14T16:05:35.001Z</time></trkpt><trkpt lat="44.81248097001524" lon="7.283512078757654"><ele>448.42857142857144</ele><time>2026-04-14T16:05:37.001Z</time></trkpt><trkpt lat="44.81250364065509" lon="7.283427296996839"><ele>447.57142857142856</ele><time>2026-04-14T16:05:39.001Z</time></trkpt><trkpt lat="44.81253170967977" lon="7.2833408657429315"><ele>446.71428571428567</ele><time>2026-04-14T16:05:41.001Z</time></trkpt><trkpt lat="44.81256065255409" lon="7.283250797740819"><ele>445.8571428571429</ele><time>2026-04-14T16:05:43.001Z</time></trkpt><trkpt lat="44.81259726358117" lon="7.283159373438205"><ele>445.0</ele><time>2026-04-14T16:05:45.001Z</time></trkpt><trkpt lat="44.81263779458606" lon="7.283073930449994"><ele>445.33333333333337</ele><time>2026-04-14T16:05:47.001Z</time></trkpt><trkpt lat="44.81268738953511" lon="7.282996152851603"><ele>445.6666666666667</ele><time>2026-04-14T16:05:49.001Z</time></trkpt><trkpt lat="44.812734941721565" lon="7.282919388448422"><ele>446.0</ele><time>2026-04-14T16:05:51.001Z</time></trkpt><trkpt lat="44.81278264532668" lon="7.282848571426125"><ele>446.33333333333337</ele><time>2026-04-14T16:05:53.001Z</time></trkpt><trkpt lat="44.81283942100342" lon="7.282759495999378"><ele>446.6666666666667</ele><time>2026-04-14T16:05:56.001Z</time></trkpt><trkpt lat="44.81288748643311" lon="7.282675992173677"><ele>447.0</ele><time>2026-04-14T16:05:59.001Z</time></trkpt><trkpt lat="44.812946340063924" lon="7.282576479419229"><ele>446.99999999999994</ele><time>2026-04-14T16:06:02.001Z</time></trkpt><trkpt lat="44.812995158579994" lon="7.28251314531829"><ele>447.0</ele><time>2026-04-14T16:06:04.001Z</time></trkpt><trkpt lat="44.81306992226669" lon="7.282435028041196"><ele>447.0</ele><time>2026-04-14T16:06:07.001Z</time></trkpt><trkpt lat="44.81313360650419" lon="7.282404288498469"><ele>447.0</ele><time>2026-04-14T16:06:09.001Z</time></trkpt><trkpt lat="44.813202681987846" lon="7.282396409971877"><ele>447.0</ele><time>2026-04-14T16:06:11.001Z</time></trkpt><trkpt lat="44.81327075892261" lon="7.282403018538203"><ele>446.99999999999994</ele><time>2026-04-14T16:06:13.001Z</time></trkpt><trkpt lat="44.81333637505699" lon="7.282393110013285"><ele>447.0</ele><time>2026-04-14T16:06:15.001Z</time></trkpt><trkpt lat="44.81339835378814" lon="7.28236233146185"><ele>447.0</ele><time>2026-04-14T16:06:17.001Z</time></trkpt><trkpt lat="44.81346124079224" lon="7.282328675215696"><ele>447.0</ele><time>2026-04-14T16:06:19.001Z</time></trkpt><trkpt lat="44.81351952108618" lon="7.282292066900549"><ele>447.0</ele><time>2026-04-14T16:06:21.001Z</time></trkpt><trkpt lat="44.81357559584673" lon="7.282251416941186"><ele>447.0</ele><time>2026-04-14T16:06:23.001Z</time></trkpt><trkpt lat="44.81364941056625" lon="7.28218320767712"><ele>447.0</ele><time>2026-04-14T16:06:26.002Z</time></trkpt><trkpt lat="44.81372010874561" lon="7.2821239190079865"><ele>447.0</ele><time>2026-04-14T16:06:29.002Z</time></trkpt><trkpt lat="44.81378820409924" lon="7.282040288919557"><ele>447.85714285714283</ele><time>2026-04-14T16:06:32.002Z</time></trkpt><trkpt lat="44.8138345119644" lon="7.2819706517279394"><ele>448.71428571428567</ele><time>2026-04-14T16:06:34.002Z</time></trkpt><trkpt lat="44.81388218771265" lon="7.281900087420335"><ele>449.57142857142856</ele><time>2026-04-14T16:06:36.002Z</time></trkpt><trkpt lat="44.8139255467621" lon="7.281834532883121"><ele>450.4285714285714</ele><time>2026-04-14T16:06:38.002Z</time></trkpt><trkpt lat="44.81396716710478" lon="7.2817667643026445"><ele>451.2857142857143</ele><time>2026-04-14T16:06:40.002Z</time></trkpt><trkpt lat="44.81401386414203" lon="7.281695353628103"><ele>452.14285714285705</ele><time>2026-04-14T16:06:42.002Z</time></trkpt><trkpt lat="44.814068918927326" lon="7.281609126215759"><ele>452.99999999999994</ele><time>2026-04-14T16:06:44.002Z</time></trkpt><trkpt lat="44.8141335628898" lon="7.281520191715857"><ele>452.3333333333333</ele><time>2026-04-14T16:06:46.002Z</time></trkpt><trkpt lat="44.81419547032907" lon="7.28142643393307"><ele>451.66666666666663</ele><time>2026-04-14T16:06:48.002Z</time></trkpt><trkpt lat="44.81425591686283" lon="7.2813335642661094"><ele>451.0</ele><time>2026-04-14T16:06:50.002Z</time></trkpt><trkpt lat="44.814316288886864" lon="7.281240194846526"><ele>450.3333333333333</ele><time>2026-04-14T16:06:52.002Z</time></trkpt><trkpt lat="44.81437976086708" lon="7.281151941053771"><ele>449.66666666666663</ele><time>2026-04-14T16:06:54.002Z</time></trkpt><trkpt lat="44.81443940806645" lon="7.2810687659362765"><ele>449.0</ele><time>2026-04-14T16:06:56.002Z</time></trkpt><trkpt lat="44.81449644354519" lon="7.280992786277543"><ele>449.4285714285714</ele><time>2026-04-14T16:06:58.002Z</time></trkpt><trkpt lat="44.81455038170836" lon="7.280914784189119"><ele>449.8571428571428</ele><time>2026-04-14T16:07:00.002Z</time></trkpt><trkpt lat="44.81459428231709" lon="7.280835540968465"><ele>450.2857142857143</ele><time>2026-04-14T16:07:02.002Z</time></trkpt><trkpt lat="44.81463017669805" lon="7.280747714488883"><ele>450.71428571428567</ele><time>2026-04-14T16:07:04.002Z</time></trkpt><trkpt lat="44.81467358736853" lon="7.280674569157576"><ele>451.1428571428571</ele><time>2026-04-14T16:07:06.002Z</time></trkpt><trkpt lat="44.81472310391861" lon="7.28056966111376"><ele>451.57142857142856</ele><time>2026-04-14T16:07:09.002Z</time></trkpt><trkpt lat="44.81476262701116" lon="7.280487207338445"><ele>452.0</ele><time>2026-04-14T16:07:12.002Z</time></trkpt><trkpt lat="44.81482905117967" lon="7.280406466416501"><ele>452.0</ele><time>2026-04-14T16:07:17.001Z</time></trkpt><trkpt lat="44.81489322401803" lon="7.280352059349658"><ele>452.0</ele><time>2026-04-14T16:07:19.001Z</time></trkpt><trkpt lat="44.814932934822295" lon="7.28026172616346"><ele>452.0</ele><time>2026-04-14T16:07:21.001Z</time></trkpt><trkpt lat="44.81497300076572" lon="7.280177408843564"><ele>452.0</ele><time>2026-04-14T16:07:23.001Z</time></trkpt><trkpt lat="44.81501443931742" lon="7.28010026005436"><ele>452.0</ele><time>2026-04-14T16:07:25.001Z</time></trkpt><trkpt lat="44.81505975505766" lon="7.280027063882905"><ele>452.0</ele><time>2026-04-14T16:07:27.001Z</time></trkpt><trkpt lat="44.81510767011912" lon="7.2799583397726995"><ele>452.0</ele><time>2026-04-14T16:07:29.001Z</time></trkpt><trkpt lat="44.815160371247835" lon="7.279891172743716"><ele>453.42857142857144</ele><time>2026-04-14T16:07:31.001Z</time></trkpt><trkpt lat="44.81521226391223" lon="7.279821347587763"><ele>454.85714285714283</ele><time>2026-04-14T16:07:33.001Z</time></trkpt><trkpt lat="44.81526576902537" lon="7.279753428522306"><ele>456.2857142857143</ele><time>2026-04-14T16:07:35.001Z</time></trkpt><trkpt lat="44.8153137320806" lon="7.279685077614158"><ele>457.7142857142857</ele><time>2026-04-14T16:07:37.001Z</time></trkpt><trkpt lat="44.815353033825765" lon="7.279606478545403"><ele>459.1428571428571</ele><time>2026-04-14T16:07:39.001Z</time></trkpt><trkpt lat="44.81539006947142" lon="7.279519525081716"><ele>460.57142857142856</ele><time>2026-04-14T16:07:41.001Z</time></trkpt><trkpt lat="44.815421222057196" lon="7.2794271107568305"><ele>462.0</ele><time>2026-04-14T16:07:43.001Z</time></trkpt><trkpt lat="44.81546006540354" lon="7.27934079614521"><ele>462.0</ele><time>2026-04-14T16:07:45.001Z</time></trkpt><trkpt lat="44.815497677130445" lon="7.279256810867761"><ele>462.0</ele><time>2026-04-14T16:07:47.001Z</time></trkpt><trkpt lat="44.815526024321834" lon="7.279173056574277"><ele>462.0</ele><time>2026-04-14T16:07:49.001Z</time></trkpt><trkpt lat="44.815557278776346" lon="7.279092182101039"><ele>462.0</ele><time>2026-04-14T16:07:51.001Z</time></trkpt><trkpt lat="44.81559021679232" lon="7.279014987159323"><ele>462.0</ele><time>2026-04-14T16:07:53.001Z</time></trkpt><trkpt lat="44.815620757457204" lon="7.278934645478751"><ele>462.0</ele><time>2026-04-14T16:07:55.001Z</time></trkpt><trkpt lat="44.81565218623451" lon="7.278857146645786"><ele>462.0</ele><time>2026-04-14T16:07:57.001Z</time></trkpt><trkpt lat="44.81568310965858" lon="7.278771300736429"><ele>461.1666666666667</ele><time>2026-04-14T16:07:59.001Z</time></trkpt><trkpt lat="44.81571247166806" lon="7.278684073588553"><ele>460.33333333333337</ele><time>2026-04-14T16:08:01.001Z</time></trkpt><trkpt lat="44.815737976170674" lon="7.278589302554823"><ele>459.5</ele><time>2026-04-14T16:08:03.001Z</time></trkpt><trkpt lat="44.81576639790223" lon="7.278494051613863"><ele>458.6666666666667</ele><time>2026-04-14T16:08:05.001Z</time></trkpt><trkpt lat="44.81579409084515" lon="7.278389215616085"><ele>457.83333333333337</ele><time>2026-04-14T16:08:07.001Z</time></trkpt><trkpt lat="44.81582430786655" lon="7.278280454958467"><ele>457.0</ele><time>2026-04-14T16:08:09.001Z</time></trkpt><trkpt lat="44.81585604230509" lon="7.278170321737919"><ele>456.40000000000003</ele><time>2026-04-14T16:08:11.001Z</time></trkpt><trkpt lat="44.81588520167676" lon="7.278051785353497"><ele>455.80000000000007</ele><time>2026-04-14T16:08:13.001Z</time></trkpt><trkpt lat="44.81589828121965" lon="7.277913894715249"><ele>455.2</ele><time>2026-04-14T16:08:15.001Z</time></trkpt><trkpt lat="44.81589830538987" lon="7.277760707868817"><ele>454.6</ele><time>2026-04-14T16:08:17.001Z</time></trkpt><trkpt lat="44.81589144536257" lon="7.27760134167518"><ele>454.0</ele><time>2026-04-14T16:08:19.001Z</time></trkpt><trkpt lat="44.81589055294904" lon="7.277446180912616"><ele>454.0</ele><time>2026-04-14T16:08:21.001Z</time></trkpt><trkpt lat="44.815914615332076" lon="7.277299324540389"><ele>454.0</ele><time>2026-04-14T16:08:23.001Z</time></trkpt><trkpt lat="44.81595080519096" lon="7.277163052636718"><ele>454.0</ele><time>2026-04-14T16:08:25.001Z</time></trkpt><trkpt lat="44.815987434129624" lon="7.277032235841876"><ele>454.0</ele><time>2026-04-14T16:08:27.001Z</time></trkpt><trkpt lat="44.816017501028035" lon="7.276902207015573"><ele>454.0</ele><time>2026-04-14T16:08:29.001Z</time></trkpt><trkpt lat="44.816050164535255" lon="7.276777278334097"><ele>455.2</ele><time>2026-04-14T16:08:31.002Z</time></trkpt><trkpt lat="44.816079580539316" lon="7.276653151001293"><ele>456.4</ele><time>2026-04-14T16:08:33.002Z</time></trkpt><trkpt lat="44.816108984150304" lon="7.276529092389678"><ele>457.6</ele><time>2026-04-14T16:08:35.002Z</time></trkpt><trkpt lat="44.81612243317219" lon="7.276397727153414"><ele>458.8</ele><time>2026-04-14T16:08:37.002Z</time></trkpt><trkpt lat="44.81609164186262" lon="7.276266603780979"><ele>460.0</ele><time>2026-04-14T16:08:39.002Z</time></trkpt><trkpt lat="44.816065906561526" lon="7.276123258950837"><ele>460.0</ele><time>2026-04-14T16:08:41.002Z</time></trkpt><trkpt lat="44.816095518863015" lon="7.275969350186078"><ele>460.0</ele><time>2026-04-14T16:08:43.002Z</time></trkpt><trkpt lat="44.81613367001155" lon="7.27582356724798"><ele>460.0</ele><time>2026-04-14T16:08:45.002Z</time></trkpt><trkpt lat="44.81616632143775" lon="7.275676145327753"><ele>460.0</ele><time>2026-04-14T16:08:47.002Z</time></trkpt><trkpt lat="44.81620381548963" lon="7.2755289167111465"><ele>460.0</ele><time>2026-04-14T16:08:49.002Z</time></trkpt><trkpt lat="44.81624362225367" lon="7.275385781134298"><ele>460.0</ele><time>2026-04-14T16:08:51.002Z</time></trkpt><trkpt lat="44.81627752961852" lon="7.275246925315467"><ele>460.0</ele><time>2026-04-14T16:08:53.002Z</time></trkpt><trkpt lat="44.816308817974054" lon="7.275109919941875"><ele>460.0</ele><time>2026-04-14T16:08:55.002Z</time></trkpt><trkpt lat="44.81633777338913" lon="7.274975425316334"><ele>460.0</ele><time>2026-04-14T16:08:57.002Z</time></trkpt><trkpt lat="44.81636705885823" lon="7.274848792184567"><ele>460.0</ele><time>2026-04-14T16:08:59.002Z</time></trkpt><trkpt lat="44.816399570066686" lon="7.274724686966855"><ele>459.6</ele><time>2026-04-14T16:09:01.002Z</time></trkpt><trkpt lat="44.816437407898746" lon="7.274602821298411"><ele>459.2</ele><time>2026-04-14T16:09:03.002Z</time></trkpt><trkpt lat="44.81647619020271" lon="7.274483599838716"><ele>458.79999999999995</ele><time>2026-04-14T16:09:05.002Z</time></trkpt><trkpt lat="44.81652300476359" lon="7.274369299934831"><ele>458.4</ele><time>2026-04-14T16:09:07.002Z</time></trkpt><trkpt lat="44.81656955604447" lon="7.274253828913068"><ele>458.0</ele><time>2026-04-14T16:09:09.002Z</time></trkpt><trkpt lat="44.816614848993694" lon="7.2741397760964075"><ele>457.99999999999994</ele><time>2026-04-14T16:09:11.002Z</time></trkpt><trkpt lat="44.8166612004904" lon="7.274026824737101"><ele>458.0</ele><time>2026-04-14T16:09:13.002Z</time></trkpt><trkpt lat="44.81670545796527" lon="7.273914806822411"><ele>458.0</ele><time>2026-04-14T16:09:15.002Z</time></trkpt><trkpt lat="44.81674758107797" lon="7.273804974039678"><ele>458.0</ele><time>2026-04-14T16:09:17.002Z</time></trkpt><trkpt lat="44.81678658557782" lon="7.273706999146752"><ele>457.99999999999994</ele><time>2026-04-14T16:09:19.002Z</time></trkpt><trkpt lat="44.81681709584718" lon="7.2736188587227755"><ele>458.0</ele><time>2026-04-14T16:09:21.001Z</time></trkpt><trkpt lat="44.81684029090694" lon="7.273522678862044"><ele>459.4</ele><time>2026-04-14T16:09:23.001Z</time></trkpt><trkpt lat="44.81685299766952" lon="7.273409047758331"><ele>460.79999999999995</ele><time>2026-04-14T16:09:25.001Z</time></trkpt><trkpt lat="44.81685258043886" lon="7.273282232768735"><ele>462.2</ele><time>2026-04-14T16:09:27.001Z</time></trkpt><trkpt lat="44.81685039813089" lon="7.273147178791955"><ele>463.6</ele><time>2026-04-14T16:09:29.001Z</time></trkpt><trkpt lat="44.816837792079674" lon="7.273004607237178"><ele>465.0</ele><time>2026-04-14T16:09:31.001Z</time></trkpt><trkpt lat="44.81682468920834" lon="7.272855324255109"><ele>465.0</ele><time>2026-04-14T16:09:33.001Z</time></trkpt><trkpt lat="44.816811981098915" lon="7.272698264532378"><ele>465.0</ele><time>2026-04-14T16:09:35.001Z</time></trkpt><trkpt lat="44.816810406693115" lon="7.27252930683448"><ele>465.0</ele><time>2026-04-14T16:09:37.001Z</time></trkpt><trkpt lat="44.81682143447077" lon="7.2724406472923695"><ele>465.0</ele><time>2026-04-14T16:09:38.001Z</time></trkpt><trkpt lat="44.81686418365121" lon="7.272275948335934"><ele>465.0</ele><time>2026-04-14T16:09:40.001Z</time></trkpt><trkpt lat="44.81690943223791" lon="7.272125537290042"><ele>464.2</ele><time>2026-04-14T16:09:42.001Z</time></trkpt><trkpt lat="44.81695646747047" lon="7.271989345025301"><ele>463.4</ele><time>2026-04-14T16:09:44.001Z</time></trkpt><trkpt lat="44.81700044925478" lon="7.27186007539167"><ele>462.6</ele><time>2026-04-14T16:09:46.001Z</time></trkpt><trkpt lat="44.817037042695524" lon="7.271741204190908"><ele>461.8</ele><time>2026-04-14T16:09:48.001Z</time></trkpt><trkpt lat="44.817072681625596" lon="7.271630426579342"><ele>461.0</ele><time>2026-04-14T16:09:50.001Z</time></trkpt><trkpt lat="44.81711179483439" lon="7.271522279263001"><ele>460.16666666666663</ele><time>2026-04-14T16:09:52.001Z</time></trkpt><trkpt lat="44.81714827371213" lon="7.271417408631614"><ele>459.3333333333333</ele><time>2026-04-14T16:09:54.001Z</time></trkpt><trkpt lat="44.817186773670485" lon="7.271305135025394"><ele>458.5</ele><time>2026-04-14T16:09:56.001Z</time></trkpt><trkpt lat="44.81722304551117" lon="7.271201782385832"><ele>457.66666666666663</ele><time>2026-04-14T16:09:58.001Z</time></trkpt><trkpt lat="44.81726167178994" lon="7.271098051825946"><ele>456.8333333333333</ele><time>2026-04-14T16:10:00.001Z</time></trkpt><trkpt lat="44.817299047606326" lon="7.270989662399181"><ele>456.0</ele><time>2026-04-14T16:10:02.001Z</time></trkpt><trkpt lat="44.817336485763136" lon="7.270880780457004"><ele>456.0</ele><time>2026-04-14T16:10:04.001Z</time></trkpt><trkpt lat="44.81737532096287" lon="7.270773589402607"><ele>456.0</ele><time>2026-04-14T16:10:06.001Z</time></trkpt><trkpt lat="44.81741397471657" lon="7.270668033736014"><ele>456.0</ele><time>2026-04-14T16:10:08.001Z</time></trkpt><trkpt lat="44.81745209293292" lon="7.270563172456766"><ele>456.0</ele><time>2026-04-14T16:10:10.001Z</time></trkpt><trkpt lat="44.81748740934733" lon="7.270453614861137"><ele>456.0</ele><time>2026-04-14T16:10:12.001Z</time></trkpt><trkpt lat="44.817519489378" lon="7.270345893988795"><ele>456.0</ele><time>2026-04-14T16:10:14.001Z</time></trkpt><trkpt lat="44.81755071356264" lon="7.270238478957283"><ele>455.8333333333333</ele><time>2026-04-14T16:10:16.001Z</time></trkpt><trkpt lat="44.817580161481054" lon="7.270134914051907"><ele>455.66666666666663</ele><time>2026-04-14T16:10:18.001Z</time></trkpt><trkpt lat="44.817608652503466" lon="7.270035435621771"><ele>455.5</ele><time>2026-04-14T16:10:20.001Z</time></trkpt><trkpt lat="44.81763607692032" lon="7.269937938832231"><ele>455.3333333333333</ele><time>2026-04-14T16:10:22.001Z</time></trkpt><trkpt lat="44.817667272193376" lon="7.269835248340035"><ele>455.16666666666663</ele><time>2026-04-14T16:10:24.001Z</time></trkpt><trkpt lat="44.81769388223069" lon="7.269723926751116"><ele>455.0</ele><time>2026-04-14T16:10:26.001Z</time></trkpt><trkpt lat="44.81772288878807" lon="7.2696084758326975"><ele>456.8333333333333</ele><time>2026-04-14T16:10:28.001Z</time></trkpt><trkpt lat="44.81775447052866" lon="7.269494261799178"><ele>458.66666666666663</ele><time>2026-04-14T16:10:30.001Z</time></trkpt><trkpt lat="44.81778391808614" lon="7.2693812713067665"><ele>460.5</ele><time>2026-04-14T16:10:32.001Z</time></trkpt><trkpt lat="44.817810018002454" lon="7.269268562048296"><ele>462.33333333333337</ele><time>2026-04-14T16:10:34.001Z</time></trkpt><trkpt lat="44.81783837083288" lon="7.269158718375446"><ele>464.1666666666667</ele><time>2026-04-14T16:10:36.002Z</time></trkpt><trkpt lat="44.8178653912469" lon="7.269052911333137"><ele>466.0</ele><time>2026-04-14T16:10:38.002Z</time></trkpt><trkpt lat="44.817890712929255" lon="7.268949288881832"><ele>465.6666666666667</ele><time>2026-04-14T16:10:40.002Z</time></trkpt><trkpt lat="44.817918108375984" lon="7.268847987501936"><ele>465.33333333333337</ele><time>2026-04-14T16:10:42.002Z</time></trkpt><trkpt lat="44.81794747142232" lon="7.268749898048443"><ele>465.0</ele><time>2026-04-14T16:10:44.002Z</time></trkpt><trkpt lat="44.81797274332899" lon="7.2686472334285614"><ele>464.66666666666663</ele><time>2026-04-14T16:10:46.002Z</time></trkpt><trkpt lat="44.81800593478554" lon="7.268551703464011"><ele>464.3333333333333</ele><time>2026-04-14T16:10:48.002Z</time></trkpt><trkpt lat="44.81804273589833" lon="7.268458281051283"><ele>464.0</ele><time>2026-04-14T16:10:50.002Z</time></trkpt><trkpt lat="44.818075428122334" lon="7.268363358595665"><ele>464.0</ele><time>2026-04-14T16:10:52.002Z</time></trkpt><trkpt lat="44.81809894711207" lon="7.2682590963423515"><ele>464.0</ele><time>2026-04-14T16:10:54.002Z</time></trkpt><trkpt lat="44.81813044361267" lon="7.26814733660021"><ele>464.0</ele><time>2026-04-14T16:10:56.002Z</time></trkpt><trkpt lat="44.81814988839891" lon="7.268011978685183"><ele>464.0</ele><time>2026-04-14T16:10:58.002Z</time></trkpt><trkpt lat="44.81816364037399" lon="7.2678602033375626"><ele>464.0</ele><time>2026-04-14T16:11:00.002Z</time></trkpt><trkpt lat="44.81817323909831" lon="7.267692473478074"><ele>463.6</ele><time>2026-04-14T16:11:02.002Z</time></trkpt><trkpt lat="44.818192656307716" lon="7.267523440403959"><ele>463.2</ele><time>2026-04-14T16:11:04.002Z</time></trkpt><trkpt lat="44.818202325063965" lon="7.26735950548123"><ele>462.80000000000007</ele><time>2026-04-14T16:11:06.002Z</time></trkpt><trkpt lat="44.81820986136677" lon="7.267187542275301"><ele>462.40000000000003</ele><time>2026-04-14T16:11:08.002Z</time></trkpt><trkpt lat="44.81819701602365" lon="7.267097854350309"><ele>462.0</ele><time>2026-04-14T16:11:09.003Z</time></trkpt><trkpt lat="44.81815900793142" lon="7.266931893862467"><ele>461.75</ele><time>2026-04-14T16:11:11.002Z</time></trkpt><trkpt lat="44.818110093947176" lon="7.26677697329784"><ele>461.5</ele><time>2026-04-14T16:11:13.002Z</time></trkpt><trkpt lat="44.81807579952292" lon="7.2666051596650165"><ele>461.25</ele><time>2026-04-14T16:11:15.002Z</time></trkpt><trkpt lat="44.818045737223144" lon="7.266434713521578"><ele>461.0</ele><time>2026-04-14T16:11:17.002Z</time></trkpt><trkpt lat="44.818033517185384" lon="7.266267169866002"><ele>460.20000000000005</ele><time>2026-04-14T16:11:19.002Z</time></trkpt><trkpt lat="44.81802337531924" lon="7.2661049020951385"><ele>459.40000000000003</ele><time>2026-04-14T16:11:21.002Z</time></trkpt><trkpt lat="44.81801160348724" lon="7.265953833095802"><ele>458.6</ele><time>2026-04-14T16:11:23.002Z</time></trkpt><trkpt lat="44.81799818559323" lon="7.2658098037255625"><ele>457.8</ele><time>2026-04-14T16:11:25.001Z</time></trkpt><trkpt lat="44.8179782636743" lon="7.2656721448771835"><ele>457.0</ele><time>2026-04-14T16:11:27.001Z</time></trkpt><trkpt lat="44.81796717221607" lon="7.26554064333309"><ele>457.0</ele><time>2026-04-14T16:11:29.001Z</time></trkpt><trkpt lat="44.81796722009625" lon="7.265411241376857"><ele>457.00000000000006</ele><time>2026-04-14T16:11:31.001Z</time></trkpt><trkpt lat="44.81797286241019" lon="7.265276680704007"><ele>457.00000000000006</ele><time>2026-04-14T16:11:33.001Z</time></trkpt><trkpt lat="44.81798838088673" lon="7.2651389453118815"><ele>457.0</ele><time>2026-04-14T16:11:35.001Z</time></trkpt><trkpt lat="44.81800833395422" lon="7.265004584591276"><ele>457.0</ele><time>2026-04-14T16:11:37.001Z</time></trkpt><trkpt lat="44.81801460783083" lon="7.264867868450205"><ele>457.40000000000003</ele><time>2026-04-14T16:11:39.001Z</time></trkpt><trkpt lat="44.81801725484949" lon="7.264731981904144"><ele>457.80000000000007</ele><time>2026-04-14T16:11:41.001Z</time></trkpt><trkpt lat="44.81800661913441" lon="7.2645981323643865"><ele>458.2</ele><time>2026-04-14T16:11:43.001Z</time></trkpt><trkpt lat="44.817985280849236" lon="7.264471772290395"><ele>458.6</ele><time>2026-04-14T16:11:45.001Z</time></trkpt><trkpt lat="44.81795403777241" lon="7.2643455841545705"><ele>459.0</ele><time>2026-04-14T16:11:47.001Z</time></trkpt><trkpt lat="44.81791601332008" lon="7.264220943790489"><ele>459.0</ele><time>2026-04-14T16:11:49.001Z</time></trkpt><trkpt lat="44.81787345754714" lon="7.264098328736623"><ele>459.0</ele><time>2026-04-14T16:11:51.001Z</time></trkpt><trkpt lat="44.81782630108928" lon="7.263981367161948"><ele>459.0</ele><time>2026-04-14T16:11:53.001Z</time></trkpt><trkpt lat="44.81777102118363" lon="7.263873894884319"><ele>459.0</ele><time>2026-04-14T16:11:55.001Z</time></trkpt><trkpt lat="44.81771528412699" lon="7.26377019498168"><ele>459.0</ele><time>2026-04-14T16:11:57.001Z</time></trkpt><trkpt lat="44.81766596630112" lon="7.263650774401303"><ele>458.79999999999995</ele><time>2026-04-14T16:11:59.001Z</time></trkpt><trkpt lat="44.81762676898758" lon="7.263515467197267"><ele>458.59999999999997</ele><time>2026-04-14T16:12:01.001Z</time></trkpt><trkpt lat="44.81759456441027" lon="7.263379495264109"><ele>458.4</ele><time>2026-04-14T16:12:03.001Z</time></trkpt><trkpt lat="44.81758544094042" lon="7.263236128403607"><ele>458.2</ele><time>2026-04-14T16:12:05.001Z</time></trkpt><trkpt lat="44.81756875056768" lon="7.263100105542572"><ele>458.0</ele><time>2026-04-14T16:12:07.001Z</time></trkpt><trkpt lat="44.8175498184495" lon="7.262966607247356"><ele>458.0</ele><time>2026-04-14T16:12:09.001Z</time></trkpt><trkpt lat="44.81753833575167" lon="7.262831490714171"><ele>457.99999999999994</ele><time>2026-04-14T16:12:11.001Z</time></trkpt><trkpt lat="44.817544925615955" lon="7.262695425430476"><ele>457.99999999999994</ele><time>2026-04-14T16:12:13.001Z</time></trkpt><trkpt lat="44.81756531782045" lon="7.2625600144716795"><ele>458.0</ele><time>2026-04-14T16:12:15.001Z</time></trkpt><trkpt lat="44.81758904420363" lon="7.2624266507470265"><ele>458.0</ele><time>2026-04-14T16:12:17.001Z</time></trkpt><trkpt lat="44.81761238576411" lon="7.262296657966752"><ele>458.2</ele><time>2026-04-14T16:12:19.001Z</time></trkpt><trkpt lat="44.81764541355381" lon="7.262173592900394"><ele>458.4</ele><time>2026-04-14T16:12:21.001Z</time></trkpt><trkpt lat="44.81767694742745" lon="7.2620475727023255"><ele>458.59999999999997</ele><time>2026-04-14T16:12:23.001Z</time></trkpt><trkpt lat="44.81770817755156" lon="7.261927108691032"><ele>458.79999999999995</ele><time>2026-04-14T16:12:25.001Z</time></trkpt><trkpt lat="44.81773932541897" lon="7.261810433823225"><ele>459.0</ele><time>2026-04-14T16:12:27.001Z</time></trkpt><trkpt lat="44.81776660405882" lon="7.261693623150169"><ele>459.3333333333333</ele><time>2026-04-14T16:12:29.001Z</time></trkpt><trkpt lat="44.81779299925791" lon="7.261573830077202"><ele>459.66666666666663</ele><time>2026-04-14T16:12:31.001Z</time></trkpt><trkpt lat="44.81782021522655" lon="7.261463864240619"><ele>460.0</ele><time>2026-04-14T16:12:33.001Z</time></trkpt><trkpt lat="44.81784839817239" lon="7.261355627712698"><ele>460.3333333333333</ele><time>2026-04-14T16:12:35.001Z</time></trkpt><trkpt lat="44.81787056264189" lon="7.261243484769244"><ele>460.66666666666663</ele><time>2026-04-14T16:12:37.001Z</time></trkpt><trkpt lat="44.81789575017353" lon="7.2611335812110385"><ele>461.0</ele><time>2026-04-14T16:12:39.001Z</time></trkpt><trkpt lat="44.817922466189074" lon="7.261029632978805"><ele>460.99999999999994</ele><time>2026-04-14T16:12:41.002Z</time></trkpt><trkpt lat="44.81794340994639" lon="7.2609248840862035"><ele>461.0</ele><time>2026-04-14T16:12:43.002Z</time></trkpt><trkpt lat="44.81797084897691" lon="7.26081846163264"><ele>461.0</ele><time>2026-04-14T16:12:45.002Z</time></trkpt><trkpt lat="44.81799788023573" lon="7.260709089644147"><ele>461.0</ele><time>2026-04-14T16:12:47.002Z</time></trkpt><trkpt lat="44.81802279619527" lon="7.260599694418549"><ele>460.99999999999994</ele><time>2026-04-14T16:12:49.002Z</time></trkpt><trkpt lat="44.81804656029886" lon="7.26049606417046"><ele>461.0</ele><time>2026-04-14T16:12:51.002Z</time></trkpt><trkpt lat="44.81807165819808" lon="7.260391662797322"><ele>461.14285714285717</ele><time>2026-04-14T16:12:53.002Z</time></trkpt><trkpt lat="44.818095807566536" lon="7.260287603841275"><ele>461.28571428571433</ele><time>2026-04-14T16:12:55.002Z</time></trkpt><trkpt lat="44.818116497322855" lon="7.260186478277374"><ele>461.42857142857144</ele><time>2026-04-14T16:12:57.002Z</time></trkpt><trkpt lat="44.81813757965485" lon="7.260082598034478"><ele>461.57142857142856</ele><time>2026-04-14T16:12:59.002Z</time></trkpt><trkpt lat="44.818156657030855" lon="7.259975908647951"><ele>461.7142857142857</ele><time>2026-04-14T16:13:01.002Z</time></trkpt><trkpt lat="44.81817520488408" lon="7.259881905071943"><ele>461.8571428571429</ele><time>2026-04-14T16:13:03.002Z</time></trkpt><trkpt lat="44.81819629241043" lon="7.25979230053703"><ele>462.0</ele><time>2026-04-14T16:13:05.002Z</time></trkpt><trkpt lat="44.818213237011896" lon="7.259706609210953"><ele>462.42857142857144</ele><time>2026-04-14T16:13:07.002Z</time></trkpt><trkpt lat="44.81824002024343" lon="7.259583207583704"><ele>462.8571428571429</ele><time>2026-04-14T16:13:10.002Z</time></trkpt><trkpt lat="44.81825792763645" lon="7.2594914349570985"><ele>463.2857142857143</ele><time>2026-04-14T16:13:12.002Z</time></trkpt><trkpt lat="44.81828236378354" lon="7.259401793780294"><ele>463.7142857142857</ele><time>2026-04-14T16:13:14.002Z</time></trkpt><trkpt lat="44.81830152843811" lon="7.25930988869102"><ele>464.14285714285717</ele><time>2026-04-14T16:13:16.002Z</time></trkpt><trkpt lat="44.81831787971521" lon="7.259218093023246"><ele>464.57142857142856</ele><time>2026-04-14T16:13:18.002Z</time></trkpt><trkpt lat="44.81833361559268" lon="7.259125508662351"><ele>465.0</ele><time>2026-04-14T16:13:20.002Z</time></trkpt><trkpt lat="44.8183538509267" lon="7.259032205140082"><ele>465.1428571428571</ele><time>2026-04-14T16:13:22.002Z</time></trkpt><trkpt lat="44.8183708651472" lon="7.258940289644539"><ele>465.28571428571433</ele><time>2026-04-14T16:13:24.002Z</time></trkpt><trkpt lat="44.818386513706656" lon="7.258851369480227"><ele>465.42857142857144</ele><time>2026-04-14T16:13:26.002Z</time></trkpt><trkpt lat="44.81839997630782" lon="7.258763389878012"><ele>465.57142857142856</ele><time>2026-04-14T16:13:28.002Z</time></trkpt><trkpt lat="44.81845513527875" lon="7.258649499447722"><ele>465.71428571428567</ele><time>2026-04-14T16:13:31.001Z</time></trkpt><trkpt lat="44.818478908407414" lon="7.2585634890095205"><ele>465.8571428571429</ele><time>2026-04-14T16:13:33.001Z</time></trkpt><trkpt lat="44.81849115467335" lon="7.2584725317107415"><ele>466.0</ele><time>2026-04-14T16:13:35.001Z</time></trkpt><trkpt lat="44.81850392234563" lon="7.258344265318708"><ele>467.1666666666667</ele><time>2026-04-14T16:13:38.001Z</time></trkpt><trkpt lat="44.81852245825072" lon="7.258223595490965"><ele>468.33333333333337</ele><time>2026-04-14T16:13:41.001Z</time></trkpt><trkpt lat="44.818545460404586" lon="7.258095735758009"><ele>469.5</ele><time>2026-04-14T16:13:44.001Z</time></trkpt><trkpt lat="44.81856436901773" lon="7.258006662347214"><ele>470.66666666666663</ele><time>2026-04-14T16:13:46.001Z</time></trkpt><trkpt lat="44.81858017906977" lon="7.257917835711984"><ele>471.8333333333333</ele><time>2026-04-14T16:13:48.001Z</time></trkpt><trkpt lat="44.81859736506117" lon="7.25783192012674"><ele>473.0</ele><time>2026-04-14T16:13:50.001Z</time></trkpt><trkpt lat="44.81862113336335" lon="7.257703463034891"><ele>473.2</ele><time>2026-04-14T16:13:53.001Z</time></trkpt><trkpt lat="44.81864678057481" lon="7.2575775690874"><ele>473.4</ele><time>2026-04-14T16:13:56.001Z</time></trkpt><trkpt lat="44.818666560035446" lon="7.257455738209886"><ele>473.59999999999997</ele><time>2026-04-14T16:13:59.001Z</time></trkpt><trkpt lat="44.818679654312604" lon="7.257328235960014"><ele>473.79999999999995</ele><time>2026-04-14T16:14:02.001Z</time></trkpt><trkpt lat="44.81870097655212" lon="7.257203832608564"><ele>474.0</ele><time>2026-04-14T16:14:05.001Z</time></trkpt><trkpt lat="44.818746725245894" lon="7.2570986171539555"><ele>473.99999999999994</ele><time>2026-04-14T16:14:08.001Z</time></trkpt><trkpt lat="44.818815302585726" lon="7.257072600649595"><ele>474.0</ele><time>2026-04-14T16:14:10.001Z</time></trkpt><trkpt lat="44.818879144831556" lon="7.257051063167977"><ele>473.99999999999994</ele><time>2026-04-14T16:14:12.001Z</time></trkpt><trkpt lat="44.81895820739653" lon="7.2569974261542995"><ele>473.99999999999994</ele><time>2026-04-14T16:14:15.001Z</time></trkpt><trkpt lat="44.81897420865159" lon="7.256878560417827"><ele>474.0</ele><time>2026-04-14T16:14:18.001Z</time></trkpt><trkpt lat="44.81898057335461" lon="7.256785051622779"><ele>473.99999999999994</ele><time>2026-04-14T16:14:20.001Z</time></trkpt><trkpt lat="44.81898346770061" lon="7.256691069836501"><ele>473.99999999999994</ele><time>2026-04-14T16:14:22.001Z</time></trkpt><trkpt lat="44.81898598100181" lon="7.256599539034256"><ele>473.99999999999994</ele><time>2026-04-14T16:14:24.001Z</time></trkpt><trkpt lat="44.818979577822354" lon="7.256509378482324"><ele>474.0</ele><time>2026-04-14T16:14:26.001Z</time></trkpt><trkpt lat="44.81898029054301" lon="7.256420210287466"><ele>473.99999999999994</ele><time>2026-04-14T16:14:28.001Z</time></trkpt><trkpt lat="44.81898934191982" lon="7.256328786062109"><ele>473.99999999999994</ele><time>2026-04-14T16:14:30.001Z</time></trkpt><trkpt lat="44.8189996128065" lon="7.256239729122893"><ele>474.0</ele><time>2026-04-14T16:14:32.001Z</time></trkpt><trkpt lat="44.81899498917241" lon="7.256151024084905"><ele>473.99999999999994</ele><time>2026-04-14T16:14:34.001Z</time></trkpt><trkpt lat="44.81897106856623" lon="7.256064578398144"><ele>473.99999999999994</ele><time>2026-04-14T16:14:36.001Z</time></trkpt><trkpt lat="44.81894794471337" lon="7.255980229439795"><ele>474.99999999999994</ele><time>2026-04-14T16:14:38.001Z</time></trkpt><trkpt lat="44.818920744724956" lon="7.255899035728973"><ele>476.0</ele><time>2026-04-14T16:14:40.001Z</time></trkpt><trkpt lat="44.81890423552636" lon="7.255808481196097"><ele>476.99999999999994</ele><time>2026-04-14T16:14:42.001Z</time></trkpt><trkpt lat="44.818885430530464" lon="7.255719500219338"><ele>477.99999999999994</ele><time>2026-04-14T16:14:44.001Z</time></trkpt><trkpt lat="44.81886656650631" lon="7.255627410785417"><ele>479.0</ele><time>2026-04-14T16:14:46.001Z</time></trkpt><trkpt lat="44.81884338787603" lon="7.25553427065581"><ele>479.99999999999994</ele><time>2026-04-14T16:14:48.002Z</time></trkpt><trkpt lat="44.818814084612605" lon="7.255441609717117"><ele>480.99999999999994</ele><time>2026-04-14T16:14:50.002Z</time></trkpt><trkpt lat="44.81878286034916" lon="7.255342317446281"><ele>480.99999999999994</ele><time>2026-04-14T16:14:52.002Z</time></trkpt><trkpt lat="44.818754662563116" lon="7.255247404117758"><ele>481.0</ele><time>2026-04-14T16:14:54.002Z</time></trkpt><trkpt lat="44.81872739625302" lon="7.255156266827917"><ele>480.99999999999994</ele><time>2026-04-14T16:14:56.002Z</time></trkpt><trkpt lat="44.818699625056176" lon="7.255066326569861"><ele>480.99999999999994</ele><time>2026-04-14T16:14:58.002Z</time></trkpt><trkpt lat="44.81867418757343" lon="7.254976064946683"><ele>481.0</ele><time>2026-04-14T16:15:00.002Z</time></trkpt><trkpt lat="44.8186513508864" lon="7.254888150164279"><ele>480.99999999999994</ele><time>2026-04-14T16:15:02.002Z</time></trkpt><trkpt lat="44.81863041465078" lon="7.254803706283618"><ele>480.99999999999994</ele><time>2026-04-14T16:15:04.002Z</time></trkpt><trkpt lat="44.81859798405861" lon="7.254693566264783"><ele>481.0</ele><time>2026-04-14T16:15:07.002Z</time></trkpt><trkpt lat="44.818517338234415" lon="7.254641637559903"><ele>481.0</ele><time>2026-04-14T16:15:10.002Z</time></trkpt><trkpt lat="44.8184323250773" lon="7.254685533378013"><ele>481.0</ele><time>2026-04-14T16:15:12.002Z</time></trkpt><trkpt lat="44.81834669517069" lon="7.254745831035416"><ele>481.0</ele><time>2026-04-14T16:15:14.002Z</time></trkpt><trkpt lat="44.818252518965984" lon="7.254803575557058"><ele>481.0</ele><time>2026-04-14T16:15:16.002Z</time></trkpt><trkpt lat="44.81814612314349" lon="7.254852699545378"><ele>479.4</ele><time>2026-04-14T16:15:18.002Z</time></trkpt><trkpt lat="44.81803655303086" lon="7.254872299326479"><ele>477.8</ele><time>2026-04-14T16:15:20.002Z</time></trkpt><trkpt lat="44.81792491806193" lon="7.254898080444918"><ele>476.19999999999993</ele><time>2026-04-14T16:15:22.002Z</time></trkpt><trkpt lat="44.81782032369807" lon="7.2549316488862505"><ele>474.59999999999997</ele><time>2026-04-14T16:15:24.002Z</time></trkpt><trkpt lat="44.81771903703638" lon="7.2549565589666525"><ele>473.0</ele><time>2026-04-14T16:15:26.002Z</time></trkpt><trkpt lat="44.81762555761843" lon="7.2549940295400335"><ele>472.59999999999997</ele><time>2026-04-14T16:15:28.002Z</time></trkpt><trkpt lat="44.81753199797178" lon="7.25502470821066"><ele>472.19999999999993</ele><time>2026-04-14T16:15:30.002Z</time></trkpt><trkpt lat="44.817441653623526" lon="7.255059832481299"><ele>471.8</ele><time>2026-04-14T16:15:32.002Z</time></trkpt><trkpt lat="44.817354047478275" lon="7.255088337362816"><ele>471.4</ele><time>2026-04-14T16:15:34.002Z</time></trkpt><trkpt lat="44.817266267515976" lon="7.255116153019118"><ele>471.0</ele><time>2026-04-14T16:15:36.002Z</time></trkpt><trkpt lat="44.81717515632521" lon="7.255132954235275"><ele>471.0</ele><time>2026-04-14T16:15:38.001Z</time></trkpt><trkpt lat="44.81707843910752" lon="7.25514026562448"><ele>471.0</ele><time>2026-04-14T16:15:40.001Z</time></trkpt><trkpt lat="44.81697956547269" lon="7.255145719254046"><ele>471.0</ele><time>2026-04-14T16:15:42.001Z</time></trkpt><trkpt lat="44.81688075531455" lon="7.255147584877979"><ele>471.0</ele><time>2026-04-14T16:15:44.001Z</time></trkpt><trkpt lat="44.81679887976905" lon="7.255170486378524"><ele>471.0</ele><time>2026-04-14T16:15:46.001Z</time></trkpt><trkpt lat="44.81674587569204" lon="7.255231000807316"><ele>471.0</ele><time>2026-04-14T16:15:48.001Z</time></trkpt><trkpt lat="44.81672842550879" lon="7.255339482469701"><ele>470.6</ele><time>2026-04-14T16:15:50.001Z</time></trkpt><trkpt lat="44.81672609060606" lon="7.255460456934352"><ele>470.20000000000005</ele><time>2026-04-14T16:15:52.001Z</time></trkpt><trkpt lat="44.81672800110744" lon="7.255589789466461"><ele>469.79999999999995</ele><time>2026-04-14T16:15:54.001Z</time></trkpt><trkpt lat="44.81672155228057" lon="7.255728036775391"><ele>469.4</ele><time>2026-04-14T16:15:56.001Z</time></trkpt><trkpt lat="44.81671666881523" lon="7.255869052691887"><ele>469.0</ele><time>2026-04-14T16:15:58.001Z</time></trkpt><trkpt lat="44.816712155027076" lon="7.256011411722186"><ele>468.6</ele><time>2026-04-14T16:16:00.001Z</time></trkpt><trkpt lat="44.81670924633744" lon="7.256153718633147"><ele>468.2</ele><time>2026-04-14T16:16:02.001Z</time></trkpt><trkpt lat="44.81670313236562" lon="7.2562984210221755"><ele>467.80000000000007</ele><time>2026-04-14T16:16:04.001Z</time></trkpt><trkpt lat="44.81669725042772" lon="7.256443907215225"><ele>467.40000000000003</ele><time>2026-04-14T16:16:06.001Z</time></trkpt><trkpt lat="44.816694233026695" lon="7.256579159560783"><ele>467.0</ele><time>2026-04-14T16:16:08.001Z</time></trkpt><trkpt lat="44.816687262735755" lon="7.256682470037617"><ele>466.66666666666663</ele><time>2026-04-14T16:16:10.001Z</time></trkpt><trkpt lat="44.816670511512136" lon="7.2567818423500885"><ele>466.3333333333333</ele><time>2026-04-14T16:16:13.001Z</time></trkpt><trkpt lat="44.81659667090357" lon="7.256797592803506"><ele>466.0</ele><time>2026-04-14T16:16:15.001Z</time></trkpt><trkpt lat="44.81651127583627" lon="7.256758333530753"><ele>465.66666666666663</ele><time>2026-04-14T16:16:17.001Z</time></trkpt><trkpt lat="44.816423454978796" lon="7.256734604786523"><ele>465.3333333333333</ele><time>2026-04-14T16:16:19.001Z</time></trkpt><trkpt lat="44.81633187910281" lon="7.25672448522479"><ele>465.0</ele><time>2026-04-14T16:16:21.001Z</time></trkpt><trkpt lat="44.81624665711464" lon="7.256705952126037"><ele>465.0</ele><time>2026-04-14T16:16:23.001Z</time></trkpt><trkpt lat="44.81615912587661" lon="7.256696880079095"><ele>465.0</ele><time>2026-04-14T16:16:25.001Z</time></trkpt><trkpt lat="44.8160661451734" lon="7.256693157984754"><ele>465.0</ele><time>2026-04-14T16:16:27.001Z</time></trkpt><trkpt lat="44.815974869991805" lon="7.256682397286648"><ele>465.0</ele><time>2026-04-14T16:16:29.001Z</time></trkpt><trkpt lat="44.81588826302856" lon="7.256673556141578"><ele>465.0</ele><time>2026-04-14T16:16:31.001Z</time></trkpt><trkpt lat="44.815804408112164" lon="7.256658908869424"><ele>465.0</ele><time>2026-04-14T16:16:33.001Z</time></trkpt><trkpt lat="44.81571614004065" lon="7.256635242509401"><ele>464.8</ele><time>2026-04-14T16:16:35.001Z</time></trkpt><trkpt lat="44.815621389602015" lon="7.256630267243695"><ele>464.6</ele><time>2026-04-14T16:16:37.001Z</time></trkpt><trkpt lat="44.81552063679052" lon="7.256610000090875"><ele>464.4</ele><time>2026-04-14T16:16:39.001Z</time></trkpt><trkpt lat="44.8154178461273" lon="7.256598226817688"><ele>464.2</ele><time>2026-04-14T16:16:41.001Z</time></trkpt><trkpt lat="44.81531412860808" lon="7.256580740662393"><ele>464.0</ele><time>2026-04-14T16:16:43.001Z</time></trkpt><trkpt lat="44.815211979903104" lon="7.256567564844476"><ele>463.66666666666663</ele><time>2026-04-14T16:16:45.001Z</time></trkpt><trkpt lat="44.815127707456895" lon="7.256554269242246"><ele>463.3333333333333</ele><time>2026-04-14T16:16:47.001Z</time></trkpt><trkpt lat="44.81504495523756" lon="7.256540443062282"><ele>463.0</ele><time>2026-04-14T16:16:50.001Z</time></trkpt><trkpt lat="44.81495541876958" lon="7.256526696363991"><ele>462.66666666666663</ele><time>2026-04-14T16:16:53.001Z</time></trkpt><trkpt lat="44.81488970081475" lon="7.2565188294295515"><ele>462.3333333333333</ele><time>2026-04-14T16:16:55.002Z</time></trkpt><trkpt lat="44.814809840955434" lon="7.256504750096622"><ele>462.0</ele><time>2026-04-14T16:16:57.002Z</time></trkpt><trkpt lat="44.814718914676924" lon="7.256493427677507"><ele>462.0</ele><time>2026-04-14T16:16:59.002Z</time></trkpt><trkpt lat="44.81462569538079" lon="7.256478604455079"><ele>462.0</ele><time>2026-04-14T16:17:01.002Z</time></trkpt><trkpt lat="44.81453381931043" lon="7.256462032577556"><ele>462.0</ele><time>2026-04-14T16:17:03.002Z</time></trkpt><trkpt lat="44.814439425605926" lon="7.256453566645129"><ele>462.0</ele><time>2026-04-14T16:17:05.002Z</time></trkpt><trkpt lat="44.814349210568935" lon="7.25644276950685"><ele>462.0</ele><time>2026-04-14T16:17:07.002Z</time></trkpt><trkpt lat="44.814276814511665" lon="7.256433350983716"><ele>462.0</ele><time>2026-04-14T16:17:10.002Z</time></trkpt><trkpt lat="44.81421038884599" lon="7.256427890821646"><ele>461.8333333333333</ele><time>2026-04-14T16:17:13.002Z</time></trkpt><trkpt lat="44.814134127810256" lon="7.2564177755228165"><ele>461.66666666666663</ele><time>2026-04-14T16:17:16.002Z</time></trkpt><trkpt lat="44.81405386609118" lon="7.256414686948013"><ele>461.5</ele><time>2026-04-14T16:17:19.002Z</time></trkpt><trkpt lat="44.81396998433721" lon="7.256402587527686"><ele>461.3333333333333</ele><time>2026-04-14T16:17:22.002Z</time></trkpt><trkpt lat="44.81388316539492" lon="7.256384855652351"><ele>461.16666666666663</ele><time>2026-04-14T16:17:25.002Z</time></trkpt><trkpt lat="44.813792926557895" lon="7.256373095788089"><ele>461.0</ele><time>2026-04-14T16:17:28.002Z</time></trkpt><trkpt lat="44.813727671493716" lon="7.256367902473936"><ele>460.99999999999994</ele><time>2026-04-14T16:17:30.002Z</time></trkpt><trkpt lat="44.81364696784451" lon="7.256359370270899"><ele>461.0</ele><time>2026-04-14T16:17:32.002Z</time></trkpt><trkpt lat="44.81356102072013" lon="7.256344103393088"><ele>461.0</ele><time>2026-04-14T16:17:34.002Z</time></trkpt><trkpt lat="44.8134743266286" lon="7.256329908352542"><ele>461.0</ele><time>2026-04-14T16:17:36.002Z</time></trkpt><trkpt lat="44.813398249667365" lon="7.2563162277281785"><ele>460.99999999999994</ele><time>2026-04-14T16:17:38.002Z</time></trkpt><trkpt lat="44.8134522973953" lon="7.256374253500206"><ele>461.0</ele><time>2026-04-14T16:17:43.001Z</time></trkpt><trkpt lat="44.81355126438013" lon="7.25640352327295"><ele>460.99999999999994</ele><time>2026-04-14T16:17:45.001Z</time></trkpt><trkpt lat="44.813663385508676" lon="7.256406231671166"><ele>461.0</ele><time>2026-04-14T16:17:47.001Z</time></trkpt><trkpt lat="44.813785683719786" lon="7.256419090234886"><ele>461.0</ele><time>2026-04-14T16:17:49.001Z</time></trkpt><trkpt lat="44.81384776918592" lon="7.256404302030188"><ele>461.0</ele><time>2026-04-14T16:17:50.001Z</time></trkpt><trkpt lat="44.81391368727089" lon="7.256406722592123"><ele>460.99999999999994</ele><time>2026-04-14T16:17:51.001Z</time></trkpt><trkpt lat="44.813980524005615" lon="7.256435444043198"><ele>461.0</ele><time>2026-04-14T16:17:52.001Z</time></trkpt><trkpt lat="44.814049329873356" lon="7.256453228309334"><ele>461.0</ele><time>2026-04-14T16:17:53.001Z</time></trkpt><trkpt lat="44.81417184188422" lon="7.256473718652993"><ele>461.0</ele><time>2026-04-14T16:17:55.001Z</time></trkpt><trkpt lat="44.81428352322713" lon="7.256488685122788"><ele>461.0</ele><time>2026-04-14T16:17:57.001Z</time></trkpt><trkpt lat="44.814406047563885" lon="7.256497401159653"><ele>461.0</ele><time>2026-04-14T16:17:59.001Z</time></trkpt><trkpt lat="44.814473494425265" lon="7.256499368974483"><ele>461.0</ele><time>2026-04-14T16:18:00.001Z</time></trkpt><trkpt lat="44.8145415512028" lon="7.256497147477609"><ele>461.20000000000005</ele><time>2026-04-14T16:18:01.001Z</time></trkpt><trkpt lat="44.81460503554344" lon="7.256507839165396"><ele>461.40000000000003</ele><time>2026-04-14T16:18:02.001Z</time></trkpt><trkpt lat="44.814713715524974" lon="7.256527814663006"><ele>461.6</ele><time>2026-04-14T16:18:04.001Z</time></trkpt><trkpt lat="44.8148220118158" lon="7.256539605620436"><ele>461.8</ele><time>2026-04-14T16:18:06.001Z</time></trkpt><trkpt lat="44.81492351585186" lon="7.2565604074247405"><ele>462.0</ele><time>2026-04-14T16:18:08.001Z</time></trkpt><trkpt lat="44.81502332003476" lon="7.25658410148153"><ele>462.0</ele><time>2026-04-14T16:18:10.001Z</time></trkpt><trkpt lat="44.81512225948667" lon="7.256600114879322"><ele>462.00000000000006</ele><time>2026-04-14T16:18:12.001Z</time></trkpt><trkpt lat="44.81522227136857" lon="7.256608716434004"><ele>462.00000000000006</ele><time>2026-04-14T16:18:14.001Z</time></trkpt><trkpt lat="44.81531547591336" lon="7.256619643954196"><ele>462.0</ele><time>2026-04-14T16:18:16.001Z</time></trkpt><trkpt lat="44.81540438031704" lon="7.256655500575741"><ele>462.0</ele><time>2026-04-14T16:18:18.001Z</time></trkpt><trkpt lat="44.81549174604499" lon="7.256665330484673"><ele>462.2857142857143</ele><time>2026-04-14T16:18:20.001Z</time></trkpt><trkpt lat="44.81557319964934" lon="7.256675886523415"><ele>462.57142857142856</ele><time>2026-04-14T16:18:22.001Z</time></trkpt><trkpt lat="44.81564939321272" lon="7.256688028179315"><ele>462.8571428571429</ele><time>2026-04-14T16:18:24.001Z</time></trkpt><trkpt lat="44.815720954918895" lon="7.256697788224065"><ele>463.14285714285717</ele><time>2026-04-14T16:18:26.001Z</time></trkpt><trkpt lat="44.81579039458053" lon="7.256696378717986"><ele>463.42857142857144</ele><time>2026-04-14T16:18:28.001Z</time></trkpt><trkpt lat="44.81586217838557" lon="7.25670136586983"><ele>463.7142857142858</ele><time>2026-04-14T16:18:30.001Z</time></trkpt><trkpt lat="44.81593461480813" lon="7.256714880384711"><ele>464.00000000000006</ele><time>2026-04-14T16:18:32.001Z</time></trkpt><trkpt lat="44.81601248337198" lon="7.256727316486135"><ele>464.16666666666663</ele><time>2026-04-14T16:18:34.001Z</time></trkpt><trkpt lat="44.816096288421356" lon="7.256734491891894"><ele>464.3333333333333</ele><time>2026-04-14T16:18:36.001Z</time></trkpt><trkpt lat="44.816178850060545" lon="7.256743825362209"><ele>464.5</ele><time>2026-04-14T16:18:38.001Z</time></trkpt><trkpt lat="44.81626213632342" lon="7.256756677131856"><ele>464.66666666666663</ele><time>2026-04-14T16:18:40.001Z</time></trkpt><trkpt lat="44.81634518311993" lon="7.256772358381509"><ele>464.8333333333333</ele><time>2026-04-14T16:18:42.001Z</time></trkpt><trkpt lat="44.81642456297324" lon="7.256787990335485"><ele>465.0</ele><time>2026-04-14T16:18:44.001Z</time></trkpt><trkpt lat="44.81650158041008" lon="7.256807026989621"><ele>465.0</ele><time>2026-04-14T16:18:46.001Z</time></trkpt><trkpt lat="44.81657825259754" lon="7.256807661093434"><ele>465.0</ele><time>2026-04-14T16:18:48.001Z</time></trkpt><trkpt lat="44.81665409845012" lon="7.256815878872358"><ele>465.0</ele><time>2026-04-14T16:18:50.001Z</time></trkpt><trkpt lat="44.81672902457217" lon="7.256822717585764"><ele>465.0</ele><time>2026-04-14T16:18:52.001Z</time></trkpt><trkpt lat="44.81680574907929" lon="7.256836881703123"><ele>465.0</ele><time>2026-04-14T16:18:54.001Z</time></trkpt><trkpt lat="44.81688975994261" lon="7.256849688534382"><ele>465.0</ele><time>2026-04-14T16:18:56.001Z</time></trkpt><trkpt lat="44.816969262206364" lon="7.25686300414054"><ele>465.6666666666667</ele><time>2026-04-14T16:18:58.001Z</time></trkpt><trkpt lat="44.817048123793846" lon="7.25686554867437"><ele>466.33333333333337</ele><time>2026-04-14T16:19:00.001Z</time></trkpt><trkpt lat="44.81712725829399" lon="7.256868155450201"><ele>467.0</ele><time>2026-04-14T16:19:02.002Z</time></trkpt><trkpt lat="44.81720375068115" lon="7.256853651752625"><ele>467.6666666666667</ele><time>2026-04-14T16:19:04.002Z</time></trkpt><trkpt lat="44.81728234420247" lon="7.256833653538069"><ele>468.33333333333337</ele><time>2026-04-14T16:19:06.002Z</time></trkpt><trkpt lat="44.81735586756747" lon="7.256809038877087"><ele>469.0</ele><time>2026-04-14T16:19:08.002Z</time></trkpt><trkpt lat="44.817431135227324" lon="7.256789539469503"><ele>469.00000000000006</ele><time>2026-04-14T16:19:10.002Z</time></trkpt><trkpt lat="44.8175061147628" lon="7.256783495709667"><ele>469.0</ele><time>2026-04-14T16:19:12.002Z</time></trkpt><trkpt lat="44.817582470776124" lon="7.256762732378336"><ele>469.0</ele><time>2026-04-14T16:19:14.002Z</time></trkpt><trkpt lat="44.81765599983274" lon="7.256745671223058"><ele>469.0</ele><time>2026-04-14T16:19:16.002Z</time></trkpt><trkpt lat="44.817729700489636" lon="7.256740990780044"><ele>469.00000000000006</ele><time>2026-04-14T16:19:18.002Z</time></trkpt><trkpt lat="44.8178052271949" lon="7.2567382376320495"><ele>469.0</ele><time>2026-04-14T16:19:20.002Z</time></trkpt><trkpt lat="44.81788762719996" lon="7.256731844912537"><ele>469.1666666666667</ele><time>2026-04-14T16:19:22.002Z</time></trkpt><trkpt lat="44.81796637469097" lon="7.2567206291040485"><ele>469.33333333333337</ele><time>2026-04-14T16:19:24.002Z</time></trkpt><trkpt lat="44.81804507647108" lon="7.256714059586551"><ele>469.5</ele><time>2026-04-14T16:19:26.002Z</time></trkpt><trkpt lat="44.81812223601237" lon="7.256714809223426"><ele>469.66666666666663</ele><time>2026-04-14T16:19:28.002Z</time></trkpt><trkpt lat="44.81820220194858" lon="7.256708151069258"><ele>469.8333333333333</ele><time>2026-04-14T16:19:30.002Z</time></trkpt><trkpt lat="44.818278555296416" lon="7.256693717751209"><ele>470.0</ele><time>2026-04-14T16:19:32.002Z</time></trkpt><trkpt lat="44.81835324913068" lon="7.25668606614622"><ele>469.99999999999994</ele><time>2026-04-14T16:19:34.002Z</time></trkpt><trkpt lat="44.81842784799976" lon="7.2566755224569315"><ele>470.0</ele><time>2026-04-14T16:19:36.002Z</time></trkpt><trkpt lat="44.81850219504037" lon="7.2566668380475825"><ele>470.0</ele><time>2026-04-14T16:19:38.002Z</time></trkpt><trkpt lat="44.81857248629851" lon="7.256656312633587"><ele>470.0</ele><time>2026-04-14T16:19:40.002Z</time></trkpt><trkpt lat="44.818663592043805" lon="7.256670639644166"><ele>469.99999999999994</ele><time>2026-04-14T16:19:43.002Z</time></trkpt><trkpt lat="44.81872471799614" lon="7.256731841180657"><ele>470.0</ele><time>2026-04-14T16:19:46.002Z</time></trkpt><trkpt lat="44.81870761384454" lon="7.256866093160958"><ele>470.66666666666663</ele><time>2026-04-14T16:19:48.002Z</time></trkpt><trkpt lat="44.818694560697075" lon="7.256974472355499"><ele>471.3333333333333</ele><time>2026-04-14T16:19:50.001Z</time></trkpt><trkpt lat="44.81868057692046" lon="7.257092642190644"><ele>472.0</ele><time>2026-04-14T16:19:52.001Z</time></trkpt><trkpt lat="44.8186563017167" lon="7.25720862122072"><ele>472.66666666666663</ele><time>2026-04-14T16:19:54.001Z</time></trkpt><trkpt lat="44.818643993070815" lon="7.257341376791904"><ele>473.3333333333333</ele><time>2026-04-14T16:19:56.001Z</time></trkpt><trkpt lat="44.818627397901" lon="7.25748310033674"><ele>474.0</ele><time>2026-04-14T16:19:58.001Z</time></trkpt><trkpt lat="44.81861083421302" lon="7.257636537366556"><ele>474.0</ele><time>2026-04-14T16:20:00.001Z</time></trkpt><trkpt lat="44.81858893411045" lon="7.257798213039607"><ele>474.0</ele><time>2026-04-14T16:20:02.001Z</time></trkpt><trkpt lat="44.81856126394739" lon="7.257961170227111"><ele>474.0</ele><time>2026-04-14T16:20:04.001Z</time></trkpt><trkpt lat="44.81853128227397" lon="7.25812023012339"><ele>474.0</ele><time>2026-04-14T16:20:06.001Z</time></trkpt><trkpt lat="44.81849804702913" lon="7.258269370473738"><ele>472.0</ele><time>2026-04-14T16:20:08.001Z</time></trkpt><trkpt lat="44.818459371976125" lon="7.258426449405886"><ele>470.0</ele><time>2026-04-14T16:20:10.001Z</time></trkpt><trkpt lat="44.81843037716846" lon="7.2585817915468605"><ele>468.0</ele><time>2026-04-14T16:20:12.001Z</time></trkpt><trkpt lat="44.81840152519558" lon="7.25873781541016"><ele>466.0</ele><time>2026-04-14T16:20:14.001Z</time></trkpt><trkpt lat="44.81837130526863" lon="7.258888537266564"><ele>465.75</ele><time>2026-04-14T16:20:16.001Z</time></trkpt><trkpt lat="44.818337851360084" lon="7.259041097767133"><ele>465.5</ele><time>2026-04-14T16:20:18.001Z</time></trkpt><trkpt lat="44.818299908749644" lon="7.2591999579248965"><ele>465.25</ele><time>2026-04-14T16:20:20.001Z</time></trkpt><trkpt lat="44.81826882512718" lon="7.25936874976297"><ele>465.0</ele><time>2026-04-14T16:20:22.001Z</time></trkpt><trkpt lat="44.818237069976796" lon="7.259536930746036"><ele>465.0</ele><time>2026-04-14T16:20:24.001Z</time></trkpt><trkpt lat="44.8182033765343" lon="7.259705409511756"><ele>465.0</ele><time>2026-04-14T16:20:26.001Z</time></trkpt><trkpt lat="44.818165232754346" lon="7.259874320504342"><ele>465.0</ele><time>2026-04-14T16:20:28.001Z</time></trkpt><trkpt lat="44.818144668613805" lon="7.259958986157426"><ele>465.0</ele><time>2026-04-14T16:20:29.001Z</time></trkpt><trkpt lat="44.81812497047361" lon="7.260044669886791"><ele>465.0</ele><time>2026-04-14T16:20:30.001Z</time></trkpt><trkpt lat="44.8181057513457" lon="7.26013445869476"><ele>465.0</ele><time>2026-04-14T16:20:31.001Z</time></trkpt><trkpt lat="44.818087679698024" lon="7.260220687346837"><ele>464.57142857142856</ele><time>2026-04-14T16:20:32.001Z</time></trkpt><trkpt lat="44.81806734486551" lon="7.260308759051952"><ele>464.14285714285717</ele><time>2026-04-14T16:20:33.001Z</time></trkpt><trkpt lat="44.818047304166626" lon="7.26039515474531"><ele>463.7142857142857</ele><time>2026-04-14T16:20:34.001Z</time></trkpt><trkpt lat="44.818026286675526" lon="7.260484047728661"><ele>463.2857142857143</ele><time>2026-04-14T16:20:35.001Z</time></trkpt><trkpt lat="44.818005268710074" lon="7.260571826692729"><ele>462.8571428571429</ele><time>2026-04-14T16:20:36.001Z</time></trkpt><trkpt lat="44.81798563067266" lon="7.260661353233768"><ele>462.42857142857144</ele><time>2026-04-14T16:20:37.001Z</time></trkpt><trkpt lat="44.8179641931012" lon="7.260749035538971"><ele>462.0</ele><time>2026-04-14T16:20:38.001Z</time></trkpt><trkpt lat="44.81794232980585" lon="7.260836957910495"><ele>461.8571428571429</ele><time>2026-04-14T16:20:39.001Z</time></trkpt><trkpt lat="44.81792248182189" lon="7.260925822547208"><ele>461.7142857142857</ele><time>2026-04-14T16:20:40.001Z</time></trkpt><trkpt lat="44.81790438701122" lon="7.261014986299113"><ele>461.57142857142856</ele><time>2026-04-14T16:20:41.001Z</time></trkpt><trkpt lat="44.817883340433504" lon="7.2611027522512375"><ele>461.42857142857144</ele><time>2026-04-14T16:20:42.001Z</time></trkpt><trkpt lat="44.817860698756874" lon="7.261193241592801"><ele>461.28571428571433</ele><time>2026-04-14T16:20:43.001Z</time></trkpt><trkpt lat="44.81783814543074" lon="7.261285837454099"><ele>461.14285714285717</ele><time>2026-04-14T16:20:44.001Z</time></trkpt><trkpt lat="44.81781570220413" lon="7.2613782293491225"><ele>461.0</ele><time>2026-04-14T16:20:45.001Z</time></trkpt><trkpt lat="44.817798770600874" lon="7.26147254167097"><ele>461.28571428571433</ele><time>2026-04-14T16:20:46.001Z</time></trkpt><trkpt lat="44.817773134731006" lon="7.26156337477252"><ele>461.5714285714286</ele><time>2026-04-14T16:20:47.001Z</time></trkpt><trkpt lat="44.81775077525319" lon="7.2616537412820295"><ele>461.8571428571429</ele><time>2026-04-14T16:20:48.001Z</time></trkpt><trkpt lat="44.81772756060488" lon="7.261737491632315"><ele>462.1428571428571</ele><time>2026-04-14T16:20:49.001Z</time></trkpt><trkpt lat="44.81770202227666" lon="7.261826985572962"><ele>462.4285714285714</ele><time>2026-04-14T16:20:50.001Z</time></trkpt><trkpt lat="44.81767437747317" lon="7.261919675419275"><ele>462.71428571428567</ele><time>2026-04-14T16:20:51.001Z</time></trkpt><trkpt lat="44.8176518754938" lon="7.26201707604926"><ele>463.0</ele><time>2026-04-14T16:20:52.001Z</time></trkpt><trkpt lat="44.817626394016855" lon="7.26211392250947"><ele>462.4285714285714</ele><time>2026-04-14T16:20:53.001Z</time></trkpt><trkpt lat="44.81760662394728" lon="7.262210895359378"><ele>461.8571428571428</ele><time>2026-04-14T16:20:54.001Z</time></trkpt><trkpt lat="44.81758540233257" lon="7.262304885175812"><ele>461.2857142857143</ele><time>2026-04-14T16:20:55.001Z</time></trkpt><trkpt lat="44.8175701718331" lon="7.262402182670984"><ele>460.71428571428567</ele><time>2026-04-14T16:20:56.001Z</time></trkpt><trkpt lat="44.81755223111245" lon="7.262497590837174"><ele>460.1428571428571</ele><time>2026-04-14T16:20:57.001Z</time></trkpt><trkpt lat="44.81753761343353" lon="7.262592264214042"><ele>459.57142857142856</ele><time>2026-04-14T16:20:58.001Z</time></trkpt><trkpt lat="44.817523287091646" lon="7.262686648421366"><ele>459.0</ele><time>2026-04-14T16:20:59.001Z</time></trkpt><trkpt lat="44.81751536669454" lon="7.262780241948451"><ele>458.8571428571429</ele><time>2026-04-14T16:21:00.001Z</time></trkpt><trkpt lat="44.81751582941803" lon="7.262872299338115"><ele>458.71428571428567</ele><time>2026-04-14T16:21:01.001Z</time></trkpt><trkpt lat="44.81752387797471" lon="7.2629647336165135"><ele>458.57142857142856</ele><time>2026-04-14T16:21:02.001Z</time></trkpt><trkpt lat="44.817537568772416" lon="7.263057206233554"><ele>458.42857142857144</ele><time>2026-04-14T16:21:03.001Z</time></trkpt><trkpt lat="44.81754936792895" lon="7.26315672921133"><ele>458.28571428571433</ele><time>2026-04-14T16:21:04.001Z</time></trkpt><trkpt lat="44.81756187463091" lon="7.263250582132882"><ele>458.1428571428571</ele><time>2026-04-14T16:21:05.001Z</time></trkpt><trkpt lat="44.817575122809245" lon="7.263347587659953"><ele>458.0</ele><time>2026-04-14T16:21:06.001Z</time></trkpt><trkpt lat="44.817591637058214" lon="7.263440599814277"><ele>458.16666666666663</ele><time>2026-04-14T16:21:07.001Z</time></trkpt><trkpt lat="44.81760896607403" lon="7.263530669019341"><ele>458.3333333333333</ele><time>2026-04-14T16:21:08.002Z</time></trkpt><trkpt lat="44.81762809202408" lon="7.263618772566119"><ele>458.5</ele><time>2026-04-14T16:21:09.002Z</time></trkpt><trkpt lat="44.817650082972456" lon="7.263704028259148"><ele>458.66666666666663</ele><time>2026-04-14T16:21:10.002Z</time></trkpt><trkpt lat="44.81771152882376" lon="7.263854512470824"><ele>458.8333333333333</ele><time>2026-04-14T16:21:12.002Z</time></trkpt><trkpt lat="44.81778681830805" lon="7.263995026611256"><ele>459.0</ele><time>2026-04-14T16:21:14.002Z</time></trkpt><trkpt lat="44.817860463132" lon="7.264136319925123"><ele>459.0</ele><time>2026-04-14T16:21:16.002Z</time></trkpt><trkpt lat="44.817889626898754" lon="7.264216845527027"><ele>459.0</ele><time>2026-04-14T16:21:17.002Z</time></trkpt><trkpt lat="44.81791211782626" lon="7.264300524695865"><ele>459.0</ele><time>2026-04-14T16:21:18.002Z</time></trkpt><trkpt lat="44.81795171298819" lon="7.2644683618861166"><ele>459.0</ele><time>2026-04-14T16:21:20.002Z</time></trkpt><trkpt lat="44.81796648301574" lon="7.264555894137356"><ele>459.0</ele><time>2026-04-14T16:21:21.002Z</time></trkpt><trkpt lat="44.817979985620454" lon="7.264643587730372"><ele>459.0</ele><time>2026-04-14T16:21:22.002Z</time></trkpt><trkpt lat="44.81798878048425" lon="7.264820324051687"><ele>458.6666666666667</ele><time>2026-04-14T16:21:24.002Z</time></trkpt><trkpt lat="44.81798363708682" lon="7.2649121175388185"><ele>458.33333333333337</ele><time>2026-04-14T16:21:25.002Z</time></trkpt><trkpt lat="44.81797614568873" lon="7.265002725626413"><ele>458.0</ele><time>2026-04-14T16:21:26.002Z</time></trkpt><trkpt lat="44.81796420349227" lon="7.26509043620298"><ele>457.6666666666667</ele><time>2026-04-14T16:21:27.002Z</time></trkpt><trkpt lat="44.81794203348774" lon="7.265264060166071"><ele>457.33333333333337</ele><time>2026-04-14T16:21:29.002Z</time></trkpt><trkpt lat="44.817934190440525" lon="7.265434216980786"><ele>457.0</ele><time>2026-04-14T16:21:31.002Z</time></trkpt><trkpt lat="44.817943111843356" lon="7.265602189509635"><ele>457.0</ele><time>2026-04-14T16:21:33.002Z</time></trkpt><trkpt lat="44.817968144809974" lon="7.265769936128847"><ele>457.0</ele><time>2026-04-14T16:21:35.002Z</time></trkpt><trkpt lat="44.81798962271191" lon="7.265934367978796"><ele>457.0</ele><time>2026-04-14T16:21:37.002Z</time></trkpt><trkpt lat="44.818001580376915" lon="7.266102051543968"><ele>457.0</ele><time>2026-04-14T16:21:39.002Z</time></trkpt><trkpt lat="44.81801162552756" lon="7.266268317369446"><ele>457.0</ele><time>2026-04-14T16:21:41.002Z</time></trkpt><trkpt lat="44.81802614197698" lon="7.266433484360814"><ele>457.0</ele><time>2026-04-14T16:21:43.002Z</time></trkpt><trkpt lat="44.81804953464116" lon="7.266594330172448"><ele>457.0</ele><time>2026-04-14T16:21:45.002Z</time></trkpt><trkpt lat="44.81808370333369" lon="7.266747412712474"><ele>457.0</ele><time>2026-04-14T16:21:47.002Z</time></trkpt><trkpt lat="44.8181223408359" lon="7.2668905132036405"><ele>457.8</ele><time>2026-04-14T16:21:49.002Z</time></trkpt><trkpt lat="44.81816287550686" lon="7.2670302142838095"><ele>458.6</ele><time>2026-04-14T16:21:51.002Z</time></trkpt><trkpt lat="44.818184339391905" lon="7.267174795765628"><ele>459.40000000000003</ele><time>2026-04-14T16:21:53.002Z</time></trkpt><trkpt lat="44.81818531651145" lon="7.267308336479449"><ele>460.20000000000005</ele><time>2026-04-14T16:21:55.001Z</time></trkpt><trkpt lat="44.81818030835473" lon="7.267426433495491"><ele>461.0</ele><time>2026-04-14T16:21:57.001Z</time></trkpt><trkpt lat="44.818164596396535" lon="7.26753521633857"><ele>461.14285714285717</ele><time>2026-04-14T16:21:59.001Z</time></trkpt><trkpt lat="44.81815661902076" lon="7.267639191934544"><ele>461.28571428571433</ele><time>2026-04-14T16:22:01.001Z</time></trkpt><trkpt lat="44.818149460994704" lon="7.267744142494767"><ele>461.42857142857144</ele><time>2026-04-14T16:22:03.001Z</time></trkpt><trkpt lat="44.81813785851057" lon="7.267847315575473"><ele>461.57142857142856</ele><time>2026-04-14T16:22:05.001Z</time></trkpt><trkpt lat="44.818129477494494" lon="7.267948775030626"><ele>461.7142857142857</ele><time>2026-04-14T16:22:07.001Z</time></trkpt><trkpt lat="44.81812241632898" lon="7.268045231663362"><ele>461.8571428571429</ele><time>2026-04-14T16:22:09.001Z</time></trkpt><trkpt lat="44.81810895885356" lon="7.2681339096311595"><ele>462.0</ele><time>2026-04-14T16:22:11.001Z</time></trkpt><trkpt lat="44.81808900597373" lon="7.2682233359159945"><ele>462.3333333333333</ele><time>2026-04-14T16:22:13.001Z</time></trkpt><trkpt lat="44.81806582267695" lon="7.268309959787112"><ele>462.66666666666663</ele><time>2026-04-14T16:22:15.001Z</time></trkpt><trkpt lat="44.818040312188195" lon="7.268397633893246"><ele>463.0</ele><time>2026-04-14T16:22:17.001Z</time></trkpt><trkpt lat="44.818004745199424" lon="7.268490152863417"><ele>463.3333333333333</ele><time>2026-04-14T16:22:19.001Z</time></trkpt><trkpt lat="44.81796942222953" lon="7.268592111145428"><ele>463.66666666666663</ele><time>2026-04-14T16:22:21.001Z</time></trkpt><trkpt lat="44.81794228242879" lon="7.268708246366892"><ele>464.0</ele><time>2026-04-14T16:22:23.001Z</time></trkpt><trkpt lat="44.81791070497388" lon="7.26883192339401"><ele>464.5</ele><time>2026-04-14T16:22:25.001Z</time></trkpt><trkpt lat="44.817870081195046" lon="7.268974099797139"><ele>465.0</ele><time>2026-04-14T16:22:27.001Z</time></trkpt><trkpt lat="44.817828518303166" lon="7.269126683527613"><ele>465.5</ele><time>2026-04-14T16:22:29.001Z</time></trkpt><trkpt lat="44.817786463778496" lon="7.26928680277827"><ele>466.0</ele><time>2026-04-14T16:22:31.001Z</time></trkpt><trkpt lat="44.81774457246468" lon="7.2694522921410645"><ele>466.0</ele><time>2026-04-14T16:22:33.001Z</time></trkpt><trkpt lat="44.817702352683966" lon="7.269612727723083"><ele>466.0</ele><time>2026-04-14T16:22:35.001Z</time></trkpt><trkpt lat="44.817661487387824" lon="7.269768940023719"><ele>466.0</ele><time>2026-04-14T16:22:37.001Z</time></trkpt><trkpt lat="44.81761752515163" lon="7.269920837311284"><ele>466.0</ele><time>2026-04-14T16:22:39.001Z</time></trkpt><trkpt lat="44.81757402137524" lon="7.270069172992809"><ele>464.57142857142856</ele><time>2026-04-14T16:22:41.001Z</time></trkpt><trkpt lat="44.81753084031628" lon="7.27022778278237"><ele>463.1428571428571</ele><time>2026-04-14T16:22:43.001Z</time></trkpt><trkpt lat="44.81750890807298" lon="7.27031097501725"><ele>461.71428571428567</ele><time>2026-04-14T16:22:44.001Z</time></trkpt><trkpt lat="44.81748505311963" lon="7.270393503675595"><ele>460.2857142857143</ele><time>2026-04-14T16:22:45.001Z</time></trkpt><trkpt lat="44.81745966855972" lon="7.270475970314247"><ele>458.8571428571428</ele><time>2026-04-14T16:22:46.001Z</time></trkpt><trkpt lat="44.81743331768939" lon="7.270558207006836"><ele>457.4285714285714</ele><time>2026-04-14T16:22:47.001Z</time></trkpt><trkpt lat="44.81740647376966" lon="7.27063916097866"><ele>456.0</ele><time>2026-04-14T16:22:48.001Z</time></trkpt><trkpt lat="44.81737801666487" lon="7.270718745160461"><ele>456.0</ele><time>2026-04-14T16:22:49.001Z</time></trkpt><trkpt lat="44.81732008828766" lon="7.270876576540689"><ele>456.0</ele><time>2026-04-14T16:22:51.001Z</time></trkpt><trkpt lat="44.81726366630422" lon="7.271033488935034"><ele>456.0</ele><time>2026-04-14T16:22:53.001Z</time></trkpt><trkpt lat="44.81720779477258" lon="7.2711896687621005"><ele>456.0</ele><time>2026-04-14T16:22:55.001Z</time></trkpt><trkpt lat="44.817151537053306" lon="7.271345962479865"><ele>456.8333333333333</ele><time>2026-04-14T16:22:57.001Z</time></trkpt><trkpt lat="44.81709337057253" lon="7.2715036501941945"><ele>457.66666666666663</ele><time>2026-04-14T16:22:59.001Z</time></trkpt><trkpt lat="44.817038027904545" lon="7.271664642562643"><ele>458.5</ele><time>2026-04-14T16:23:01.001Z</time></trkpt><trkpt lat="44.817011055097275" lon="7.271747093850298"><ele>459.3333333333333</ele><time>2026-04-14T16:23:02.001Z</time></trkpt><trkpt lat="44.81698465240093" lon="7.271831089341261"><ele>460.16666666666663</ele><time>2026-04-14T16:23:03.001Z</time></trkpt><trkpt lat="44.81695872205176" lon="7.2719161839944455"><ele>461.0</ele><time>2026-04-14T16:23:04.001Z</time></trkpt><trkpt lat="44.81690945420389" lon="7.272079567929771"><ele>461.0</ele><time>2026-04-14T16:23:06.001Z</time></trkpt><trkpt lat="44.81688553788313" lon="7.272164162245786"><ele>461.0</ele><time>2026-04-14T16:23:07.001Z</time></trkpt><trkpt lat="44.816835494869025" lon="7.2723223100030205"><ele>461.0</ele><time>2026-04-14T16:23:09.001Z</time></trkpt><trkpt lat="44.8167944773856" lon="7.272482014397039"><ele>461.0</ele><time>2026-04-14T16:23:11.001Z</time></trkpt><trkpt lat="44.81678960570781" lon="7.272646662059641"><ele>461.0</ele><time>2026-04-14T16:23:13.001Z</time></trkpt><trkpt lat="44.816791180242845" lon="7.2728018670266215"><ele>459.8</ele><time>2026-04-14T16:23:15.001Z</time></trkpt><trkpt lat="44.816805848502305" lon="7.272950315393299"><ele>458.6</ele><time>2026-04-14T16:23:17.002Z</time></trkpt><trkpt lat="44.8168094976155" lon="7.273105176138783"><ele>457.4</ele><time>2026-04-14T16:23:19.002Z</time></trkpt><trkpt lat="44.81682221606621" lon="7.273243222385141"><ele>456.2</ele><time>2026-04-14T16:23:21.002Z</time></trkpt><trkpt lat="44.816836790762956" lon="7.273380504265793"><ele>455.0</ele><time>2026-04-14T16:23:23.002Z</time></trkpt><trkpt lat="44.816817827978376" lon="7.273517041950109"><ele>454.99999999999994</ele><time>2026-04-14T16:23:25.002Z</time></trkpt><trkpt lat="44.81678908297372" lon="7.273646747362807"><ele>455.0</ele><time>2026-04-14T16:23:27.002Z</time></trkpt><trkpt lat="44.81673647613274" lon="7.273772104915003"><ele>455.0</ele><time>2026-04-14T16:23:29.002Z</time></trkpt><trkpt lat="44.81667695570946" lon="7.273908487160547"><ele>455.0</ele><time>2026-04-14T16:23:31.002Z</time></trkpt><trkpt lat="44.816646348001456" lon="7.273988733113963"><ele>454.99999999999994</ele><time>2026-04-14T16:23:32.002Z</time></trkpt><trkpt lat="44.81661680760133" lon="7.2740682244174595"><ele>455.0</ele><time>2026-04-14T16:23:33.002Z</time></trkpt><trkpt lat="44.81658474608892" lon="7.274150135735177"><ele>455.42857142857144</ele><time>2026-04-14T16:23:34.002Z</time></trkpt><trkpt lat="44.81655268690355" lon="7.274234056893118"><ele>455.8571428571429</ele><time>2026-04-14T16:23:35.002Z</time></trkpt><trkpt lat="44.816519400540244" lon="7.274319298129331"><ele>456.2857142857143</ele><time>2026-04-14T16:23:36.002Z</time></trkpt><trkpt lat="44.81648633147815" lon="7.274404922356384"><ele>456.7142857142857</ele><time>2026-04-14T16:23:37.002Z</time></trkpt><trkpt lat="44.816453801430875" lon="7.274489857503611"><ele>457.14285714285717</ele><time>2026-04-14T16:23:38.002Z</time></trkpt><trkpt lat="44.81642372734474" lon="7.274579205389437"><ele>457.57142857142856</ele><time>2026-04-14T16:23:39.002Z</time></trkpt><trkpt lat="44.816395363183105" lon="7.2746669754705975"><ele>458.0</ele><time>2026-04-14T16:23:40.002Z</time></trkpt><trkpt lat="44.81636852399129" lon="7.274755455531085"><ele>458.2857142857143</ele><time>2026-04-14T16:23:41.002Z</time></trkpt><trkpt lat="44.81634506000966" lon="7.274851446710201"><ele>458.57142857142856</ele><time>2026-04-14T16:23:42.002Z</time></trkpt><trkpt lat="44.81632273202172" lon="7.274945077281017"><ele>458.85714285714283</ele><time>2026-04-14T16:23:43.002Z</time></trkpt><trkpt lat="44.81630016585979" lon="7.2750425290164324"><ele>459.1428571428571</ele><time>2026-04-14T16:23:44.002Z</time></trkpt><trkpt lat="44.81627759526698" lon="7.275139858083473"><ele>459.42857142857144</ele><time>2026-04-14T16:23:45.002Z</time></trkpt><trkpt lat="44.81625475558476" lon="7.275236339756714"><ele>459.71428571428567</ele><time>2026-04-14T16:23:46.002Z</time></trkpt><trkpt lat="44.816232711627116" lon="7.275333414905225"><ele>459.99999999999994</ele><time>2026-04-14T16:23:47.002Z</time></trkpt><trkpt lat="44.8162097678682" lon="7.275433212195813"><ele>459.99999999999994</ele><time>2026-04-14T16:23:48.002Z</time></trkpt><trkpt lat="44.81618393675947" lon="7.275530333300751"><ele>460.0</ele><time>2026-04-14T16:23:49.002Z</time></trkpt><trkpt lat="44.81615624815438" lon="7.275625871197748"><ele>459.99999999999994</ele><time>2026-04-14T16:23:50.002Z</time></trkpt><trkpt lat="44.81612922337074" lon="7.275720324537332"><ele>459.99999999999994</ele><time>2026-04-14T16:23:51.002Z</time></trkpt><trkpt lat="44.8161048840972" lon="7.275816549612252"><ele>460.0</ele><time>2026-04-14T16:23:52.002Z</time></trkpt><trkpt lat="44.81608244370448" lon="7.275905594338616"><ele>459.99999999999994</ele><time>2026-04-14T16:23:53.002Z</time></trkpt><trkpt lat="44.81606548729419" lon="7.275991638596954"><ele>459.99999999999994</ele><time>2026-04-14T16:23:54.002Z</time></trkpt><trkpt lat="44.816068782524475" lon="7.276158792621182"><ele>460.0</ele><time>2026-04-14T16:23:56.002Z</time></trkpt><trkpt lat="44.81608965880924" lon="7.276316026501343"><ele>460.0</ele><time>2026-04-14T16:23:58.002Z</time></trkpt><trkpt lat="44.81609985621252" lon="7.276476068086092"><ele>460.0</ele><time>2026-04-14T16:24:00.002Z</time></trkpt><trkpt lat="44.81606642298709" lon="7.2766260028723355"><ele>460.0</ele><time>2026-04-14T16:24:02.001Z</time></trkpt><trkpt lat="44.816029437703456" lon="7.276779890415949"><ele>461.5</ele><time>2026-04-14T16:24:04.001Z</time></trkpt><trkpt lat="44.81598769748995" lon="7.276938716571462"><ele>463.0</ele><time>2026-04-14T16:24:06.001Z</time></trkpt><trkpt lat="44.81594759059361" lon="7.277100749799486"><ele>464.5</ele><time>2026-04-14T16:24:08.001Z</time></trkpt><trkpt lat="44.81591102127799" lon="7.27726479405155"><ele>466.0</ele><time>2026-04-14T16:24:10.001Z</time></trkpt><trkpt lat="44.81587813140621" lon="7.2774299939290295"><ele>463.0</ele><time>2026-04-14T16:24:12.001Z</time></trkpt><trkpt lat="44.81587212911763" lon="7.277600642898582"><ele>460.0</ele><time>2026-04-14T16:24:14.001Z</time></trkpt><trkpt lat="44.81589533886224" lon="7.2777674622679305"><ele>457.0</ele><time>2026-04-14T16:24:16.001Z</time></trkpt><trkpt lat="44.81589727009438" lon="7.277921654332012"><ele>454.0</ele><time>2026-04-14T16:24:18.001Z</time></trkpt><trkpt lat="44.815869900334945" lon="7.2780601290394635"><ele>454.6</ele><time>2026-04-14T16:24:20.001Z</time></trkpt><trkpt lat="44.81583762381442" lon="7.278185853698488"><ele>455.2</ele><time>2026-04-14T16:24:22.001Z</time></trkpt><trkpt lat="44.81580086757164" lon="7.278305711938642"><ele>455.80000000000007</ele><time>2026-04-14T16:24:24.001Z</time></trkpt><trkpt lat="44.81576624315171" lon="7.278427758206437"><ele>456.40000000000003</ele><time>2026-04-14T16:24:26.001Z</time></trkpt><trkpt lat="44.81573713299804" lon="7.278556102214028"><ele>457.0</ele><time>2026-04-14T16:24:28.001Z</time></trkpt><trkpt lat="44.81569757054384" lon="7.278680023509959"><ele>457.0</ele><time>2026-04-14T16:24:30.001Z</time></trkpt><trkpt lat="44.815659705854145" lon="7.278802555397368"><ele>457.00000000000006</ele><time>2026-04-14T16:24:32.001Z</time></trkpt><trkpt lat="44.815619404506506" lon="7.278923524155082"><ele>457.00000000000006</ele><time>2026-04-14T16:24:34.001Z</time></trkpt><trkpt lat="44.81557131606454" lon="7.279043816546513"><ele>457.0</ele><time>2026-04-14T16:24:36.001Z</time></trkpt><trkpt lat="44.815520899986915" lon="7.279169172293222"><ele>457.0</ele><time>2026-04-14T16:24:38.001Z</time></trkpt><trkpt lat="44.81546560678415" lon="7.2793048396714495"><ele>458.25</ele><time>2026-04-14T16:24:40.001Z</time></trkpt><trkpt lat="44.81540440876257" lon="7.279446269180847"><ele>459.5</ele><time>2026-04-14T16:24:42.001Z</time></trkpt><trkpt lat="44.81534696041058" lon="7.279593075639436"><ele>460.75</ele><time>2026-04-14T16:24:44.001Z</time></trkpt><trkpt lat="44.81527429630201" lon="7.279724696596933"><ele>462.0</ele><time>2026-04-14T16:24:46.001Z</time></trkpt><trkpt lat="44.81518934471553" lon="7.27984347391429"><ele>460.3333333333333</ele><time>2026-04-14T16:24:48.001Z</time></trkpt><trkpt lat="44.8150988678318" lon="7.279959152450249"><ele>458.66666666666663</ele><time>2026-04-14T16:24:50.001Z</time></trkpt><trkpt lat="44.815012578933654" lon="7.280083107866054"><ele>457.0</ele><time>2026-04-14T16:24:52.001Z</time></trkpt><trkpt lat="44.814976467289966" lon="7.28015758998349"><ele>455.3333333333333</ele><time>2026-04-14T16:24:53.001Z</time></trkpt><trkpt lat="44.814941316938814" lon="7.280233690705133"><ele>453.66666666666663</ele><time>2026-04-14T16:24:54.001Z</time></trkpt><trkpt lat="44.814903783683114" lon="7.280309976870851"><ele>452.0</ele><time>2026-04-14T16:24:55.001Z</time></trkpt><trkpt lat="44.814866609916" lon="7.280386800865576"><ele>452.0</ele><time>2026-04-14T16:24:56.001Z</time></trkpt><trkpt lat="44.81482474188974" lon="7.2804628779972385"><ele>452.0</ele><time>2026-04-14T16:24:57.001Z</time></trkpt><trkpt lat="44.8147836668747" lon="7.280536869206103"><ele>452.0</ele><time>2026-04-14T16:24:58.001Z</time></trkpt><trkpt lat="44.81474130784921" lon="7.280608564249236"><ele>452.0</ele><time>2026-04-14T16:24:59.001Z</time></trkpt><trkpt lat="44.81469880010332" lon="7.280679428112293"><ele>452.0</ele><time>2026-04-14T16:25:00.001Z</time></trkpt><trkpt lat="44.814655303199174" lon="7.280751342236215"><ele>452.0</ele><time>2026-04-14T16:25:01.001Z</time></trkpt><trkpt lat="44.814610434901915" lon="7.280822247656553"><ele>452.0</ele><time>2026-04-14T16:25:02.001Z</time></trkpt><trkpt lat="44.81456260235678" lon="7.28089564932454"><ele>451.57142857142856</ele><time>2026-04-14T16:25:03.001Z</time></trkpt><trkpt lat="44.81451364045351" lon="7.280969087860797"><ele>451.1428571428571</ele><time>2026-04-14T16:25:04.001Z</time></trkpt><trkpt lat="44.81446305090456" lon="7.281042607011819"><ele>450.71428571428567</ele><time>2026-04-14T16:25:05.001Z</time></trkpt><trkpt lat="44.81440871960742" lon="7.281115006576562"><ele>450.2857142857143</ele><time>2026-04-14T16:25:06.001Z</time></trkpt><trkpt lat="44.814356585634755" lon="7.281193126651241"><ele>449.8571428571428</ele><time>2026-04-14T16:25:07.001Z</time></trkpt><trkpt lat="44.814304559323645" lon="7.281271766721894"><ele>449.4285714285714</ele><time>2026-04-14T16:25:08.001Z</time></trkpt><trkpt lat="44.814254073110604" lon="7.281349990946719"><ele>449.0</ele><time>2026-04-14T16:25:09.001Z</time></trkpt><trkpt lat="44.81420462310218" lon="7.281425088638336"><ele>449.57142857142856</ele><time>2026-04-14T16:25:10.001Z</time></trkpt><trkpt lat="44.81415593860963" lon="7.28149963638684"><ele>450.1428571428571</ele><time>2026-04-14T16:25:11.001Z</time></trkpt><trkpt lat="44.81410539485465" lon="7.281572584374774"><ele>450.71428571428567</ele><time>2026-04-14T16:25:12.001Z</time></trkpt><trkpt lat="44.814053749111146" lon="7.281639781832498"><ele>451.2857142857142</ele><time>2026-04-14T16:25:13.001Z</time></trkpt><trkpt lat="44.81400408266954" lon="7.281706907549592"><ele>451.85714285714283</ele><time>2026-04-14T16:25:14.001Z</time></trkpt><trkpt lat="44.81395745260488" lon="7.2817729389206844"><ele>452.42857142857133</ele><time>2026-04-14T16:25:15.001Z</time></trkpt><trkpt lat="44.813913214661795" lon="7.281841584123464"><ele>452.99999999999994</ele><time>2026-04-14T16:25:16.001Z</time></trkpt><trkpt lat="44.81386793579516" lon="7.281909162969101"><ele>452.99999999999994</ele><time>2026-04-14T16:25:17.001Z</time></trkpt><trkpt lat="44.81382189360511" lon="7.281976226056237"><ele>453.0</ele><time>2026-04-14T16:25:18.001Z</time></trkpt><trkpt lat="44.813775769108034" lon="7.28204076828178"><ele>452.99999999999994</ele><time>2026-04-14T16:25:19.001Z</time></trkpt><trkpt lat="44.81372628682835" lon="7.28209780167593"><ele>452.99999999999994</ele><time>2026-04-14T16:25:20.001Z</time></trkpt><trkpt lat="44.813672310875305" lon="7.282146865238103"><ele>453.0</ele><time>2026-04-14T16:25:21.002Z</time></trkpt><trkpt lat="44.8136156791898" lon="7.282194079558717"><ele>452.99999999999994</ele><time>2026-04-14T16:25:22.002Z</time></trkpt><trkpt lat="44.81355576581234" lon="7.282242520450251"><ele>452.99999999999994</ele><time>2026-04-14T16:25:23.002Z</time></trkpt><trkpt lat="44.813495529233144" lon="7.2822918526361535"><ele>452.0</ele><time>2026-04-14T16:25:24.002Z</time></trkpt><trkpt lat="44.81343300367254" lon="7.282337639808792"><ele>451.0</ele><time>2026-04-14T16:25:25.002Z</time></trkpt><trkpt lat="44.81336517079647" lon="7.282366293341682"><ele>450.0</ele><time>2026-04-14T16:25:26.002Z</time></trkpt><trkpt lat="44.8132976282376" lon="7.282387556275433"><ele>449.0</ele><time>2026-04-14T16:25:27.002Z</time></trkpt><trkpt lat="44.813226295459984" lon="7.282388367410388"><ele>448.0</ele><time>2026-04-14T16:25:28.002Z</time></trkpt><trkpt lat="44.81311137485994" lon="7.282385178693508"><ele>447.0</ele><time>2026-04-14T16:25:30.002Z</time></trkpt><trkpt lat="44.81303154666579" lon="7.282449291232873"><ele>447.0</ele><time>2026-04-14T16:25:32.002Z</time></trkpt><trkpt lat="44.81296191634587" lon="7.282552784191108"><ele>447.00000000000006</ele><time>2026-04-14T16:25:34.002Z</time></trkpt><trkpt lat="44.81288626440575" lon="7.282661035250746"><ele>447.00000000000006</ele><time>2026-04-14T16:25:36.002Z</time></trkpt><trkpt lat="44.812812710630865" lon="7.282782404986778"><ele>447.0</ele><time>2026-04-14T16:25:38.002Z</time></trkpt><trkpt lat="44.81273882282181" lon="7.28289965026196"><ele>447.0</ele><time>2026-04-14T16:25:40.002Z</time></trkpt><trkpt lat="44.81266442610517" lon="7.283017949522711"><ele>446.6</ele><time>2026-04-14T16:25:42.002Z</time></trkpt><trkpt lat="44.812604628186726" lon="7.2831544711928835"><ele>446.20000000000005</ele><time>2026-04-14T16:25:44.002Z</time></trkpt><trkpt lat="44.812550467500145" lon="7.283296680862237"><ele>445.8</ele><time>2026-04-14T16:25:46.002Z</time></trkpt><trkpt lat="44.81250400185512" lon="7.28343546697717"><ele>445.4</ele><time>2026-04-14T16:25:48.002Z</time></trkpt><trkpt lat="44.812462047828376" lon="7.283579911729649"><ele>445.0</ele><time>2026-04-14T16:25:50.002Z</time></trkpt><trkpt lat="44.81242574848542" lon="7.283726398934991"><ele>445.0</ele><time>2026-04-14T16:25:52.002Z</time></trkpt><trkpt lat="44.812379119314656" lon="7.283862785424769"><ele>445.0</ele><time>2026-04-14T16:25:54.002Z</time></trkpt><trkpt lat="44.81232745162585" lon="7.283995735473351"><ele>445.0</ele><time>2026-04-14T16:25:56.002Z</time></trkpt><trkpt lat="44.81229563796822" lon="7.284136290079641"><ele>445.0</ele><time>2026-04-14T16:25:58.002Z</time></trkpt><trkpt lat="44.81228070029639" lon="7.28429382520333"><ele>445.0</ele><time>2026-04-14T16:26:00.002Z</time></trkpt><trkpt lat="44.81223920315246" lon="7.284455016968173"><ele>446.00000000000006</ele><time>2026-04-14T16:26:02.002Z</time></trkpt><trkpt lat="44.8122199766217" lon="7.284543987565895"><ele>447.0</ele><time>2026-04-14T16:26:03.002Z</time></trkpt><trkpt lat="44.812197173504636" lon="7.28463629446115"><ele>448.0</ele><time>2026-04-14T16:26:04.002Z</time></trkpt><trkpt lat="44.81217143953458" lon="7.284724349185128"><ele>449.0</ele><time>2026-04-14T16:26:05.002Z</time></trkpt><trkpt lat="44.81213018176508" lon="7.2848689282393195"><ele>450.00000000000006</ele><time>2026-04-14T16:26:07.001Z</time></trkpt><trkpt lat="44.812085307239826" lon="7.285000950582891"><ele>451.0</ele><time>2026-04-14T16:26:09.001Z</time></trkpt><trkpt lat="44.81201647957159" lon="7.285109286548199"><ele>451.6</ele><time>2026-04-14T16:26:11.001Z</time></trkpt><trkpt lat="44.8118996831051" lon="7.2851581266049195"><ele>452.20000000000005</ele><time>2026-04-14T16:26:13.001Z</time></trkpt><trkpt lat="44.811805371227265" lon="7.285206194598825"><ele>452.79999999999995</ele><time>2026-04-14T16:26:15.001Z</time></trkpt><trkpt lat="44.81174744946084" lon="7.285332171247996"><ele>453.4</ele><time>2026-04-14T16:26:17.001Z</time></trkpt><trkpt lat="44.811732011611035" lon="7.285484347119799"><ele>454.0</ele><time>2026-04-14T16:26:19.001Z</time></trkpt><trkpt lat="44.811705399410826" lon="7.285646796528059"><ele>451.42857142857144</ele><time>2026-04-14T16:26:21.001Z</time></trkpt><trkpt lat="44.81169398318181" lon="7.285817193900773"><ele>448.8571428571429</ele><time>2026-04-14T16:26:23.001Z</time></trkpt><trkpt lat="44.81168315174907" lon="7.2859076204838695"><ele>446.28571428571433</ele><time>2026-04-14T16:26:24.001Z</time></trkpt><trkpt lat="44.81167221764169" lon="7.28599794612446"><ele>443.7142857142857</ele><time>2026-04-14T16:26:25.001Z</time></trkpt><trkpt lat="44.81167052832584" lon="7.286089703760803"><ele>441.14285714285717</ele><time>2026-04-14T16:26:26.001Z</time></trkpt><trkpt lat="44.81166453843712" lon="7.28617834997429"><ele>438.57142857142856</ele><time>2026-04-14T16:26:27.001Z</time></trkpt><trkpt lat="44.81165803113641" lon="7.286268303570554"><ele>436.0</ele><time>2026-04-14T16:26:28.001Z</time></trkpt><trkpt lat="44.8116498025966" lon="7.28643944583537"><ele>436.0</ele><time>2026-04-14T16:26:30.001Z</time></trkpt><trkpt lat="44.81164585086877" lon="7.286530150182848"><ele>436.0</ele><time>2026-04-14T16:26:31.001Z</time></trkpt><trkpt lat="44.81163598165236" lon="7.286618820355269"><ele>436.0</ele><time>2026-04-14T16:26:32.001Z</time></trkpt><trkpt lat="44.811627208842" lon="7.286794924725539"><ele>436.0</ele><time>2026-04-14T16:26:34.001Z</time></trkpt><trkpt lat="44.81159680594576" lon="7.286966236676556"><ele>436.0</ele><time>2026-04-14T16:26:36.001Z</time></trkpt><trkpt lat="44.81155250007105" lon="7.287129243584804"><ele>437.4</ele><time>2026-04-14T16:26:38.001Z</time></trkpt><trkpt lat="44.81150522964534" lon="7.287287968514016"><ele>438.8</ele><time>2026-04-14T16:26:40.001Z</time></trkpt><trkpt lat="44.81146753069237" lon="7.287446871657386"><ele>440.19999999999993</ele><time>2026-04-14T16:26:42.001Z</time></trkpt><trkpt lat="44.81145120952231" lon="7.287625451862951"><ele>441.59999999999997</ele><time>2026-04-14T16:26:44.001Z</time></trkpt><trkpt lat="44.81145410883776" lon="7.287716700202318"><ele>443.0</ele><time>2026-04-14T16:26:45.001Z</time></trkpt><trkpt lat="44.81145278142141" lon="7.287895595358508"><ele>442.99999999999994</ele><time>2026-04-14T16:26:47.001Z</time></trkpt><trkpt lat="44.811451701480486" lon="7.287995628745655"><ele>443.0</ele><time>2026-04-14T16:26:48.001Z</time></trkpt><trkpt lat="44.81144467764998" lon="7.288094657962835"><ele>443.0</ele><time>2026-04-14T16:26:49.001Z</time></trkpt><trkpt lat="44.811439458368774" lon="7.288195691153251"><ele>443.0</ele><time>2026-04-14T16:26:50.001Z</time></trkpt><trkpt lat="44.811436324393156" lon="7.288297168557283"><ele>442.99999999999994</ele><time>2026-04-14T16:26:51.001Z</time></trkpt><trkpt lat="44.8114349134201" lon="7.288388767754314"><ele>443.0</ele><time>2026-04-14T16:26:52.001Z</time></trkpt><trkpt lat="44.81141934428217" lon="7.288547933209496"><ele>443.16666666666663</ele><time>2026-04-14T16:26:54.001Z</time></trkpt><trkpt lat="44.81141080306663" lon="7.288703138685767"><ele>443.3333333333333</ele><time>2026-04-14T16:26:56.001Z</time></trkpt><trkpt lat="44.81142734975796" lon="7.288791682317915"><ele>443.5</ele><time>2026-04-14T16:26:57.001Z</time></trkpt><trkpt lat="44.81145651567725" lon="7.288876139728693"><ele>443.66666666666663</ele><time>2026-04-14T16:26:58.001Z</time></trkpt><trkpt lat="44.81149592772436" lon="7.288957941055858"><ele>443.8333333333333</ele><time>2026-04-14T16:26:59.001Z</time></trkpt><trkpt lat="44.811538253752836" lon="7.289030231949646"><ele>444.0</ele><time>2026-04-14T16:27:00.001Z</time></trkpt><trkpt lat="44.8116174730391" lon="7.289155132146753"><ele>444.79999999999995</ele><time>2026-04-14T16:27:02.001Z</time></trkpt><trkpt lat="44.811693988480734" lon="7.289279867547091"><ele>445.59999999999997</ele><time>2026-04-14T16:27:04.001Z</time></trkpt><trkpt lat="44.81176505990544" lon="7.289400749564444"><ele>446.4</ele><time>2026-04-14T16:27:06.001Z</time></trkpt><trkpt lat="44.811844864466046" lon="7.289506526291702"><ele>447.2</ele><time>2026-04-14T16:27:08.001Z</time></trkpt><trkpt lat="44.811935607103116" lon="7.2895929222003675"><ele>448.0</ele><time>2026-04-14T16:27:10.001Z</time></trkpt><trkpt lat="44.81202879074094" lon="7.289649484942437"><ele>448.0</ele><time>2026-04-14T16:27:12.001Z</time></trkpt><trkpt lat="44.81212673741581" lon="7.289692619034409"><ele>447.99999999999994</ele><time>2026-04-14T16:27:14.001Z</time></trkpt><trkpt lat="44.81221862821505" lon="7.289742519785845"><ele>447.99999999999994</ele><time>2026-04-14T16:27:16.001Z</time></trkpt><trkpt lat="44.81231179528611" lon="7.289788104919636"><ele>448.0</ele><time>2026-04-14T16:27:18.001Z</time></trkpt><trkpt lat="44.812404067594244" lon="7.2898302434280025"><ele>448.0</ele><time>2026-04-14T16:27:20.001Z</time></trkpt><trkpt lat="44.8124900689242" lon="7.289881558052168"><ele>446.1666666666667</ele><time>2026-04-14T16:27:22.001Z</time></trkpt><trkpt lat="44.812573166359385" lon="7.28993376274431"><ele>444.33333333333337</ele><time>2026-04-14T16:27:24.001Z</time></trkpt><trkpt lat="44.812662911605976" lon="7.289948379305955"><ele>442.5</ele><time>2026-04-14T16:27:26.001Z</time></trkpt><trkpt lat="44.81275028059626" lon="7.28994467210647"><ele>440.66666666666663</ele><time>2026-04-14T16:27:28.001Z</time></trkpt><trkpt lat="44.812829847272155" lon="7.289951157775276"><ele>438.8333333333333</ele><time>2026-04-14T16:27:30.002Z</time></trkpt><trkpt lat="44.812908216861025" lon="7.289951704593664"><ele>437.0</ele><time>2026-04-14T16:27:32.002Z</time></trkpt><trkpt lat="44.8129911197693" lon="7.289949095901204"><ele>436.99999999999994</ele><time>2026-04-14T16:27:34.002Z</time></trkpt><trkpt lat="44.813062693460076" lon="7.289925682386756"><ele>437.0</ele><time>2026-04-14T16:27:36.002Z</time></trkpt><trkpt lat="44.81313848505338" lon="7.2899024332209486"><ele>437.0</ele><time>2026-04-14T16:27:38.002Z</time></trkpt><trkpt lat="44.81321524873817" lon="7.289885168003223"><ele>437.0</ele><time>2026-04-14T16:27:40.002Z</time></trkpt><trkpt lat="44.813283889614965" lon="7.2898469419030985"><ele>436.99999999999994</ele><time>2026-04-14T16:27:42.002Z</time></trkpt><trkpt lat="44.813364751819115" lon="7.289802945252826"><ele>437.0</ele><time>2026-04-14T16:27:44.002Z</time></trkpt><trkpt lat="44.81346960910164" lon="7.289806976935844"><ele>437.40000000000003</ele><time>2026-04-14T16:27:46.002Z</time></trkpt><trkpt lat="44.813553587406865" lon="7.289873384136501"><ele>437.80000000000007</ele><time>2026-04-14T16:27:48.002Z</time></trkpt><trkpt lat="44.81364128006059" lon="7.289944775981093"><ele>438.2</ele><time>2026-04-14T16:27:50.002Z</time></trkpt><trkpt lat="44.81373002638189" lon="7.29000905655596"><ele>438.6</ele><time>2026-04-14T16:27:52.002Z</time></trkpt><trkpt lat="44.81381004433647" lon="7.2900593147921136"><ele>439.0</ele><time>2026-04-14T16:27:54.002Z</time></trkpt><trkpt lat="44.813896212514166" lon="7.290114727618456"><ele>439.0</ele><time>2026-04-14T16:27:56.002Z</time></trkpt><trkpt lat="44.81395945577493" lon="7.290152429848981"><ele>439.0</ele><time>2026-04-14T16:27:57.002Z</time></trkpt><trkpt lat="44.81402161334878" lon="7.29018740125972"><ele>439.0</ele><time>2026-04-14T16:27:58.002Z</time></trkpt><trkpt lat="44.81408712780703" lon="7.290226452212613"><ele>439.0</ele><time>2026-04-14T16:27:59.002Z</time></trkpt><trkpt lat="44.81415659315875" lon="7.2902596714874806"><ele>439.0</ele><time>2026-04-14T16:28:00.002Z</time></trkpt><trkpt lat="44.81422329934103" lon="7.290296160281839"><ele>439.0</ele><time>2026-04-14T16:28:01.002Z</time></trkpt><trkpt lat="44.814290953469126" lon="7.290335593871464"><ele>439.0</ele><time>2026-04-14T16:28:02.002Z</time></trkpt><trkpt lat="44.81435958043423" lon="7.290376101106654"><ele>439.7142857142857</ele><time>2026-04-14T16:28:03.002Z</time></trkpt><trkpt lat="44.81442815627773" lon="7.290414885293735"><ele>440.42857142857144</ele><time>2026-04-14T16:28:04.002Z</time></trkpt><trkpt lat="44.81449605777924" lon="7.290451026839065"><ele>441.1428571428571</ele><time>2026-04-14T16:28:05.002Z</time></trkpt><trkpt lat="44.81456393969541" lon="7.290488728313038"><ele>441.8571428571429</ele><time>2026-04-14T16:28:06.002Z</time></trkpt><trkpt lat="44.81463250391972" lon="7.290525821466004"><ele>442.5714285714286</ele><time>2026-04-14T16:28:07.002Z</time></trkpt><trkpt lat="44.81469958090051" lon="7.290561721169742"><ele>443.2857142857143</ele><time>2026-04-14T16:28:08.002Z</time></trkpt><trkpt lat="44.81476695610882" lon="7.290597610767669"><ele>444.0</ele><time>2026-04-14T16:28:09.002Z</time></trkpt><trkpt lat="44.8148350326557" lon="7.290622359509595"><ele>442.57142857142856</ele><time>2026-04-14T16:28:10.002Z</time></trkpt><trkpt lat="44.81489991303607" lon="7.29065882031886"><ele>441.14285714285717</ele><time>2026-04-14T16:28:11.002Z</time></trkpt><trkpt lat="44.814965581368845" lon="7.290686455536998"><ele>439.7142857142857</ele><time>2026-04-14T16:28:12.002Z</time></trkpt><trkpt lat="44.815030104919295" lon="7.290699488081753"><ele>438.2857142857143</ele><time>2026-04-14T16:28:13.001Z</time></trkpt><trkpt lat="44.81509659903859" lon="7.290714076312028"><ele>436.8571428571429</ele><time>2026-04-14T16:28:14.001Z</time></trkpt><trkpt lat="44.8151635711434" lon="7.290734413462436"><ele>435.42857142857144</ele><time>2026-04-14T16:28:15.001Z</time></trkpt><trkpt lat="44.81522841617042" lon="7.2907520000688395"><ele>434.0</ele><time>2026-04-14T16:28:16.001Z</time></trkpt><trkpt lat="44.81529372054529" lon="7.290772251640225"><ele>434.0</ele><time>2026-04-14T16:28:17.001Z</time></trkpt><trkpt lat="44.815358863273836" lon="7.290791869131299"><ele>434.0</ele><time>2026-04-14T16:28:18.001Z</time></trkpt><trkpt lat="44.81542222512948" lon="7.290813139532876"><ele>434.0</ele><time>2026-04-14T16:28:19.001Z</time></trkpt><trkpt lat="44.81548489354321" lon="7.290835042268506"><ele>434.0</ele><time>2026-04-14T16:28:20.001Z</time></trkpt><trkpt lat="44.815546061351114" lon="7.290864894074092"><ele>434.0</ele><time>2026-04-14T16:28:21.001Z</time></trkpt><trkpt lat="44.81561791414693" lon="7.290919463800929"><ele>434.0</ele><time>2026-04-14T16:28:23.001Z</time></trkpt><trkpt lat="44.8156933898287" lon="7.290994904243338"><ele>434.0</ele><time>2026-04-14T16:28:25.001Z</time></trkpt><trkpt lat="44.81578272711557" lon="7.291091690939319"><ele>434.0</ele><time>2026-04-14T16:28:27.001Z</time></trkpt><trkpt lat="44.81587447307389" lon="7.291198585797973"><ele>434.0</ele><time>2026-04-14T16:28:29.001Z</time></trkpt><trkpt lat="44.815983417767455" lon="7.291299545980159"><ele>434.0</ele><time>2026-04-14T16:28:31.001Z</time></trkpt><trkpt lat="44.81604333169677" lon="7.291348160936781"><ele>434.0</ele><time>2026-04-14T16:28:32.001Z</time></trkpt><trkpt lat="44.81610220373869" lon="7.291400820763586"><ele>434.0</ele><time>2026-04-14T16:28:33.001Z</time></trkpt><trkpt lat="44.81615805926352" lon="7.291457619905519"><ele>432.4</ele><time>2026-04-14T16:28:34.001Z</time></trkpt><trkpt lat="44.81621506379046" lon="7.291522279179213"><ele>430.79999999999995</ele><time>2026-04-14T16:28:35.001Z</time></trkpt><trkpt lat="44.816269823213084" lon="7.291585495715965"><ele>429.20000000000005</ele><time>2026-04-14T16:28:36.001Z</time></trkpt><trkpt lat="44.81635372928337" lon="7.291706867189084"><ele>427.6</ele><time>2026-04-14T16:28:38.001Z</time></trkpt><trkpt lat="44.81642108000402" lon="7.291807257624911"><ele>426.0</ele><time>2026-04-14T16:28:40.001Z</time></trkpt><trkpt lat="44.81644467584516" lon="7.291941124029815"><ele>426.0</ele><time>2026-04-14T16:28:42.001Z</time></trkpt><trkpt lat="44.8163916189551" lon="7.29205064751435"><ele>426.0</ele><time>2026-04-14T16:28:44.001Z</time></trkpt><trkpt lat="44.81632295742191" lon="7.292124686233862"><ele>426.0</ele><time>2026-04-14T16:28:46.001Z</time></trkpt><trkpt lat="44.816266745619" lon="7.292201559227535"><ele>426.0</ele><time>2026-04-14T16:28:48.001Z</time></trkpt><trkpt lat="44.8161994563686" lon="7.29229672524233"><ele>426.0</ele><time>2026-04-14T16:28:50.001Z</time></trkpt><trkpt lat="44.81612128044556" lon="7.2923984926568535"><ele>424.6666666666667</ele><time>2026-04-14T16:28:52.001Z</time></trkpt><trkpt lat="44.8160563584928" lon="7.292520769206775"><ele>423.33333333333337</ele><time>2026-04-14T16:28:54.001Z</time></trkpt><trkpt lat="44.81609118171645" lon="7.292681067275712"><ele>422.0</ele><time>2026-04-14T16:28:56.001Z</time></trkpt><trkpt lat="44.81613847307906" lon="7.292745587335147"><ele>420.6666666666667</ele><time>2026-04-14T16:28:57.001Z</time></trkpt><trkpt lat="44.81618611794303" lon="7.292811465629029"><ele>419.33333333333337</ele><time>2026-04-14T16:28:58.001Z</time></trkpt><trkpt lat="44.81623713803293" lon="7.2928845321041225"><ele>418.0</ele><time>2026-04-14T16:28:59.001Z</time></trkpt><trkpt lat="44.81628773499694" lon="7.292958408068487"><ele>418.00000000000006</ele><time>2026-04-14T16:29:00.001Z</time></trkpt><trkpt lat="44.816341941659125" lon="7.293035052301941"><ele>418.0</ele><time>2026-04-14T16:29:01.001Z</time></trkpt><trkpt lat="44.81639897675764" lon="7.293117188395767"><ele>418.0</ele><time>2026-04-14T16:29:02.001Z</time></trkpt><trkpt lat="44.816457141715475" lon="7.293200313085338"><ele>418.0</ele><time>2026-04-14T16:29:03.001Z</time></trkpt><trkpt lat="44.81651964724396" lon="7.293284635653846"><ele>418.00000000000006</ele><time>2026-04-14T16:29:04.001Z</time></trkpt><trkpt lat="44.8165829147823" lon="7.29337278131638"><ele>418.0</ele><time>2026-04-14T16:29:05.001Z</time></trkpt><trkpt lat="44.816647767976335" lon="7.29346167294085"><ele>417.79999999999995</ele><time>2026-04-14T16:29:06.001Z</time></trkpt><trkpt lat="44.816715777848756" lon="7.293551250463767"><ele>417.6</ele><time>2026-04-14T16:29:07.001Z</time></trkpt><trkpt lat="44.81678751993663" lon="7.293643448098444"><ele>417.4</ele><time>2026-04-14T16:29:08.001Z</time></trkpt><trkpt lat="44.81685973960623" lon="7.293739140581532"><ele>417.20000000000005</ele><time>2026-04-14T16:29:09.001Z</time></trkpt><trkpt lat="44.81692979142449" lon="7.293837121243296"><ele>417.0</ele><time>2026-04-14T16:29:10.001Z</time></trkpt><trkpt lat="44.816997856777796" lon="7.293936931595444"><ele>415.6666666666667</ele><time>2026-04-14T16:29:11.001Z</time></trkpt><trkpt lat="44.817063463788266" lon="7.29403740874843"><ele>414.33333333333337</ele><time>2026-04-14T16:29:12.001Z</time></trkpt><trkpt lat="44.817127873848406" lon="7.294139913785168"><ele>413.0</ele><time>2026-04-14T16:29:13.001Z</time></trkpt><trkpt lat="44.817183869215214" lon="7.294235961310588"><ele>411.6666666666667</ele><time>2026-04-14T16:29:14.001Z</time></trkpt><trkpt lat="44.81722948782093" lon="7.29432170378024"><ele>410.33333333333337</ele><time>2026-04-14T16:29:15.001Z</time></trkpt><trkpt lat="44.81726737513451" lon="7.294400314681399"><ele>409.0</ele><time>2026-04-14T16:29:16.001Z</time></trkpt><trkpt lat="44.81732226935642" lon="7.294557010853066"><ele>409.0</ele><time>2026-04-14T16:29:18.001Z</time></trkpt><trkpt lat="44.81736288139979" lon="7.294700420902097"><ele>409.0</ele><time>2026-04-14T16:29:20.001Z</time></trkpt><trkpt lat="44.8173914316614" lon="7.294812961472686"><ele>409.0</ele><time>2026-04-14T16:29:22.001Z</time></trkpt><trkpt lat="44.81741754055161" lon="7.294912764017135"><ele>409.0</ele><time>2026-04-14T16:29:24.001Z</time></trkpt><trkpt lat="44.81748119848099" lon="7.294980405549208"><ele>409.0</ele><time>2026-04-14T16:29:26.001Z</time></trkpt><trkpt lat="44.81758526787111" lon="7.2949723686348875"><ele>409.2</ele><time>2026-04-14T16:29:28.001Z</time></trkpt><trkpt lat="44.81767305941567" lon="7.294908446410862"><ele>409.4</ele><time>2026-04-14T16:29:30.001Z</time></trkpt><trkpt lat="44.817763705180944" lon="7.294860974309068"><ele>409.6</ele><time>2026-04-14T16:29:32.001Z</time></trkpt><trkpt lat="44.81786290249402" lon="7.294811538029376"><ele>409.8</ele><time>2026-04-14T16:29:34.001Z</time></trkpt><trkpt lat="44.81796376635893" lon="7.2947666543770575"><ele>410.0</ele><time>2026-04-14T16:29:36.002Z</time></trkpt><trkpt lat="44.81806379931068" lon="7.294730322936741"><ele>410.0</ele><time>2026-04-14T16:29:38.002Z</time></trkpt><trkpt lat="44.81817034930785" lon="7.294689588916219"><ele>410.0</ele><time>2026-04-14T16:29:40.002Z</time></trkpt><trkpt lat="44.818275278473585" lon="7.294658847809129"><ele>410.0</ele><time>2026-04-14T16:29:42.002Z</time></trkpt><trkpt lat="44.818378462599384" lon="7.2946215693118095"><ele>410.0</ele><time>2026-04-14T16:29:44.002Z</time></trkpt><trkpt lat="44.81848166775292" lon="7.294596982936573"><ele>410.0</ele><time>2026-04-14T16:29:46.002Z</time></trkpt><trkpt lat="44.81858581111935" lon="7.294574645009959"><ele>410.2</ele><time>2026-04-14T16:29:48.002Z</time></trkpt><trkpt lat="44.81869219640778" lon="7.294554643612239"><ele>410.4</ele><time>2026-04-14T16:29:50.002Z</time></trkpt><trkpt lat="44.81880089152196" lon="7.294537827665679"><ele>410.6</ele><time>2026-04-14T16:29:52.002Z</time></trkpt><trkpt lat="44.81891161353225" lon="7.294527970584839"><ele>410.8</ele><time>2026-04-14T16:29:54.002Z</time></trkpt><trkpt lat="44.81903001885903" lon="7.294528229382968"><ele>411.0</ele><time>2026-04-14T16:29:56.002Z</time></trkpt><trkpt lat="44.81914859845334" lon="7.294531508816818"><ele>411.0</ele><time>2026-04-14T16:29:58.002Z</time></trkpt><trkpt lat="44.8192717758694" lon="7.294559121844366"><ele>411.0</ele><time>2026-04-14T16:30:00.002Z</time></trkpt><trkpt lat="44.81933179872856" lon="7.294587514144822"><ele>411.0</ele><time>2026-04-14T16:30:01.002Z</time></trkpt><trkpt lat="44.81938907362202" lon="7.294627000756645"><ele>411.0</ele><time>2026-04-14T16:30:02.002Z</time></trkpt><trkpt lat="44.81944450397264" lon="7.294669287356922"><ele>411.0</ele><time>2026-04-14T16:30:03.002Z</time></trkpt><trkpt lat="44.81949934232474" lon="7.29471402767767"><ele>411.0</ele><time>2026-04-14T16:30:04.002Z</time></trkpt><trkpt lat="44.819553510327815" lon="7.294762019852569"><ele>411.0</ele><time>2026-04-14T16:30:05.002Z</time></trkpt><trkpt lat="44.81960710143464" lon="7.294813860903575"><ele>410.7142857142857</ele><time>2026-04-14T16:30:06.002Z</time></trkpt><trkpt lat="44.81965795425311" lon="7.294869454516047"><ele>410.42857142857144</ele><time>2026-04-14T16:30:07.002Z</time></trkpt><trkpt lat="44.819704108723194" lon="7.294933153601369"><ele>410.1428571428571</ele><time>2026-04-14T16:30:08.002Z</time></trkpt><trkpt lat="44.819747470977" lon="7.295000499020325"><ele>409.8571428571429</ele><time>2026-04-14T16:30:09.002Z</time></trkpt><trkpt lat="44.81979015327378" lon="7.295068136785905"><ele>409.5714285714286</ele><time>2026-04-14T16:30:10.002Z</time></trkpt><trkpt lat="44.81983386620541" lon="7.295134860359148"><ele>409.2857142857143</ele><time>2026-04-14T16:30:11.002Z</time></trkpt><trkpt lat="44.819880021761925" lon="7.295205385168756"><ele>409.0</ele><time>2026-04-14T16:30:12.002Z</time></trkpt><trkpt lat="44.81992525499356" lon="7.295279088501799"><ele>409.00000000000006</ele><time>2026-04-14T16:30:13.002Z</time></trkpt><trkpt lat="44.81996988924187" lon="7.295358138571907"><ele>409.0</ele><time>2026-04-14T16:30:14.002Z</time></trkpt><trkpt lat="44.82001372559515" lon="7.2954409131769955"><ele>409.0</ele><time>2026-04-14T16:30:15.002Z</time></trkpt><trkpt lat="44.820059916976774" lon="7.295524806544724"><ele>409.0</ele><time>2026-04-14T16:30:16.002Z</time></trkpt><trkpt lat="44.82010738660325" lon="7.2956095321961"><ele>409.00000000000006</ele><time>2026-04-14T16:30:17.002Z</time></trkpt><trkpt lat="44.82015255763726" lon="7.295697970240225"><ele>409.0</ele><time>2026-04-14T16:30:18.002Z</time></trkpt><trkpt lat="44.82019255058036" lon="7.29579475193544"><ele>408.33333333333337</ele><time>2026-04-14T16:30:19.001Z</time></trkpt><trkpt lat="44.82023033267312" lon="7.295895508412114"><ele>407.6666666666667</ele><time>2026-04-14T16:30:20.001Z</time></trkpt><trkpt lat="44.82027565453039" lon="7.295981778714015"><ele>407.0</ele><time>2026-04-14T16:30:21.001Z</time></trkpt><trkpt lat="44.8203140616748" lon="7.296054376367742"><ele>406.33333333333337</ele><time>2026-04-14T16:30:22.001Z</time></trkpt><trkpt lat="44.82037477990446" lon="7.296158444661189"><ele>405.6666666666667</ele><time>2026-04-14T16:30:24.001Z</time></trkpt><trkpt lat="44.820424898754716" lon="7.296240781835006"><ele>405.0</ele><time>2026-04-14T16:30:26.001Z</time></trkpt><trkpt lat="44.820501100673255" lon="7.29626254938656"><ele>405.0</ele><time>2026-04-14T16:30:28.001Z</time></trkpt><trkpt lat="44.820573045081176" lon="7.296182987268251"><ele>405.0</ele><time>2026-04-14T16:30:30.001Z</time></trkpt><trkpt lat="44.820643844292555" lon="7.296094514970154"><ele>405.0</ele><time>2026-04-14T16:30:32.001Z</time></trkpt><trkpt lat="44.82071973144472" lon="7.296006454786021"><ele>405.0</ele><time>2026-04-14T16:30:34.001Z</time></trkpt><trkpt lat="44.8207965771045" lon="7.295927855926093"><ele>405.0</ele><time>2026-04-14T16:30:36.001Z</time></trkpt><trkpt lat="44.82086139814104" lon="7.295839921171568"><ele>405.0</ele><time>2026-04-14T16:30:38.001Z</time></trkpt><trkpt lat="44.82090872851034" lon="7.295738719516824"><ele>405.0</ele><time>2026-04-14T16:30:40.001Z</time></trkpt><trkpt lat="44.820955106598305" lon="7.295652775982171"><ele>405.0</ele><time>2026-04-14T16:30:42.001Z</time></trkpt><trkpt lat="44.820994817688685" lon="7.295578561678287"><ele>405.0</ele><time>2026-04-14T16:30:44.001Z</time></trkpt><trkpt lat="44.82104132141807" lon="7.2954786078982385"><ele>405.0</ele><time>2026-04-14T16:30:47.001Z</time></trkpt><trkpt lat="44.82107460282766" lon="7.295367932022533"><ele>405.0</ele><time>2026-04-14T16:30:50.001Z</time></trkpt><trkpt lat="44.82108702385901" lon="7.295243587601937"><ele>406.6666666666667</ele><time>2026-04-14T16:30:53.001Z</time></trkpt><trkpt lat="44.82110047510809" lon="7.295124044355756"><ele>408.33333333333337</ele><time>2026-04-14T16:30:56.001Z</time></trkpt><trkpt lat="44.821109134725965" lon="7.294996066743208"><ele>410.0</ele><time>2026-04-14T16:30:59.001Z</time></trkpt><trkpt lat="44.821126559751136" lon="7.294879803824679"><ele>411.6666666666667</ele><time>2026-04-14T16:31:02.001Z</time></trkpt><trkpt lat="44.8211564260753" lon="7.294771861774052"><ele>413.33333333333337</ele><time>2026-04-14T16:31:05.001Z</time></trkpt><trkpt lat="44.82119434193108" lon="7.294667361488238"><ele>415.0</ele><time>2026-04-14T16:31:08.001Z</time></trkpt><trkpt lat="44.82124586642831" lon="7.2945716979005"><ele>415.7142857142857</ele><time>2026-04-14T16:31:11.001Z</time></trkpt><trkpt lat="44.82128788925351" lon="7.294501817978838"><ele>416.42857142857144</ele><time>2026-04-14T16:31:13.001Z</time></trkpt><trkpt lat="44.82135574759239" lon="7.29442997211762"><ele>417.1428571428571</ele><time>2026-04-14T16:31:16.001Z</time></trkpt><trkpt lat="44.821435883322906" lon="7.294375129315545"><ele>417.8571428571429</ele><time>2026-04-14T16:31:19.001Z</time></trkpt><trkpt lat="44.82150261246525" lon="7.294334793417681"><ele>418.57142857142856</ele><time>2026-04-14T16:31:22.001Z</time></trkpt><trkpt lat="44.82156342066244" lon="7.294289650055165"><ele>419.2857142857143</ele><time>2026-04-14T16:31:25.001Z</time></trkpt><trkpt lat="44.821616400155236" lon="7.294233078311782"><ele>420.0</ele><time>2026-04-14T16:31:28.001Z</time></trkpt><trkpt lat="44.821673520753095" lon="7.294154655407797"><ele>420.0</ele><time>2026-04-14T16:31:32.001Z</time></trkpt><trkpt lat="44.821732118915165" lon="7.2940720637551095"><ele>420.0</ele><time>2026-04-14T16:31:36.001Z</time></trkpt><trkpt lat="44.821795735940775" lon="7.294007397891615"><ele>420.0</ele><time>2026-04-14T16:31:40.001Z</time></trkpt><trkpt lat="44.821863557619245" lon="7.293961736584654"><ele>420.0</ele><time>2026-04-14T16:31:44.002Z</time></trkpt><trkpt lat="44.82192994495195" lon="7.293910329140725"><ele>420.0</ele><time>2026-04-14T16:31:48.002Z</time></trkpt><trkpt lat="44.82200065360449" lon="7.2938682634802445"><ele>420.0</ele><time>2026-04-14T16:31:52.002Z</time></trkpt><trkpt lat="44.822078931519556" lon="7.2938322270788065"><ele>420.0</ele><time>2026-04-14T16:31:56.002Z</time></trkpt><trkpt lat="44.822149833736766" lon="7.293888687669949"><ele>420.0</ele><time>2026-04-14T16:32:00.002Z</time></trkpt><trkpt lat="44.822178593842935" lon="7.293998187483076"><ele>420.0</ele><time>2026-04-14T16:32:04.002Z</time></trkpt><trkpt lat="44.822238390454984" lon="7.294072664031305"><ele>420.0</ele><time>2026-04-14T16:32:08.002Z</time></trkpt><trkpt lat="44.82230233518872" lon="7.294127815682059"><ele>420.0</ele><time>2026-04-14T16:32:10.002Z</time></trkpt><trkpt lat="44.822361563169274" lon="7.294221776116729"><ele>420.0</ele><time>2026-04-14T16:32:12.002Z</time></trkpt><trkpt lat="44.82243882830774" lon="7.2943177861047905"><ele>420.0</ele><time>2026-04-14T16:32:14.002Z</time></trkpt><trkpt lat="44.822526984942314" lon="7.294408299576687"><ele>420.0</ele><time>2026-04-14T16:32:16.002Z</time></trkpt><trkpt lat="44.822628203059516" lon="7.29449446253489"><ele>420.0</ele><time>2026-04-14T16:32:18.002Z</time></trkpt><trkpt lat="44.82268459513687" lon="7.294541407060836"><ele>420.0</ele><time>2026-04-14T16:32:19.002Z</time></trkpt><trkpt lat="44.82274418056131" lon="7.2945967584810525"><ele>420.0</ele><time>2026-04-14T16:32:20.002Z</time></trkpt><trkpt lat="44.82280618457201" lon="7.294649889286985"><ele>420.0</ele><time>2026-04-14T16:32:21.002Z</time></trkpt><trkpt lat="44.8228624843286" lon="7.294696822838345"><ele>419.4</ele><time>2026-04-14T16:32:22.002Z</time></trkpt><trkpt lat="44.82295855781616" lon="7.294787105309255"><ele>418.8</ele><time>2026-04-14T16:32:24.001Z</time></trkpt><trkpt lat="44.823046239706954" lon="7.294917081056441"><ele>418.20000000000005</ele><time>2026-04-14T16:32:26.001Z</time></trkpt><trkpt lat="44.82308710320828" lon="7.294997772163019"><ele>417.6</ele><time>2026-04-14T16:32:27.001Z</time></trkpt><trkpt lat="44.82312357901234" lon="7.2950901874666485"><ele>417.0</ele><time>2026-04-14T16:32:28.001Z</time></trkpt><trkpt lat="44.82315871237289" lon="7.295186351900327"><ele>417.0</ele><time>2026-04-14T16:32:29.001Z</time></trkpt><trkpt lat="44.823192367233226" lon="7.295287331276145"><ele>417.0</ele><time>2026-04-14T16:32:30.001Z</time></trkpt><trkpt lat="44.82323242195163" lon="7.2953831062272485"><ele>417.0</ele><time>2026-04-14T16:32:31.001Z</time></trkpt><trkpt lat="44.82327470795664" lon="7.295473787228451"><ele>417.0</ele><time>2026-04-14T16:32:32.001Z</time></trkpt><trkpt lat="44.82332185161434" lon="7.295562302479907"><ele>417.0</ele><time>2026-04-14T16:32:33.001Z</time></trkpt><trkpt lat="44.823370022750446" lon="7.295651550855864"><ele>417.0</ele><time>2026-04-14T16:32:34.001Z</time></trkpt><trkpt lat="44.823420575958274" lon="7.2957360926984345"><ele>416.8571428571429</ele><time>2026-04-14T16:32:35.001Z</time></trkpt><trkpt lat="44.82347266551905" lon="7.295821380809603"><ele>416.71428571428567</ele><time>2026-04-14T16:32:36.001Z</time></trkpt><trkpt lat="44.82352155186742" lon="7.295901766819218"><ele>416.57142857142856</ele><time>2026-04-14T16:32:37.001Z</time></trkpt><trkpt lat="44.82356813927783" lon="7.295971493874659"><ele>416.42857142857144</ele><time>2026-04-14T16:32:38.001Z</time></trkpt><trkpt lat="44.823613016092686" lon="7.296034638081258"><ele>416.28571428571433</ele><time>2026-04-14T16:32:39.001Z</time></trkpt><trkpt lat="44.82366196199763" lon="7.296105823324468"><ele>416.1428571428571</ele><time>2026-04-14T16:32:40.001Z</time></trkpt><trkpt lat="44.82371287927027" lon="7.296168732466837"><ele>416.0</ele><time>2026-04-14T16:32:41.001Z</time></trkpt><trkpt lat="44.82377325688525" lon="7.296253125467653"><ele>415.8333333333333</ele><time>2026-04-14T16:32:42.001Z</time></trkpt><trkpt lat="44.82384218068412" lon="7.296339412988901"><ele>415.66666666666663</ele><time>2026-04-14T16:32:43.001Z</time></trkpt><trkpt lat="44.82390464295858" lon="7.296437138085091"><ele>415.5</ele><time>2026-04-14T16:32:44.001Z</time></trkpt><trkpt lat="44.823959607887204" lon="7.296517860524828"><ele>415.33333333333337</ele><time>2026-04-14T16:32:45.001Z</time></trkpt><trkpt lat="44.82401889679186" lon="7.296590098706911"><ele>415.1666666666667</ele><time>2026-04-14T16:32:46.001Z</time></trkpt><trkpt lat="44.82409584667215" lon="7.29665485925309"><ele>415.0</ele><time>2026-04-14T16:32:47.001Z</time></trkpt><trkpt lat="44.824173475943354" lon="7.296728761050115"><ele>414.6</ele><time>2026-04-14T16:32:48.001Z</time></trkpt><trkpt lat="44.824257756679366" lon="7.296799300327959"><ele>414.2</ele><time>2026-04-14T16:32:49.001Z</time></trkpt><trkpt lat="44.824343307253606" lon="7.29686415218496"><ele>413.79999999999995</ele><time>2026-04-14T16:32:50.001Z</time></trkpt><trkpt lat="44.824433160362354" lon="7.296931521796112"><ele>413.4</ele><time>2026-04-14T16:32:51.001Z</time></trkpt><trkpt lat="44.82451554402617" lon="7.297010976658405"><ele>413.0</ele><time>2026-04-14T16:32:52.001Z</time></trkpt><trkpt lat="44.8245954976446" lon="7.2970774996367105"><ele>412.66666666666663</ele><time>2026-04-14T16:32:53.001Z</time></trkpt><trkpt lat="44.82467498421887" lon="7.297140845101559"><ele>412.3333333333333</ele><time>2026-04-14T16:32:54.001Z</time></trkpt><trkpt lat="44.82475464362234" lon="7.297205336383599"><ele>412.0</ele><time>2026-04-14T16:32:55.001Z</time></trkpt><trkpt lat="44.824819999738864" lon="7.297262844186866"><ele>411.66666666666663</ele><time>2026-04-14T16:32:56.001Z</time></trkpt><trkpt lat="44.82487538905704" lon="7.297306033743572"><ele>411.3333333333333</ele><time>2026-04-14T16:32:57.001Z</time></trkpt><trkpt lat="44.82496034604224" lon="7.297362488831315"><ele>411.0</ele><time>2026-04-14T16:32:59.001Z</time></trkpt><trkpt lat="44.82504027559865" lon="7.297438903238713"><ele>410.20000000000005</ele><time>2026-04-14T16:33:01.001Z</time></trkpt><trkpt lat="44.82509383618365" lon="7.297561626687952"><ele>409.40000000000003</ele><time>2026-04-14T16:33:03.001Z</time></trkpt><trkpt lat="44.82515487974619" lon="7.297709083216279"><ele>408.6</ele><time>2026-04-14T16:33:05.001Z</time></trkpt><trkpt lat="44.82520973212272" lon="7.2978655291629995"><ele>407.8</ele><time>2026-04-14T16:33:07.001Z</time></trkpt><trkpt lat="44.825240554027886" lon="7.297943866067835"><ele>407.0</ele><time>2026-04-14T16:33:08.001Z</time></trkpt><trkpt lat="44.82529664651993" lon="7.298097017618274"><ele>405.25</ele><time>2026-04-14T16:33:10.001Z</time></trkpt><trkpt lat="44.82535376194336" lon="7.298250242553682"><ele>403.5</ele><time>2026-04-14T16:33:12.001Z</time></trkpt><trkpt lat="44.82541004983973" lon="7.298395835215755"><ele>401.75</ele><time>2026-04-14T16:33:14.001Z</time></trkpt><trkpt lat="44.82545354550893" lon="7.29855192127325"><ele>400.0</ele><time>2026-04-14T16:33:16.001Z</time></trkpt><trkpt lat="44.8254871169964" lon="7.2986913394279656"><ele>400.0</ele><time>2026-04-14T16:33:18.001Z</time></trkpt><trkpt lat="44.825519683278955" lon="7.298845727144575"><ele>400.0</ele><time>2026-04-14T16:33:20.001Z</time></trkpt><trkpt lat="44.825549725631944" lon="7.299001702945547"><ele>400.0</ele><time>2026-04-14T16:33:22.001Z</time></trkpt><trkpt lat="44.82558426415146" lon="7.2991569889029915"><ele>400.0</ele><time>2026-04-14T16:33:24.001Z</time></trkpt><trkpt lat="44.82562019670504" lon="7.29931281009687"><ele>400.0</ele><time>2026-04-14T16:33:26.001Z</time></trkpt><trkpt lat="44.825649879832824" lon="7.299457082340131"><ele>400.0</ele><time>2026-04-14T16:33:28.001Z</time></trkpt><trkpt lat="44.825683497103" lon="7.299568243456834"><ele>400.0</ele><time>2026-04-14T16:33:30.001Z</time></trkpt><trkpt lat="44.82570570840338" lon="7.2996785750509225"><ele>400.0</ele><time>2026-04-14T16:33:32.001Z</time></trkpt><trkpt lat="44.82573192521342" lon="7.299800590451151"><ele>400.0</ele><time>2026-04-14T16:33:34.001Z</time></trkpt><trkpt lat="44.82575616162024" lon="7.299927199189086"><ele>399.50000000000006</ele><time>2026-04-14T16:33:36.001Z</time></trkpt><trkpt lat="44.825790981143726" lon="7.300048469020753"><ele>399.0</ele><time>2026-04-14T16:33:38.001Z</time></trkpt><trkpt lat="44.825810533143084" lon="7.300169753768624"><ele>398.5</ele><time>2026-04-14T16:33:40.001Z</time></trkpt><trkpt lat="44.82583090705025" lon="7.300280526263585"><ele>398.0</ele><time>2026-04-14T16:33:42.001Z</time></trkpt><trkpt lat="44.825831494792105" lon="7.300391387120859"><ele>397.50000000000006</ele><time>2026-04-14T16:33:44.001Z</time></trkpt><trkpt lat="44.82583728834431" lon="7.300521036426829"><ele>397.0</ele><time>2026-04-14T16:33:46.002Z</time></trkpt><trkpt lat="44.825833607669885" lon="7.300670440306088"><ele>396.20000000000005</ele><time>2026-04-14T16:33:48.002Z</time></trkpt><trkpt lat="44.82584249527527" lon="7.300829856515397"><ele>395.4</ele><time>2026-04-14T16:33:50.002Z</time></trkpt><trkpt lat="44.82584758832509" lon="7.300981691860912"><ele>394.6</ele><time>2026-04-14T16:33:52.002Z</time></trkpt><trkpt lat="44.82584815188607" lon="7.301133557073067"><ele>393.79999999999995</ele><time>2026-04-14T16:33:54.002Z</time></trkpt><trkpt lat="44.8258342633631" lon="7.301278885956606"><ele>393.0</ele><time>2026-04-14T16:33:56.002Z</time></trkpt><trkpt lat="44.825817103174344" lon="7.301437590606528"><ele>392.59999999999997</ele><time>2026-04-14T16:33:58.002Z</time></trkpt><trkpt lat="44.82581061320865" lon="7.301605610199469"><ele>392.2</ele><time>2026-04-14T16:34:00.002Z</time></trkpt><trkpt lat="44.82581641329108" lon="7.301695288472537"><ele>391.8</ele><time>2026-04-14T16:34:01.002Z</time></trkpt><trkpt lat="44.82582375114933" lon="7.301851464835468"><ele>391.4</ele><time>2026-04-14T16:34:03.002Z</time></trkpt><trkpt lat="44.82581839809843" lon="7.30197849759852"><ele>391.0</ele><time>2026-04-14T16:34:05.002Z</time></trkpt><trkpt lat="44.82580097184699" lon="7.302077425440426"><ele>390.99999999999994</ele><time>2026-04-14T16:34:07.002Z</time></trkpt><trkpt lat="44.8257879587075" lon="7.302179673208128"><ele>391.0</ele><time>2026-04-14T16:34:09.002Z</time></trkpt><trkpt lat="44.82579533889154" lon="7.302289249002249"><ele>391.0</ele><time>2026-04-14T16:34:11.002Z</time></trkpt><trkpt lat="44.82582721488207" lon="7.302389643070862"><ele>391.0</ele><time>2026-04-14T16:34:14.002Z</time></trkpt><trkpt lat="44.82589871361419" lon="7.302417489437474"><ele>391.0</ele><time>2026-04-14T16:34:17.002Z</time></trkpt><trkpt lat="44.82595972763203" lon="7.302373344701962"><ele>390.99999999999994</ele><time>2026-04-14T16:34:23.002Z</time></trkpt><trkpt lat="44.82602789663089" lon="7.302370091170133"><ele>391.0</ele><time>2026-04-14T16:34:27.002Z</time></trkpt><trkpt lat="44.82602245230632" lon="7.302517554607563"><ele>398.0</ele><time>2026-04-14T16:34:29.002Z</time></trkpt><trkpt lat="44.82599995894422" lon="7.3026127931633695"><ele>398.0</ele><time>2026-04-14T16:34:31Z</time></trkpt><trkpt lat="44.82603382897564" lon="7.302693665517588"><ele>398.0</ele><time>2026-04-14T16:34:33Z</time></trkpt></trkseg></trk></gpx>